<?xml version="1.0" encoding="UTF-8" standalone="no" ?>
<gpx xmlns="http://www.topografix.com/GPX/1/1" xmlns:xsi="http://www.w3.org/2001/XMLSchema-instance" xsi:schemaLocation="http://www.topografix.com/GPX/1/1 http://www.topografix.com/GPX/1/1/gpx.xsd" version="1.1" creator="VisuGPX - https://www.visugpx.com">
  <metadata>
    <name>14516955-Autisme 2022- 94km</name>
  </metadata>
  <trk>
    <name><![CDATA[14516955-Autisme 2022- 94km]]></name>
    <trkseg>
      <trkpt lat="47.35406" lon="-0.44578">
        <ele>42</ele>
        <time>2022-04-04T16:30:56Z</time>
      </trkpt>
      <trkpt lat="47.35406" lon="-0.44579">
        <ele>42</ele>
        <time>2022-04-04T16:30:56Z</time>
      </trkpt>
      <trkpt lat="47.35365" lon="-0.44669">
        <ele>44</ele>
        <time>2022-04-04T16:31:09Z</time>
      </trkpt>
      <trkpt lat="47.35343" lon="-0.44714">
        <ele>46</ele>
        <time>2022-04-04T16:31:16Z</time>
      </trkpt>
      <trkpt lat="47.35352" lon="-0.44736">
        <ele>46</ele>
        <time>2022-04-04T16:31:19Z</time>
      </trkpt>
      <trkpt lat="47.35358" lon="-0.44762">
        <ele>47</ele>
        <time>2022-04-04T16:31:22Z</time>
      </trkpt>
      <trkpt lat="47.35369" lon="-0.44889">
        <ele>51</ele>
        <time>2022-04-04T16:31:38Z</time>
      </trkpt>
      <trkpt lat="47.35372" lon="-0.44896">
        <ele>51</ele>
        <time>2022-04-04T16:31:39Z</time>
      </trkpt>
      <trkpt lat="47.35369" lon="-0.44899">
        <ele>51</ele>
        <time>2022-04-04T16:31:39Z</time>
      </trkpt>
      <trkpt lat="47.35367" lon="-0.44907">
        <ele>51</ele>
        <time>2022-04-04T16:31:40Z</time>
      </trkpt>
      <trkpt lat="47.35347" lon="-0.45028">
        <ele>42</ele>
        <time>2022-04-04T16:31:55Z</time>
      </trkpt>
      <trkpt lat="47.35343" lon="-0.45043">
        <ele>41</ele>
        <time>2022-04-04T16:31:57Z</time>
      </trkpt>
      <trkpt lat="47.35325" lon="-0.45098">
        <ele>40</ele>
        <time>2022-04-04T16:32:05Z</time>
      </trkpt>
      <trkpt lat="47.35278" lon="-0.45236">
        <ele>42</ele>
        <time>2022-04-04T16:32:23Z</time>
      </trkpt>
      <trkpt lat="47.35269" lon="-0.45268">
        <ele>43</ele>
        <time>2022-04-04T16:32:28Z</time>
      </trkpt>
      <trkpt lat="47.3525" lon="-0.45318">
        <ele>45</ele>
        <time>2022-04-04T16:32:34Z</time>
      </trkpt>
      <trkpt lat="47.34911" lon="-0.45628">
        <ele>53</ele>
        <time>2022-04-04T16:33:45Z</time>
      </trkpt>
      <trkpt lat="47.34823" lon="-0.45713">
        <ele>52</ele>
        <time>2022-04-04T16:34:04Z</time>
      </trkpt>
      <trkpt lat="47.34657" lon="-0.45864">
        <ele>63</ele>
        <time>2022-04-04T16:34:39Z</time>
      </trkpt>
      <trkpt lat="47.34492" lon="-0.46021">
        <ele>63</ele>
        <time>2022-04-04T16:35:14Z</time>
      </trkpt>
      <trkpt lat="47.34339" lon="-0.46175">
        <ele>51</ele>
        <time>2022-04-04T16:35:47Z</time>
      </trkpt>
      <trkpt lat="47.34306" lon="-0.46217">
        <ele>51</ele>
        <time>2022-04-04T16:35:54Z</time>
      </trkpt>
      <trkpt lat="47.34198" lon="-0.46446">
        <ele>57</ele>
        <time>2022-04-04T16:36:28Z</time>
      </trkpt>
      <trkpt lat="47.34182" lon="-0.46474">
        <ele>58</ele>
        <time>2022-04-04T16:36:32Z</time>
      </trkpt>
      <trkpt lat="47.34152" lon="-0.46509">
        <ele>59</ele>
        <time>2022-04-04T16:36:39Z</time>
      </trkpt>
      <trkpt lat="47.34072" lon="-0.4657">
        <ele>59</ele>
        <time>2022-04-04T16:36:55Z</time>
      </trkpt>
      <trkpt lat="47.34026" lon="-0.4661">
        <ele>59</ele>
        <time>2022-04-04T16:37:05Z</time>
      </trkpt>
      <trkpt lat="47.3395" lon="-0.46707">
        <ele>58</ele>
        <time>2022-04-04T16:37:23Z</time>
      </trkpt>
      <trkpt lat="47.33889" lon="-0.46781">
        <ele>59</ele>
        <time>2022-04-04T16:37:37Z</time>
      </trkpt>
      <trkpt lat="47.33851" lon="-0.46834">
        <ele>61</ele>
        <time>2022-04-04T16:37:46Z</time>
      </trkpt>
      <trkpt lat="47.33739" lon="-0.46995">
        <ele>60</ele>
        <time>2022-04-04T16:38:14Z</time>
      </trkpt>
      <trkpt lat="47.33726" lon="-0.47017">
        <ele>61</ele>
        <time>2022-04-04T16:38:17Z</time>
      </trkpt>
      <trkpt lat="47.33728" lon="-0.47025">
        <ele>61</ele>
        <time>2022-04-04T16:38:18Z</time>
      </trkpt>
      <trkpt lat="47.33578" lon="-0.47244">
        <ele>68</ele>
        <time>2022-04-04T16:38:56Z</time>
      </trkpt>
      <trkpt lat="47.33537" lon="-0.47298">
        <ele>68</ele>
        <time>2022-04-04T16:39:06Z</time>
      </trkpt>
      <trkpt lat="47.33511" lon="-0.47336">
        <ele>67</ele>
        <time>2022-04-04T16:39:12Z</time>
      </trkpt>
      <trkpt lat="47.33444" lon="-0.47475">
        <ele>68</ele>
        <time>2022-04-04T16:39:33Z</time>
      </trkpt>
      <trkpt lat="47.33352" lon="-0.47654">
        <ele>67</ele>
        <time>2022-04-04T16:40:00Z</time>
      </trkpt>
      <trkpt lat="47.33326" lon="-0.47681">
        <ele>67</ele>
        <time>2022-04-04T16:40:06Z</time>
      </trkpt>
      <trkpt lat="47.33326" lon="-0.47688">
        <ele>67</ele>
        <time>2022-04-04T16:40:06Z</time>
      </trkpt>
      <trkpt lat="47.33322" lon="-0.47692">
        <ele>68</ele>
        <time>2022-04-04T16:40:07Z</time>
      </trkpt>
      <trkpt lat="47.33319" lon="-0.47689">
        <ele>68</ele>
        <time>2022-04-04T16:40:08Z</time>
      </trkpt>
      <trkpt lat="47.33318" lon="-0.47683">
        <ele>68</ele>
        <time>2022-04-04T16:40:09Z</time>
      </trkpt>
      <trkpt lat="47.33288" lon="-0.47687">
        <ele>68</ele>
        <time>2022-04-04T16:40:14Z</time>
      </trkpt>
      <trkpt lat="47.33209" lon="-0.47702">
        <ele>70</ele>
        <time>2022-04-04T16:40:28Z</time>
      </trkpt>
      <trkpt lat="47.33184" lon="-0.47713">
        <ele>71</ele>
        <time>2022-04-04T16:40:33Z</time>
      </trkpt>
      <trkpt lat="47.33173" lon="-0.47723">
        <ele>72</ele>
        <time>2022-04-04T16:40:35Z</time>
      </trkpt>
      <trkpt lat="47.3315" lon="-0.47734">
        <ele>72</ele>
        <time>2022-04-04T16:40:39Z</time>
      </trkpt>
      <trkpt lat="47.33082" lon="-0.47754">
        <ele>73</ele>
        <time>2022-04-04T16:40:52Z</time>
      </trkpt>
      <trkpt lat="47.33077" lon="-0.47753">
        <ele>73</ele>
        <time>2022-04-04T16:40:53Z</time>
      </trkpt>
      <trkpt lat="47.33072" lon="-0.47748">
        <ele>73</ele>
        <time>2022-04-04T16:40:54Z</time>
      </trkpt>
      <trkpt lat="47.33019" lon="-0.47557">
        <ele>72</ele>
        <time>2022-04-04T16:41:19Z</time>
      </trkpt>
      <trkpt lat="47.33006" lon="-0.47483">
        <ele>71</ele>
        <time>2022-04-04T16:41:28Z</time>
      </trkpt>
      <trkpt lat="47.33" lon="-0.47469">
        <ele>70</ele>
        <time>2022-04-04T16:41:30Z</time>
      </trkpt>
      <trkpt lat="47.32988" lon="-0.47458">
        <ele>70</ele>
        <time>2022-04-04T16:41:32Z</time>
      </trkpt>
      <trkpt lat="47.3298" lon="-0.47454">
        <ele>70</ele>
        <time>2022-04-04T16:41:34Z</time>
      </trkpt>
      <trkpt lat="47.32928" lon="-0.47442">
        <ele>71</ele>
        <time>2022-04-04T16:41:43Z</time>
      </trkpt>
      <trkpt lat="47.32916" lon="-0.47437">
        <ele>71</ele>
        <time>2022-04-04T16:41:45Z</time>
      </trkpt>
      <trkpt lat="47.32902" lon="-0.47424">
        <ele>71</ele>
        <time>2022-04-04T16:41:48Z</time>
      </trkpt>
      <trkpt lat="47.32889" lon="-0.47403">
        <ele>71</ele>
        <time>2022-04-04T16:41:52Z</time>
      </trkpt>
      <trkpt lat="47.32864" lon="-0.47341">
        <ele>71</ele>
        <time>2022-04-04T16:42:01Z</time>
      </trkpt>
      <trkpt lat="47.32854" lon="-0.47323">
        <ele>71</ele>
        <time>2022-04-04T16:42:03Z</time>
      </trkpt>
      <trkpt lat="47.32813" lon="-0.47261">
        <ele>72</ele>
        <time>2022-04-04T16:42:14Z</time>
      </trkpt>
      <trkpt lat="47.32789" lon="-0.47216">
        <ele>72</ele>
        <time>2022-04-04T16:42:21Z</time>
      </trkpt>
      <trkpt lat="47.32775" lon="-0.47182">
        <ele>72</ele>
        <time>2022-04-04T16:42:25Z</time>
      </trkpt>
      <trkpt lat="47.32767" lon="-0.47154">
        <ele>72</ele>
        <time>2022-04-04T16:42:29Z</time>
      </trkpt>
      <trkpt lat="47.32761" lon="-0.47125">
        <ele>73</ele>
        <time>2022-04-04T16:42:33Z</time>
      </trkpt>
      <trkpt lat="47.32745" lon="-0.47022">
        <ele>74</ele>
        <time>2022-04-04T16:42:46Z</time>
      </trkpt>
      <trkpt lat="47.32742" lon="-0.46997">
        <ele>74</ele>
        <time>2022-04-04T16:42:49Z</time>
      </trkpt>
      <trkpt lat="47.32738" lon="-0.46929">
        <ele>75</ele>
        <time>2022-04-04T16:42:57Z</time>
      </trkpt>
      <trkpt lat="47.32715" lon="-0.46763">
        <ele>76</ele>
        <time>2022-04-04T16:43:17Z</time>
      </trkpt>
      <trkpt lat="47.327" lon="-0.46629">
        <ele>74</ele>
        <time>2022-04-04T16:43:34Z</time>
      </trkpt>
      <trkpt lat="47.32693" lon="-0.466">
        <ele>73</ele>
        <time>2022-04-04T16:43:37Z</time>
      </trkpt>
      <trkpt lat="47.32677" lon="-0.46559">
        <ele>72</ele>
        <time>2022-04-04T16:43:43Z</time>
      </trkpt>
      <trkpt lat="47.32654" lon="-0.46519">
        <ele>70</ele>
        <time>2022-04-04T16:43:49Z</time>
      </trkpt>
      <trkpt lat="47.3264" lon="-0.46498">
        <ele>69</ele>
        <time>2022-04-04T16:43:53Z</time>
      </trkpt>
      <trkpt lat="47.32308" lon="-0.46069">
        <ele>49</ele>
        <time>2022-04-04T16:45:11Z</time>
      </trkpt>
      <trkpt lat="47.32297" lon="-0.46059">
        <ele>49</ele>
        <time>2022-04-04T16:45:14Z</time>
      </trkpt>
      <trkpt lat="47.3228" lon="-0.46044">
        <ele>50</ele>
        <time>2022-04-04T16:45:17Z</time>
      </trkpt>
      <trkpt lat="47.32265" lon="-0.46037">
        <ele>50</ele>
        <time>2022-04-04T16:45:20Z</time>
      </trkpt>
      <trkpt lat="47.32202" lon="-0.46024">
        <ele>51</ele>
        <time>2022-04-04T16:45:31Z</time>
      </trkpt>
      <trkpt lat="47.32166" lon="-0.46028">
        <ele>50</ele>
        <time>2022-04-04T16:45:38Z</time>
      </trkpt>
      <trkpt lat="47.3207" lon="-0.46065">
        <ele>57</ele>
        <time>2022-04-04T16:45:55Z</time>
      </trkpt>
      <trkpt lat="47.32049" lon="-0.46071">
        <ele>58</ele>
        <time>2022-04-04T16:45:59Z</time>
      </trkpt>
      <trkpt lat="47.32035" lon="-0.46072">
        <ele>59</ele>
        <time>2022-04-04T16:46:02Z</time>
      </trkpt>
      <trkpt lat="47.32021" lon="-0.4607">
        <ele>59</ele>
        <time>2022-04-04T16:46:04Z</time>
      </trkpt>
      <trkpt lat="47.32005" lon="-0.46064">
        <ele>60</ele>
        <time>2022-04-04T16:46:07Z</time>
      </trkpt>
      <trkpt lat="47.31927" lon="-0.46015">
        <ele>62</ele>
        <time>2022-04-04T16:46:22Z</time>
      </trkpt>
      <trkpt lat="47.31902" lon="-0.46006">
        <ele>62</ele>
        <time>2022-04-04T16:46:27Z</time>
      </trkpt>
      <trkpt lat="47.31836" lon="-0.46005">
        <ele>65</ele>
        <time>2022-04-04T16:46:39Z</time>
      </trkpt>
      <trkpt lat="47.31796" lon="-0.4599">
        <ele>64</ele>
        <time>2022-04-04T16:46:46Z</time>
      </trkpt>
      <trkpt lat="47.31699" lon="-0.45964">
        <ele>64</ele>
        <time>2022-04-04T16:47:04Z</time>
      </trkpt>
      <trkpt lat="47.31614" lon="-0.45962">
        <ele>64</ele>
        <time>2022-04-04T16:47:19Z</time>
      </trkpt>
      <trkpt lat="47.31519" lon="-0.45955">
        <ele>63</ele>
        <time>2022-04-04T16:47:36Z</time>
      </trkpt>
      <trkpt lat="47.31382" lon="-0.45957">
        <ele>60</ele>
        <time>2022-04-04T16:48:00Z</time>
      </trkpt>
      <trkpt lat="47.31365" lon="-0.45954">
        <ele>60</ele>
        <time>2022-04-04T16:48:03Z</time>
      </trkpt>
      <trkpt lat="47.3135" lon="-0.4595">
        <ele>59</ele>
        <time>2022-04-04T16:48:06Z</time>
      </trkpt>
      <trkpt lat="47.3133" lon="-0.45936">
        <ele>59</ele>
        <time>2022-04-04T16:48:10Z</time>
      </trkpt>
      <trkpt lat="47.31278" lon="-0.45893">
        <ele>62</ele>
        <time>2022-04-04T16:48:20Z</time>
      </trkpt>
      <trkpt lat="47.31249" lon="-0.45873">
        <ele>64</ele>
        <time>2022-04-04T16:48:26Z</time>
      </trkpt>
      <trkpt lat="47.31197" lon="-0.45841">
        <ele>65</ele>
        <time>2022-04-04T16:48:36Z</time>
      </trkpt>
      <trkpt lat="47.31108" lon="-0.45799">
        <ele>67</ele>
        <time>2022-04-04T16:48:53Z</time>
      </trkpt>
      <trkpt lat="47.31067" lon="-0.45784">
        <ele>67</ele>
        <time>2022-04-04T16:49:00Z</time>
      </trkpt>
      <trkpt lat="47.31042" lon="-0.45772">
        <ele>67</ele>
        <time>2022-04-04T16:49:05Z</time>
      </trkpt>
      <trkpt lat="47.30916" lon="-0.45701">
        <ele>66</ele>
        <time>2022-04-04T16:49:29Z</time>
      </trkpt>
      <trkpt lat="47.30844" lon="-0.45652">
        <ele>67</ele>
        <time>2022-04-04T16:49:43Z</time>
      </trkpt>
      <trkpt lat="47.30819" lon="-0.45638">
        <ele>67</ele>
        <time>2022-04-04T16:49:48Z</time>
      </trkpt>
      <trkpt lat="47.3078" lon="-0.45625">
        <ele>68</ele>
        <time>2022-04-04T16:49:55Z</time>
      </trkpt>
      <trkpt lat="47.30714" lon="-0.45614">
        <ele>68</ele>
        <time>2022-04-04T16:50:07Z</time>
      </trkpt>
      <trkpt lat="47.30692" lon="-0.45606">
        <ele>68</ele>
        <time>2022-04-04T16:50:11Z</time>
      </trkpt>
      <trkpt lat="47.30652" lon="-0.45585">
        <ele>69</ele>
        <time>2022-04-04T16:50:18Z</time>
      </trkpt>
      <trkpt lat="47.30586" lon="-0.45566">
        <ele>69</ele>
        <time>2022-04-04T16:50:30Z</time>
      </trkpt>
      <trkpt lat="47.30568" lon="-0.45552">
        <ele>69</ele>
        <time>2022-04-04T16:50:34Z</time>
      </trkpt>
      <trkpt lat="47.30555" lon="-0.45535">
        <ele>70</ele>
        <time>2022-04-04T16:50:37Z</time>
      </trkpt>
      <trkpt lat="47.30437" lon="-0.45362">
        <ele>75</ele>
        <time>2022-04-04T16:51:06Z</time>
      </trkpt>
      <trkpt lat="47.30418" lon="-0.4534">
        <ele>76</ele>
        <time>2022-04-04T16:51:11Z</time>
      </trkpt>
      <trkpt lat="47.30346" lon="-0.45272">
        <ele>76</ele>
        <time>2022-04-04T16:51:26Z</time>
      </trkpt>
      <trkpt lat="47.30331" lon="-0.45255">
        <ele>76</ele>
        <time>2022-04-04T16:51:29Z</time>
      </trkpt>
      <trkpt lat="47.30326" lon="-0.45246">
        <ele>76</ele>
        <time>2022-04-04T16:51:31Z</time>
      </trkpt>
      <trkpt lat="47.30322" lon="-0.45235">
        <ele>76</ele>
        <time>2022-04-04T16:51:32Z</time>
      </trkpt>
      <trkpt lat="47.30311" lon="-0.45162">
        <ele>75</ele>
        <time>2022-04-04T16:51:41Z</time>
      </trkpt>
      <trkpt lat="47.30306" lon="-0.45102">
        <ele>73</ele>
        <time>2022-04-04T16:51:49Z</time>
      </trkpt>
      <trkpt lat="47.30299" lon="-0.45066">
        <ele>72</ele>
        <time>2022-04-04T16:51:53Z</time>
      </trkpt>
      <trkpt lat="47.30273" lon="-0.44977">
        <ele>69</ele>
        <time>2022-04-04T16:52:05Z</time>
      </trkpt>
      <trkpt lat="47.3026" lon="-0.44917">
        <ele>69</ele>
        <time>2022-04-04T16:52:12Z</time>
      </trkpt>
      <trkpt lat="47.30278" lon="-0.4491">
        <ele>69</ele>
        <time>2022-04-04T16:52:16Z</time>
      </trkpt>
      <trkpt lat="47.30276" lon="-0.44902">
        <ele>69</ele>
        <time>2022-04-04T16:52:17Z</time>
      </trkpt>
      <trkpt lat="47.30273" lon="-0.44845">
        <ele>67</ele>
        <time>2022-04-04T16:52:24Z</time>
      </trkpt>
      <trkpt lat="47.30237" lon="-0.44637">
        <ele>61</ele>
        <time>2022-04-04T16:52:50Z</time>
      </trkpt>
      <trkpt lat="47.3023" lon="-0.44583">
        <ele>60</ele>
        <time>2022-04-04T16:52:56Z</time>
      </trkpt>
      <trkpt lat="47.30213" lon="-0.44486">
        <ele>60</ele>
        <time>2022-04-04T16:53:08Z</time>
      </trkpt>
      <trkpt lat="47.30209" lon="-0.44449">
        <ele>61</ele>
        <time>2022-04-04T16:53:13Z</time>
      </trkpt>
      <trkpt lat="47.30208" lon="-0.44431">
        <ele>61</ele>
        <time>2022-04-04T16:53:15Z</time>
      </trkpt>
      <trkpt lat="47.3021" lon="-0.44395">
        <ele>62</ele>
        <time>2022-04-04T16:53:19Z</time>
      </trkpt>
      <trkpt lat="47.30222" lon="-0.44342">
        <ele>63</ele>
        <time>2022-04-04T16:53:26Z</time>
      </trkpt>
      <trkpt lat="47.30228" lon="-0.44327">
        <ele>63</ele>
        <time>2022-04-04T16:53:28Z</time>
      </trkpt>
      <trkpt lat="47.30224" lon="-0.44322">
        <ele>63</ele>
        <time>2022-04-04T16:53:29Z</time>
      </trkpt>
      <trkpt lat="47.30202" lon="-0.44231">
        <ele>66</ele>
        <time>2022-04-04T16:53:41Z</time>
      </trkpt>
      <trkpt lat="47.3019" lon="-0.44192">
        <ele>67</ele>
        <time>2022-04-04T16:53:46Z</time>
      </trkpt>
      <trkpt lat="47.30178" lon="-0.44159">
        <ele>68</ele>
        <time>2022-04-04T16:53:50Z</time>
      </trkpt>
      <trkpt lat="47.30173" lon="-0.44138">
        <ele>68</ele>
        <time>2022-04-04T16:53:53Z</time>
      </trkpt>
      <trkpt lat="47.30171" lon="-0.44122">
        <ele>69</ele>
        <time>2022-04-04T16:53:55Z</time>
      </trkpt>
      <trkpt lat="47.30157" lon="-0.43892">
        <ele>69</ele>
        <time>2022-04-04T16:54:23Z</time>
      </trkpt>
      <trkpt lat="47.30152" lon="-0.43836">
        <ele>69</ele>
        <time>2022-04-04T16:54:30Z</time>
      </trkpt>
      <trkpt lat="47.3014" lon="-0.4377">
        <ele>69</ele>
        <time>2022-04-04T16:54:38Z</time>
      </trkpt>
      <trkpt lat="47.30134" lon="-0.4377">
        <ele>69</ele>
        <time>2022-04-04T16:54:39Z</time>
      </trkpt>
      <trkpt lat="47.30019" lon="-0.43745">
        <ele>70</ele>
        <time>2022-04-04T16:55:00Z</time>
      </trkpt>
      <trkpt lat="47.298" lon="-0.43694">
        <ele>70</ele>
        <time>2022-04-04T16:55:39Z</time>
      </trkpt>
      <trkpt lat="47.29678" lon="-0.43701">
        <ele>68</ele>
        <time>2022-04-04T16:56:01Z</time>
      </trkpt>
      <trkpt lat="47.2964" lon="-0.43697">
        <ele>68</ele>
        <time>2022-04-04T16:56:08Z</time>
      </trkpt>
      <trkpt lat="47.29615" lon="-0.43687">
        <ele>68</ele>
        <time>2022-04-04T16:56:12Z</time>
      </trkpt>
      <trkpt lat="47.29538" lon="-0.43633">
        <ele>69</ele>
        <time>2022-04-04T16:56:27Z</time>
      </trkpt>
      <trkpt lat="47.29475" lon="-0.43599">
        <ele>69</ele>
        <time>2022-04-04T16:56:39Z</time>
      </trkpt>
      <trkpt lat="47.29449" lon="-0.43582">
        <ele>68</ele>
        <time>2022-04-04T16:56:44Z</time>
      </trkpt>
      <trkpt lat="47.29426" lon="-0.43559">
        <ele>68</ele>
        <time>2022-04-04T16:56:49Z</time>
      </trkpt>
      <trkpt lat="47.29408" lon="-0.43532">
        <ele>69</ele>
        <time>2022-04-04T16:56:54Z</time>
      </trkpt>
      <trkpt lat="47.29379" lon="-0.4347">
        <ele>69</ele>
        <time>2022-04-04T16:57:03Z</time>
      </trkpt>
      <trkpt lat="47.2937" lon="-0.43456">
        <ele>69</ele>
        <time>2022-04-04T16:57:05Z</time>
      </trkpt>
      <trkpt lat="47.2936" lon="-0.43447">
        <ele>69</ele>
        <time>2022-04-04T16:57:07Z</time>
      </trkpt>
      <trkpt lat="47.29348" lon="-0.43441">
        <ele>69</ele>
        <time>2022-04-04T16:57:10Z</time>
      </trkpt>
      <trkpt lat="47.29306" lon="-0.43433">
        <ele>70</ele>
        <time>2022-04-04T16:57:17Z</time>
      </trkpt>
      <trkpt lat="47.29284" lon="-0.43436">
        <ele>70</ele>
        <time>2022-04-04T16:57:21Z</time>
      </trkpt>
      <trkpt lat="47.29161" lon="-0.43495">
        <ele>70</ele>
        <time>2022-04-04T16:57:44Z</time>
      </trkpt>
      <trkpt lat="47.29145" lon="-0.43508">
        <ele>70</ele>
        <time>2022-04-04T16:57:47Z</time>
      </trkpt>
      <trkpt lat="47.29122" lon="-0.43537">
        <ele>71</ele>
        <time>2022-04-04T16:57:53Z</time>
      </trkpt>
      <trkpt lat="47.29059" lon="-0.43641">
        <ele>71</ele>
        <time>2022-04-04T16:58:10Z</time>
      </trkpt>
      <trkpt lat="47.29037" lon="-0.43672">
        <ele>71</ele>
        <time>2022-04-04T16:58:15Z</time>
      </trkpt>
      <trkpt lat="47.29015" lon="-0.43686">
        <ele>71</ele>
        <time>2022-04-04T16:58:19Z</time>
      </trkpt>
      <trkpt lat="47.28951" lon="-0.43713">
        <ele>72</ele>
        <time>2022-04-04T16:58:31Z</time>
      </trkpt>
      <trkpt lat="47.28926" lon="-0.43735">
        <ele>73</ele>
        <time>2022-04-04T16:58:36Z</time>
      </trkpt>
      <trkpt lat="47.28887" lon="-0.43796">
        <ele>74</ele>
        <time>2022-04-04T16:58:47Z</time>
      </trkpt>
      <trkpt lat="47.28872" lon="-0.43815">
        <ele>74</ele>
        <time>2022-04-04T16:58:50Z</time>
      </trkpt>
      <trkpt lat="47.28859" lon="-0.43825">
        <ele>74</ele>
        <time>2022-04-04T16:58:53Z</time>
      </trkpt>
      <trkpt lat="47.28845" lon="-0.43832">
        <ele>74</ele>
        <time>2022-04-04T16:58:55Z</time>
      </trkpt>
      <trkpt lat="47.28802" lon="-0.43842">
        <ele>75</ele>
        <time>2022-04-04T16:59:03Z</time>
      </trkpt>
      <trkpt lat="47.28791" lon="-0.43849">
        <ele>75</ele>
        <time>2022-04-04T16:59:05Z</time>
      </trkpt>
      <trkpt lat="47.28781" lon="-0.43857">
        <ele>75</ele>
        <time>2022-04-04T16:59:07Z</time>
      </trkpt>
      <trkpt lat="47.28773" lon="-0.43867">
        <ele>75</ele>
        <time>2022-04-04T16:59:09Z</time>
      </trkpt>
      <trkpt lat="47.28744" lon="-0.4393">
        <ele>76</ele>
        <time>2022-04-04T16:59:18Z</time>
      </trkpt>
      <trkpt lat="47.28724" lon="-0.43959">
        <ele>75</ele>
        <time>2022-04-04T16:59:23Z</time>
      </trkpt>
      <trkpt lat="47.28649" lon="-0.44032">
        <ele>74</ele>
        <time>2022-04-04T16:59:39Z</time>
      </trkpt>
      <trkpt lat="47.28612" lon="-0.4408">
        <ele>73</ele>
        <time>2022-04-04T16:59:48Z</time>
      </trkpt>
      <trkpt lat="47.28588" lon="-0.44107">
        <ele>73</ele>
        <time>2022-04-04T16:59:53Z</time>
      </trkpt>
      <trkpt lat="47.28475" lon="-0.44223">
        <ele>75</ele>
        <time>2022-04-04T17:00:18Z</time>
      </trkpt>
      <trkpt lat="47.2834" lon="-0.44337">
        <ele>77</ele>
        <time>2022-04-04T17:00:46Z</time>
      </trkpt>
      <trkpt lat="47.28307" lon="-0.44367">
        <ele>78</ele>
        <time>2022-04-04T17:00:52Z</time>
      </trkpt>
      <trkpt lat="47.28249" lon="-0.44431">
        <ele>80</ele>
        <time>2022-04-04T17:01:05Z</time>
      </trkpt>
      <trkpt lat="47.28221" lon="-0.44453">
        <ele>80</ele>
        <time>2022-04-04T17:01:11Z</time>
      </trkpt>
      <trkpt lat="47.28179" lon="-0.44493">
        <ele>81</ele>
        <time>2022-04-04T17:01:20Z</time>
      </trkpt>
      <trkpt lat="47.28108" lon="-0.44552">
        <ele>83</ele>
        <time>2022-04-04T17:01:34Z</time>
      </trkpt>
      <trkpt lat="47.28075" lon="-0.44577">
        <ele>84</ele>
        <time>2022-04-04T17:01:41Z</time>
      </trkpt>
      <trkpt lat="47.27971" lon="-0.44643">
        <ele>84</ele>
        <time>2022-04-04T17:02:01Z</time>
      </trkpt>
      <trkpt lat="47.27781" lon="-0.44777">
        <ele>85</ele>
        <time>2022-04-04T17:02:39Z</time>
      </trkpt>
      <trkpt lat="47.2758" lon="-0.44969">
        <ele>84</ele>
        <time>2022-04-04T17:03:21Z</time>
      </trkpt>
      <trkpt lat="47.27569" lon="-0.44975">
        <ele>84</ele>
        <time>2022-04-04T17:03:23Z</time>
      </trkpt>
      <trkpt lat="47.27555" lon="-0.44973">
        <ele>84</ele>
        <time>2022-04-04T17:03:26Z</time>
      </trkpt>
      <trkpt lat="47.27524" lon="-0.44963">
        <ele>84</ele>
        <time>2022-04-04T17:03:31Z</time>
      </trkpt>
      <trkpt lat="47.27492" lon="-0.4496">
        <ele>85</ele>
        <time>2022-04-04T17:03:37Z</time>
      </trkpt>
      <trkpt lat="47.27453" lon="-0.44962">
        <ele>84</ele>
        <time>2022-04-04T17:03:44Z</time>
      </trkpt>
      <trkpt lat="47.27428" lon="-0.44968">
        <ele>84</ele>
        <time>2022-04-04T17:03:49Z</time>
      </trkpt>
      <trkpt lat="47.27416" lon="-0.44974">
        <ele>84</ele>
        <time>2022-04-04T17:03:51Z</time>
      </trkpt>
      <trkpt lat="47.27394" lon="-0.44992">
        <ele>85</ele>
        <time>2022-04-04T17:03:55Z</time>
      </trkpt>
      <trkpt lat="47.27371" lon="-0.45006">
        <ele>85</ele>
        <time>2022-04-04T17:04:00Z</time>
      </trkpt>
      <trkpt lat="47.27322" lon="-0.45044">
        <ele>85</ele>
        <time>2022-04-04T17:04:10Z</time>
      </trkpt>
      <trkpt lat="47.27296" lon="-0.45067">
        <ele>84</ele>
        <time>2022-04-04T17:04:15Z</time>
      </trkpt>
      <trkpt lat="47.27259" lon="-0.45088">
        <ele>83</ele>
        <time>2022-04-04T17:04:22Z</time>
      </trkpt>
      <trkpt lat="47.27208" lon="-0.45111">
        <ele>83</ele>
        <time>2022-04-04T17:04:32Z</time>
      </trkpt>
      <trkpt lat="47.27015" lon="-0.45195">
        <ele>83</ele>
        <time>2022-04-04T17:05:07Z</time>
      </trkpt>
      <trkpt lat="47.26985" lon="-0.4521">
        <ele>83</ele>
        <time>2022-04-04T17:05:13Z</time>
      </trkpt>
      <trkpt lat="47.26911" lon="-0.45237">
        <ele>83</ele>
        <time>2022-04-04T17:05:27Z</time>
      </trkpt>
      <trkpt lat="47.26908" lon="-0.45101">
        <ele>84</ele>
        <time>2022-04-04T17:05:43Z</time>
      </trkpt>
      <trkpt lat="47.2691" lon="-0.4509">
        <ele>84</ele>
        <time>2022-04-04T17:05:44Z</time>
      </trkpt>
      <trkpt lat="47.26919" lon="-0.45063">
        <ele>84</ele>
        <time>2022-04-04T17:05:48Z</time>
      </trkpt>
      <trkpt lat="47.26949" lon="-0.44987">
        <ele>83</ele>
        <time>2022-04-04T17:05:59Z</time>
      </trkpt>
      <trkpt lat="47.26961" lon="-0.44952">
        <ele>83</ele>
        <time>2022-04-04T17:06:03Z</time>
      </trkpt>
      <trkpt lat="47.26967" lon="-0.44924">
        <ele>83</ele>
        <time>2022-04-04T17:06:07Z</time>
      </trkpt>
      <trkpt lat="47.26976" lon="-0.44851">
        <ele>84</ele>
        <time>2022-04-04T17:06:16Z</time>
      </trkpt>
      <trkpt lat="47.2698" lon="-0.44731">
        <ele>83</ele>
        <time>2022-04-04T17:06:30Z</time>
      </trkpt>
      <trkpt lat="47.26979" lon="-0.44682">
        <ele>83</ele>
        <time>2022-04-04T17:06:36Z</time>
      </trkpt>
      <trkpt lat="47.26972" lon="-0.44616">
        <ele>83</ele>
        <time>2022-04-04T17:06:44Z</time>
      </trkpt>
      <trkpt lat="47.26961" lon="-0.44553">
        <ele>83</ele>
        <time>2022-04-04T17:06:52Z</time>
      </trkpt>
      <trkpt lat="47.26958" lon="-0.44525">
        <ele>83</ele>
        <time>2022-04-04T17:06:56Z</time>
      </trkpt>
      <trkpt lat="47.26958" lon="-0.445">
        <ele>83</ele>
        <time>2022-04-04T17:06:59Z</time>
      </trkpt>
      <trkpt lat="47.26961" lon="-0.44469">
        <ele>83</ele>
        <time>2022-04-04T17:07:02Z</time>
      </trkpt>
      <trkpt lat="47.2697" lon="-0.44421">
        <ele>83</ele>
        <time>2022-04-04T17:07:08Z</time>
      </trkpt>
      <trkpt lat="47.27001" lon="-0.44317">
        <ele>84</ele>
        <time>2022-04-04T17:07:22Z</time>
      </trkpt>
      <trkpt lat="47.27006" lon="-0.44297">
        <ele>84</ele>
        <time>2022-04-04T17:07:25Z</time>
      </trkpt>
      <trkpt lat="47.27008" lon="-0.44279">
        <ele>84</ele>
        <time>2022-04-04T17:07:27Z</time>
      </trkpt>
      <trkpt lat="47.27006" lon="-0.44241">
        <ele>84</ele>
        <time>2022-04-04T17:07:32Z</time>
      </trkpt>
      <trkpt lat="47.26981" lon="-0.44043">
        <ele>83</ele>
        <time>2022-04-04T17:07:56Z</time>
      </trkpt>
      <trkpt lat="47.26976" lon="-0.44044">
        <ele>83</ele>
        <time>2022-04-04T17:07:57Z</time>
      </trkpt>
      <trkpt lat="47.26966" lon="-0.44037">
        <ele>83</ele>
        <time>2022-04-04T17:07:59Z</time>
      </trkpt>
      <trkpt lat="47.26926" lon="-0.4399">
        <ele>82</ele>
        <time>2022-04-04T17:08:08Z</time>
      </trkpt>
      <trkpt lat="47.26909" lon="-0.43983">
        <ele>82</ele>
        <time>2022-04-04T17:08:11Z</time>
      </trkpt>
      <trkpt lat="47.26895" lon="-0.43984">
        <ele>82</ele>
        <time>2022-04-04T17:08:13Z</time>
      </trkpt>
      <trkpt lat="47.26842" lon="-0.44003">
        <ele>81</ele>
        <time>2022-04-04T17:08:23Z</time>
      </trkpt>
      <trkpt lat="47.26794" lon="-0.44016">
        <ele>80</ele>
        <time>2022-04-04T17:08:32Z</time>
      </trkpt>
      <trkpt lat="47.26689" lon="-0.44033">
        <ele>79</ele>
        <time>2022-04-04T17:08:51Z</time>
      </trkpt>
      <trkpt lat="47.26642" lon="-0.44049">
        <ele>79</ele>
        <time>2022-04-04T17:08:59Z</time>
      </trkpt>
      <trkpt lat="47.26548" lon="-0.44088">
        <ele>80</ele>
        <time>2022-04-04T17:09:17Z</time>
      </trkpt>
      <trkpt lat="47.26449" lon="-0.44102">
        <ele>80</ele>
        <time>2022-04-04T17:09:34Z</time>
      </trkpt>
      <trkpt lat="47.26334" lon="-0.4415">
        <ele>78</ele>
        <time>2022-04-04T17:09:56Z</time>
      </trkpt>
      <trkpt lat="47.26295" lon="-0.44173">
        <ele>78</ele>
        <time>2022-04-04T17:10:03Z</time>
      </trkpt>
      <trkpt lat="47.26158" lon="-0.44276">
        <ele>77</ele>
        <time>2022-04-04T17:10:30Z</time>
      </trkpt>
      <trkpt lat="47.26024" lon="-0.44381">
        <ele>77</ele>
        <time>2022-04-04T17:10:57Z</time>
      </trkpt>
      <trkpt lat="47.2601" lon="-0.44386">
        <ele>77</ele>
        <time>2022-04-04T17:11:00Z</time>
      </trkpt>
      <trkpt lat="47.26011" lon="-0.44397">
        <ele>77</ele>
        <time>2022-04-04T17:11:01Z</time>
      </trkpt>
      <trkpt lat="47.2597" lon="-0.44414">
        <ele>77</ele>
        <time>2022-04-04T17:11:09Z</time>
      </trkpt>
      <trkpt lat="47.25941" lon="-0.44421">
        <ele>76</ele>
        <time>2022-04-04T17:11:14Z</time>
      </trkpt>
      <trkpt lat="47.25848" lon="-0.44426">
        <ele>79</ele>
        <time>2022-04-04T17:11:31Z</time>
      </trkpt>
      <trkpt lat="47.25797" lon="-0.44445">
        <ele>79</ele>
        <time>2022-04-04T17:11:40Z</time>
      </trkpt>
      <trkpt lat="47.24899" lon="-0.45488">
        <ele>45</ele>
        <time>2022-04-04T17:15:03Z</time>
      </trkpt>
      <trkpt lat="47.24896" lon="-0.45464">
        <ele>46</ele>
        <time>2022-04-04T17:15:06Z</time>
      </trkpt>
      <trkpt lat="47.24876" lon="-0.45479">
        <ele>46</ele>
        <time>2022-04-04T17:15:10Z</time>
      </trkpt>
      <trkpt lat="47.24843" lon="-0.4554">
        <ele>45</ele>
        <time>2022-04-04T17:15:20Z</time>
      </trkpt>
      <trkpt lat="47.24835" lon="-0.45551">
        <ele>45</ele>
        <time>2022-04-04T17:15:22Z</time>
      </trkpt>
      <trkpt lat="47.24827" lon="-0.45558">
        <ele>45</ele>
        <time>2022-04-04T17:15:23Z</time>
      </trkpt>
      <trkpt lat="47.2482" lon="-0.45562">
        <ele>45</ele>
        <time>2022-04-04T17:15:25Z</time>
      </trkpt>
      <trkpt lat="47.24776" lon="-0.4557">
        <ele>47</ele>
        <time>2022-04-04T17:15:33Z</time>
      </trkpt>
      <trkpt lat="47.24658" lon="-0.45583">
        <ele>50</ele>
        <time>2022-04-04T17:15:54Z</time>
      </trkpt>
      <trkpt lat="47.2452" lon="-0.45603">
        <ele>55</ele>
        <time>2022-04-04T17:16:18Z</time>
      </trkpt>
      <trkpt lat="47.24392" lon="-0.45628">
        <ele>59</ele>
        <time>2022-04-04T17:16:41Z</time>
      </trkpt>
      <trkpt lat="47.24349" lon="-0.45642">
        <ele>61</ele>
        <time>2022-04-04T17:16:49Z</time>
      </trkpt>
      <trkpt lat="47.24331" lon="-0.45652">
        <ele>61</ele>
        <time>2022-04-04T17:16:53Z</time>
      </trkpt>
      <trkpt lat="47.24216" lon="-0.45742">
        <ele>58</ele>
        <time>2022-04-04T17:17:16Z</time>
      </trkpt>
      <trkpt lat="47.24117" lon="-0.4584">
        <ele>54</ele>
        <time>2022-04-04T17:17:37Z</time>
      </trkpt>
      <trkpt lat="47.24093" lon="-0.45868">
        <ele>53</ele>
        <time>2022-04-04T17:17:42Z</time>
      </trkpt>
      <trkpt lat="47.24051" lon="-0.45929">
        <ele>51</ele>
        <time>2022-04-04T17:17:53Z</time>
      </trkpt>
      <trkpt lat="47.23991" lon="-0.46013">
        <ele>48</ele>
        <time>2022-04-04T17:18:08Z</time>
      </trkpt>
      <trkpt lat="47.23957" lon="-0.46055">
        <ele>48</ele>
        <time>2022-04-04T17:18:16Z</time>
      </trkpt>
      <trkpt lat="47.23855" lon="-0.46147">
        <ele>44</ele>
        <time>2022-04-04T17:18:37Z</time>
      </trkpt>
      <trkpt lat="47.2382" lon="-0.46173">
        <ele>44</ele>
        <time>2022-04-04T17:18:44Z</time>
      </trkpt>
      <trkpt lat="47.23775" lon="-0.46202">
        <ele>44</ele>
        <time>2022-04-04T17:18:53Z</time>
      </trkpt>
      <trkpt lat="47.23765" lon="-0.46212">
        <ele>44</ele>
        <time>2022-04-04T17:18:55Z</time>
      </trkpt>
      <trkpt lat="47.23716" lon="-0.46279">
        <ele>45</ele>
        <time>2022-04-04T17:19:07Z</time>
      </trkpt>
      <trkpt lat="47.23697" lon="-0.46298">
        <ele>45</ele>
        <time>2022-04-04T17:19:11Z</time>
      </trkpt>
      <trkpt lat="47.23682" lon="-0.46308">
        <ele>46</ele>
        <time>2022-04-04T17:19:14Z</time>
      </trkpt>
      <trkpt lat="47.23633" lon="-0.46325">
        <ele>47</ele>
        <time>2022-04-04T17:19:23Z</time>
      </trkpt>
      <trkpt lat="47.23605" lon="-0.46326">
        <ele>47</ele>
        <time>2022-04-04T17:19:28Z</time>
      </trkpt>
      <trkpt lat="47.23594" lon="-0.46255">
        <ele>48</ele>
        <time>2022-04-04T17:19:36Z</time>
      </trkpt>
      <trkpt lat="47.23585" lon="-0.46171">
        <ele>49</ele>
        <time>2022-04-04T17:19:47Z</time>
      </trkpt>
      <trkpt lat="47.2357" lon="-0.46116">
        <ele>49</ele>
        <time>2022-04-04T17:19:54Z</time>
      </trkpt>
      <trkpt lat="47.23557" lon="-0.46036">
        <ele>50</ele>
        <time>2022-04-04T17:20:04Z</time>
      </trkpt>
      <trkpt lat="47.23546" lon="-0.45998">
        <ele>50</ele>
        <time>2022-04-04T17:20:09Z</time>
      </trkpt>
      <trkpt lat="47.23543" lon="-0.4599">
        <ele>50</ele>
        <time>2022-04-04T17:20:10Z</time>
      </trkpt>
      <trkpt lat="47.23538" lon="-0.45984">
        <ele>51</ele>
        <time>2022-04-04T17:20:11Z</time>
      </trkpt>
      <trkpt lat="47.23527" lon="-0.4598">
        <ele>51</ele>
        <time>2022-04-04T17:20:13Z</time>
      </trkpt>
      <trkpt lat="47.23476" lon="-0.45997">
        <ele>53</ele>
        <time>2022-04-04T17:20:22Z</time>
      </trkpt>
      <trkpt lat="47.23453" lon="-0.45994">
        <ele>53</ele>
        <time>2022-04-04T17:20:26Z</time>
      </trkpt>
      <trkpt lat="47.23426" lon="-0.45981">
        <ele>54</ele>
        <time>2022-04-04T17:20:31Z</time>
      </trkpt>
      <trkpt lat="47.23412" lon="-0.45969">
        <ele>54</ele>
        <time>2022-04-04T17:20:34Z</time>
      </trkpt>
      <trkpt lat="47.23386" lon="-0.45941">
        <ele>53</ele>
        <time>2022-04-04T17:20:40Z</time>
      </trkpt>
      <trkpt lat="47.23365" lon="-0.4593">
        <ele>54</ele>
        <time>2022-04-04T17:20:44Z</time>
      </trkpt>
      <trkpt lat="47.23345" lon="-0.45924">
        <ele>54</ele>
        <time>2022-04-04T17:20:48Z</time>
      </trkpt>
      <trkpt lat="47.23326" lon="-0.45907">
        <ele>54</ele>
        <time>2022-04-04T17:20:52Z</time>
      </trkpt>
      <trkpt lat="47.23313" lon="-0.4589">
        <ele>55</ele>
        <time>2022-04-04T17:20:55Z</time>
      </trkpt>
      <trkpt lat="47.23269" lon="-0.45813">
        <ele>56</ele>
        <time>2022-04-04T17:21:07Z</time>
      </trkpt>
      <trkpt lat="47.23262" lon="-0.45804">
        <ele>56</ele>
        <time>2022-04-04T17:21:09Z</time>
      </trkpt>
      <trkpt lat="47.23228" lon="-0.45788">
        <ele>57</ele>
        <time>2022-04-04T17:21:15Z</time>
      </trkpt>
      <trkpt lat="47.23178" lon="-0.45745">
        <ele>58</ele>
        <time>2022-04-04T17:21:25Z</time>
      </trkpt>
      <trkpt lat="47.23178" lon="-0.45735">
        <ele>58</ele>
        <time>2022-04-04T17:21:26Z</time>
      </trkpt>
      <trkpt lat="47.23139" lon="-0.45736">
        <ele>59</ele>
        <time>2022-04-04T17:21:33Z</time>
      </trkpt>
      <trkpt lat="47.23075" lon="-0.4575">
        <ele>61</ele>
        <time>2022-04-04T17:21:45Z</time>
      </trkpt>
      <trkpt lat="47.23046" lon="-0.45752">
        <ele>61</ele>
        <time>2022-04-04T17:21:50Z</time>
      </trkpt>
      <trkpt lat="47.23026" lon="-0.45748">
        <ele>62</ele>
        <time>2022-04-04T17:21:54Z</time>
      </trkpt>
      <trkpt lat="47.22987" lon="-0.45734">
        <ele>62</ele>
        <time>2022-04-04T17:22:01Z</time>
      </trkpt>
      <trkpt lat="47.22895" lon="-0.45724">
        <ele>61</ele>
        <time>2022-04-04T17:22:17Z</time>
      </trkpt>
      <trkpt lat="47.22866" lon="-0.45716">
        <ele>62</ele>
        <time>2022-04-04T17:22:22Z</time>
      </trkpt>
      <trkpt lat="47.22847" lon="-0.45703">
        <ele>62</ele>
        <time>2022-04-04T17:22:26Z</time>
      </trkpt>
      <trkpt lat="47.22835" lon="-0.45692">
        <ele>62</ele>
        <time>2022-04-04T17:22:29Z</time>
      </trkpt>
      <trkpt lat="47.22764" lon="-0.45613">
        <ele>64</ele>
        <time>2022-04-04T17:22:44Z</time>
      </trkpt>
      <trkpt lat="47.22744" lon="-0.45601">
        <ele>64</ele>
        <time>2022-04-04T17:22:48Z</time>
      </trkpt>
      <trkpt lat="47.22726" lon="-0.45599">
        <ele>64</ele>
        <time>2022-04-04T17:22:52Z</time>
      </trkpt>
      <trkpt lat="47.22654" lon="-0.45613">
        <ele>63</ele>
        <time>2022-04-04T17:23:04Z</time>
      </trkpt>
      <trkpt lat="47.2264" lon="-0.45614">
        <ele>64</ele>
        <time>2022-04-04T17:23:07Z</time>
      </trkpt>
      <trkpt lat="47.22628" lon="-0.45614">
        <ele>64</ele>
        <time>2022-04-04T17:23:09Z</time>
      </trkpt>
      <trkpt lat="47.22615" lon="-0.45609">
        <ele>64</ele>
        <time>2022-04-04T17:23:11Z</time>
      </trkpt>
      <trkpt lat="47.22609" lon="-0.45609">
        <ele>64</ele>
        <time>2022-04-04T17:23:13Z</time>
      </trkpt>
      <trkpt lat="47.22583" lon="-0.45558">
        <ele>65</ele>
        <time>2022-04-04T17:23:20Z</time>
      </trkpt>
      <trkpt lat="47.2255" lon="-0.45498">
        <ele>66</ele>
        <time>2022-04-04T17:23:30Z</time>
      </trkpt>
      <trkpt lat="47.22529" lon="-0.45463">
        <ele>66</ele>
        <time>2022-04-04T17:23:35Z</time>
      </trkpt>
      <trkpt lat="47.22518" lon="-0.45449">
        <ele>67</ele>
        <time>2022-04-04T17:23:38Z</time>
      </trkpt>
      <trkpt lat="47.22514" lon="-0.45439">
        <ele>67</ele>
        <time>2022-04-04T17:23:39Z</time>
      </trkpt>
      <trkpt lat="47.22413" lon="-0.4545">
        <ele>63</ele>
        <time>2022-04-04T17:23:57Z</time>
      </trkpt>
      <trkpt lat="47.2241" lon="-0.45424">
        <ele>62</ele>
        <time>2022-04-04T17:24:00Z</time>
      </trkpt>
      <trkpt lat="47.22402" lon="-0.45383">
        <ele>62</ele>
        <time>2022-04-04T17:24:06Z</time>
      </trkpt>
      <trkpt lat="47.22387" lon="-0.45325">
        <ele>61</ele>
        <time>2022-04-04T17:24:13Z</time>
      </trkpt>
      <trkpt lat="47.22377" lon="-0.45295">
        <ele>62</ele>
        <time>2022-04-04T17:24:17Z</time>
      </trkpt>
      <trkpt lat="47.22355" lon="-0.4531">
        <ele>61</ele>
        <time>2022-04-04T17:24:21Z</time>
      </trkpt>
      <trkpt lat="47.22336" lon="-0.45315">
        <ele>60</ele>
        <time>2022-04-04T17:24:25Z</time>
      </trkpt>
      <trkpt lat="47.22315" lon="-0.45318">
        <ele>59</ele>
        <time>2022-04-04T17:24:29Z</time>
      </trkpt>
      <trkpt lat="47.22305" lon="-0.45267">
        <ele>58</ele>
        <time>2022-04-04T17:24:35Z</time>
      </trkpt>
      <trkpt lat="47.22302" lon="-0.45229">
        <ele>57</ele>
        <time>2022-04-04T17:24:40Z</time>
      </trkpt>
      <trkpt lat="47.223" lon="-0.4517">
        <ele>56</ele>
        <time>2022-04-04T17:24:47Z</time>
      </trkpt>
      <trkpt lat="47.22295" lon="-0.45162">
        <ele>55</ele>
        <time>2022-04-04T17:24:48Z</time>
      </trkpt>
      <trkpt lat="47.22202" lon="-0.45375">
        <ele>51</ele>
        <time>2022-04-04T17:25:19Z</time>
      </trkpt>
      <trkpt lat="47.22182" lon="-0.45411">
        <ele>49</ele>
        <time>2022-04-04T17:25:24Z</time>
      </trkpt>
      <trkpt lat="47.22157" lon="-0.45445">
        <ele>48</ele>
        <time>2022-04-04T17:25:30Z</time>
      </trkpt>
      <trkpt lat="47.22128" lon="-0.45472">
        <ele>46</ele>
        <time>2022-04-04T17:25:36Z</time>
      </trkpt>
      <trkpt lat="47.2211" lon="-0.45481">
        <ele>45</ele>
        <time>2022-04-04T17:25:40Z</time>
      </trkpt>
      <trkpt lat="47.22094" lon="-0.45487">
        <ele>44</ele>
        <time>2022-04-04T17:25:43Z</time>
      </trkpt>
      <trkpt lat="47.2206" lon="-0.45488">
        <ele>42</ele>
        <time>2022-04-04T17:25:49Z</time>
      </trkpt>
      <trkpt lat="47.22038" lon="-0.45485">
        <ele>41</ele>
        <time>2022-04-04T17:25:53Z</time>
      </trkpt>
      <trkpt lat="47.21959" lon="-0.45462">
        <ele>39</ele>
        <time>2022-04-04T17:26:07Z</time>
      </trkpt>
      <trkpt lat="47.21909" lon="-0.45446">
        <ele>38</ele>
        <time>2022-04-04T17:26:16Z</time>
      </trkpt>
      <trkpt lat="47.2182" lon="-0.45419">
        <ele>40</ele>
        <time>2022-04-04T17:26:32Z</time>
      </trkpt>
      <trkpt lat="47.21798" lon="-0.45413">
        <ele>40</ele>
        <time>2022-04-04T17:26:36Z</time>
      </trkpt>
      <trkpt lat="47.21762" lon="-0.45403">
        <ele>40</ele>
        <time>2022-04-04T17:26:43Z</time>
      </trkpt>
      <trkpt lat="47.21762" lon="-0.45397">
        <ele>40</ele>
        <time>2022-04-04T17:26:44Z</time>
      </trkpt>
      <trkpt lat="47.2176" lon="-0.45385">
        <ele>40</ele>
        <time>2022-04-04T17:26:45Z</time>
      </trkpt>
      <trkpt lat="47.21751" lon="-0.45376">
        <ele>40</ele>
        <time>2022-04-04T17:26:47Z</time>
      </trkpt>
      <trkpt lat="47.21719" lon="-0.4536">
        <ele>42</ele>
        <time>2022-04-04T17:26:53Z</time>
      </trkpt>
      <trkpt lat="47.21637" lon="-0.45332">
        <ele>45</ele>
        <time>2022-04-04T17:27:08Z</time>
      </trkpt>
      <trkpt lat="47.21619" lon="-0.45331">
        <ele>45</ele>
        <time>2022-04-04T17:27:11Z</time>
      </trkpt>
      <trkpt lat="47.21592" lon="-0.45337">
        <ele>46</ele>
        <time>2022-04-04T17:27:16Z</time>
      </trkpt>
      <trkpt lat="47.2152" lon="-0.45358">
        <ele>48</ele>
        <time>2022-04-04T17:27:29Z</time>
      </trkpt>
      <trkpt lat="47.21459" lon="-0.45384">
        <ele>51</ele>
        <time>2022-04-04T17:27:40Z</time>
      </trkpt>
      <trkpt lat="47.21418" lon="-0.45399">
        <ele>54</ele>
        <time>2022-04-04T17:27:48Z</time>
      </trkpt>
      <trkpt lat="47.2138" lon="-0.45404">
        <ele>56</ele>
        <time>2022-04-04T17:27:55Z</time>
      </trkpt>
      <trkpt lat="47.21341" lon="-0.45413">
        <ele>59</ele>
        <time>2022-04-04T17:28:02Z</time>
      </trkpt>
      <trkpt lat="47.21326" lon="-0.45419">
        <ele>59</ele>
        <time>2022-04-04T17:28:05Z</time>
      </trkpt>
      <trkpt lat="47.21241" lon="-0.45488">
        <ele>60</ele>
        <time>2022-04-04T17:28:22Z</time>
      </trkpt>
      <trkpt lat="47.21154" lon="-0.45534">
        <ele>62</ele>
        <time>2022-04-04T17:28:38Z</time>
      </trkpt>
      <trkpt lat="47.21109" lon="-0.45573">
        <ele>62</ele>
        <time>2022-04-04T17:28:48Z</time>
      </trkpt>
      <trkpt lat="47.21104" lon="-0.45585">
        <ele>61</ele>
        <time>2022-04-04T17:28:49Z</time>
      </trkpt>
      <trkpt lat="47.21097" lon="-0.45583">
        <ele>61</ele>
        <time>2022-04-04T17:28:51Z</time>
      </trkpt>
      <trkpt lat="47.21062" lon="-0.45653">
        <ele>60</ele>
        <time>2022-04-04T17:29:01Z</time>
      </trkpt>
      <trkpt lat="47.21044" lon="-0.45682">
        <ele>60</ele>
        <time>2022-04-04T17:29:06Z</time>
      </trkpt>
      <trkpt lat="47.2102" lon="-0.45711">
        <ele>60</ele>
        <time>2022-04-04T17:29:11Z</time>
      </trkpt>
      <trkpt lat="47.21003" lon="-0.45726">
        <ele>60</ele>
        <time>2022-04-04T17:29:15Z</time>
      </trkpt>
      <trkpt lat="47.20949" lon="-0.45762">
        <ele>61</ele>
        <time>2022-04-04T17:29:25Z</time>
      </trkpt>
      <trkpt lat="47.20922" lon="-0.45786">
        <ele>61</ele>
        <time>2022-04-04T17:29:31Z</time>
      </trkpt>
      <trkpt lat="47.20885" lon="-0.45829">
        <ele>62</ele>
        <time>2022-04-04T17:29:39Z</time>
      </trkpt>
      <trkpt lat="47.20829" lon="-0.45907">
        <ele>65</ele>
        <time>2022-04-04T17:29:53Z</time>
      </trkpt>
      <trkpt lat="47.20666" lon="-0.46123">
        <ele>71</ele>
        <time>2022-04-04T17:30:32Z</time>
      </trkpt>
      <trkpt lat="47.2065" lon="-0.46143">
        <ele>71</ele>
        <time>2022-04-04T17:30:36Z</time>
      </trkpt>
      <trkpt lat="47.2064" lon="-0.46146">
        <ele>71</ele>
        <time>2022-04-04T17:30:38Z</time>
      </trkpt>
      <trkpt lat="47.20635" lon="-0.46046">
        <ele>71</ele>
        <time>2022-04-04T17:30:50Z</time>
      </trkpt>
      <trkpt lat="47.20629" lon="-0.45986">
        <ele>70</ele>
        <time>2022-04-04T17:30:57Z</time>
      </trkpt>
      <trkpt lat="47.20621" lon="-0.45936">
        <ele>69</ele>
        <time>2022-04-04T17:31:03Z</time>
      </trkpt>
      <trkpt lat="47.20535" lon="-0.45516">
        <ele>56</ele>
        <time>2022-04-04T17:31:56Z</time>
      </trkpt>
      <trkpt lat="47.20528" lon="-0.45481">
        <ele>56</ele>
        <time>2022-04-04T17:32:01Z</time>
      </trkpt>
      <trkpt lat="47.20476" lon="-0.45217">
        <ele>55</ele>
        <time>2022-04-04T17:32:34Z</time>
      </trkpt>
      <trkpt lat="47.20277" lon="-0.44228">
        <ele>54</ele>
        <time>2022-04-04T17:34:39Z</time>
      </trkpt>
      <trkpt lat="47.20213" lon="-0.43898">
        <ele>58</ele>
        <time>2022-04-04T17:35:20Z</time>
      </trkpt>
      <trkpt lat="47.20083" lon="-0.43251">
        <ele>49</ele>
        <time>2022-04-04T17:36:42Z</time>
      </trkpt>
      <trkpt lat="47.20076" lon="-0.43248">
        <ele>49</ele>
        <time>2022-04-04T17:36:43Z</time>
      </trkpt>
      <trkpt lat="47.20073" lon="-0.43239">
        <ele>49</ele>
        <time>2022-04-04T17:36:44Z</time>
      </trkpt>
      <trkpt lat="47.20075" lon="-0.43231">
        <ele>49</ele>
        <time>2022-04-04T17:36:45Z</time>
      </trkpt>
      <trkpt lat="47.2008" lon="-0.43226">
        <ele>49</ele>
        <time>2022-04-04T17:36:46Z</time>
      </trkpt>
      <trkpt lat="47.20078" lon="-0.43221">
        <ele>49</ele>
        <time>2022-04-04T17:36:47Z</time>
      </trkpt>
      <trkpt lat="47.20074" lon="-0.43205">
        <ele>49</ele>
        <time>2022-04-04T17:36:49Z</time>
      </trkpt>
      <trkpt lat="47.20018" lon="-0.42927">
        <ele>59</ele>
        <time>2022-04-04T17:37:24Z</time>
      </trkpt>
      <trkpt lat="47.20014" lon="-0.42896">
        <ele>59</ele>
        <time>2022-04-04T17:37:28Z</time>
      </trkpt>
      <trkpt lat="47.20015" lon="-0.42897">
        <ele>59</ele>
        <time>2022-04-04T17:37:28Z</time>
      </trkpt>
      <trkpt lat="47.20014" lon="-0.42896">
        <ele>59</ele>
        <time>2022-04-04T17:37:28Z</time>
      </trkpt>
      <trkpt lat="47.2001" lon="-0.42894">
        <ele>59</ele>
        <time>2022-04-04T17:37:29Z</time>
      </trkpt>
      <trkpt lat="47.19971" lon="-0.42892">
        <ele>59</ele>
        <time>2022-04-04T17:37:36Z</time>
      </trkpt>
      <trkpt lat="47.19943" lon="-0.42886">
        <ele>59</ele>
        <time>2022-04-04T17:37:41Z</time>
      </trkpt>
      <trkpt lat="47.1989" lon="-0.42869">
        <ele>59</ele>
        <time>2022-04-04T17:37:51Z</time>
      </trkpt>
      <trkpt lat="47.19823" lon="-0.42827">
        <ele>60</ele>
        <time>2022-04-04T17:38:04Z</time>
      </trkpt>
      <trkpt lat="47.19593" lon="-0.42711">
        <ele>61</ele>
        <time>2022-04-04T17:38:47Z</time>
      </trkpt>
      <trkpt lat="47.1943" lon="-0.42671">
        <ele>60</ele>
        <time>2022-04-04T17:39:16Z</time>
      </trkpt>
      <trkpt lat="47.19321" lon="-0.42624">
        <ele>61</ele>
        <time>2022-04-04T17:39:37Z</time>
      </trkpt>
      <trkpt lat="47.1932" lon="-0.42614">
        <ele>61</ele>
        <time>2022-04-04T17:39:38Z</time>
      </trkpt>
      <trkpt lat="47.19312" lon="-0.42584">
        <ele>62</ele>
        <time>2022-04-04T17:39:42Z</time>
      </trkpt>
      <trkpt lat="47.19289" lon="-0.42367">
        <ele>60</ele>
        <time>2022-04-04T17:40:08Z</time>
      </trkpt>
      <trkpt lat="47.19272" lon="-0.42253">
        <ele>58</ele>
        <time>2022-04-04T17:40:22Z</time>
      </trkpt>
      <trkpt lat="47.19265" lon="-0.42228">
        <ele>57</ele>
        <time>2022-04-04T17:40:26Z</time>
      </trkpt>
      <trkpt lat="47.19247" lon="-0.42185">
        <ele>56</ele>
        <time>2022-04-04T17:40:32Z</time>
      </trkpt>
      <trkpt lat="47.19235" lon="-0.42165">
        <ele>55</ele>
        <time>2022-04-04T17:40:35Z</time>
      </trkpt>
      <trkpt lat="47.19214" lon="-0.42142">
        <ele>55</ele>
        <time>2022-04-04T17:40:40Z</time>
      </trkpt>
      <trkpt lat="47.19086" lon="-0.42032">
        <ele>57</ele>
        <time>2022-04-04T17:41:06Z</time>
      </trkpt>
      <trkpt lat="47.19054" lon="-0.42012">
        <ele>58</ele>
        <time>2022-04-04T17:41:12Z</time>
      </trkpt>
      <trkpt lat="47.18962" lon="-0.41972">
        <ele>58</ele>
        <time>2022-04-04T17:41:29Z</time>
      </trkpt>
      <trkpt lat="47.18929" lon="-0.41954">
        <ele>57</ele>
        <time>2022-04-04T17:41:36Z</time>
      </trkpt>
      <trkpt lat="47.18743" lon="-0.41827">
        <ele>60</ele>
        <time>2022-04-04T17:42:12Z</time>
      </trkpt>
      <trkpt lat="47.18641" lon="-0.41741">
        <ele>61</ele>
        <time>2022-04-04T17:42:33Z</time>
      </trkpt>
      <trkpt lat="47.18624" lon="-0.4173">
        <ele>61</ele>
        <time>2022-04-04T17:42:36Z</time>
      </trkpt>
      <trkpt lat="47.18594" lon="-0.41714">
        <ele>61</ele>
        <time>2022-04-04T17:42:42Z</time>
      </trkpt>
      <trkpt lat="47.1854" lon="-0.41691">
        <ele>61</ele>
        <time>2022-04-04T17:42:52Z</time>
      </trkpt>
      <trkpt lat="47.18393" lon="-0.41648">
        <ele>60</ele>
        <time>2022-04-04T17:43:19Z</time>
      </trkpt>
      <trkpt lat="47.18377" lon="-0.41639">
        <ele>60</ele>
        <time>2022-04-04T17:43:22Z</time>
      </trkpt>
      <trkpt lat="47.18363" lon="-0.41627">
        <ele>60</ele>
        <time>2022-04-04T17:43:25Z</time>
      </trkpt>
      <trkpt lat="47.18342" lon="-0.41601">
        <ele>60</ele>
        <time>2022-04-04T17:43:29Z</time>
      </trkpt>
      <trkpt lat="47.18322" lon="-0.4156">
        <ele>59</ele>
        <time>2022-04-04T17:43:36Z</time>
      </trkpt>
      <trkpt lat="47.18216" lon="-0.4126">
        <ele>55</ele>
        <time>2022-04-04T17:44:16Z</time>
      </trkpt>
      <trkpt lat="47.18212" lon="-0.4125">
        <ele>55</ele>
        <time>2022-04-04T17:44:18Z</time>
      </trkpt>
      <trkpt lat="47.18185" lon="-0.41182">
        <ele>58</ele>
        <time>2022-04-04T17:44:27Z</time>
      </trkpt>
      <trkpt lat="47.18172" lon="-0.41155">
        <ele>60</ele>
        <time>2022-04-04T17:44:31Z</time>
      </trkpt>
      <trkpt lat="47.18157" lon="-0.41137">
        <ele>61</ele>
        <time>2022-04-04T17:44:35Z</time>
      </trkpt>
      <trkpt lat="47.18142" lon="-0.41124">
        <ele>61</ele>
        <time>2022-04-04T17:44:38Z</time>
      </trkpt>
      <trkpt lat="47.18125" lon="-0.41113">
        <ele>61</ele>
        <time>2022-04-04T17:44:41Z</time>
      </trkpt>
      <trkpt lat="47.18091" lon="-0.41101">
        <ele>60</ele>
        <time>2022-04-04T17:44:47Z</time>
      </trkpt>
      <trkpt lat="47.18036" lon="-0.41099">
        <ele>58</ele>
        <time>2022-04-04T17:44:57Z</time>
      </trkpt>
      <trkpt lat="47.17848" lon="-0.41109">
        <ele>59</ele>
        <time>2022-04-04T17:45:31Z</time>
      </trkpt>
      <trkpt lat="47.1781" lon="-0.4111">
        <ele>60</ele>
        <time>2022-04-04T17:45:37Z</time>
      </trkpt>
      <trkpt lat="47.17648" lon="-0.41101">
        <ele>63</ele>
        <time>2022-04-04T17:46:06Z</time>
      </trkpt>
      <trkpt lat="47.17615" lon="-0.41101">
        <ele>63</ele>
        <time>2022-04-04T17:46:12Z</time>
      </trkpt>
      <trkpt lat="47.17607" lon="-0.41105">
        <ele>63</ele>
        <time>2022-04-04T17:46:14Z</time>
      </trkpt>
      <trkpt lat="47.17607" lon="-0.41113">
        <ele>63</ele>
        <time>2022-04-04T17:46:15Z</time>
      </trkpt>
      <trkpt lat="47.17603" lon="-0.41117">
        <ele>63</ele>
        <time>2022-04-04T17:46:15Z</time>
      </trkpt>
      <trkpt lat="47.17607" lon="-0.41113">
        <ele>63</ele>
        <time>2022-04-04T17:46:16Z</time>
      </trkpt>
      <trkpt lat="47.17649" lon="-0.41241">
        <ele>62</ele>
        <time>2022-04-04T17:46:34Z</time>
      </trkpt>
      <trkpt lat="47.17658" lon="-0.41278">
        <ele>62</ele>
        <time>2022-04-04T17:46:38Z</time>
      </trkpt>
      <trkpt lat="47.17685" lon="-0.41452">
        <ele>61</ele>
        <time>2022-04-04T17:47:00Z</time>
      </trkpt>
      <trkpt lat="47.17693" lon="-0.41493">
        <ele>60</ele>
        <time>2022-04-04T17:47:05Z</time>
      </trkpt>
      <trkpt lat="47.17718" lon="-0.41584">
        <ele>59</ele>
        <time>2022-04-04T17:47:17Z</time>
      </trkpt>
      <trkpt lat="47.17723" lon="-0.41607">
        <ele>59</ele>
        <time>2022-04-04T17:47:20Z</time>
      </trkpt>
      <trkpt lat="47.17727" lon="-0.41626">
        <ele>58</ele>
        <time>2022-04-04T17:47:22Z</time>
      </trkpt>
      <trkpt lat="47.1773" lon="-0.41637">
        <ele>58</ele>
        <time>2022-04-04T17:47:24Z</time>
      </trkpt>
      <trkpt lat="47.17754" lon="-0.41732">
        <ele>59</ele>
        <time>2022-04-04T17:47:36Z</time>
      </trkpt>
      <trkpt lat="47.17767" lon="-0.418">
        <ele>60</ele>
        <time>2022-04-04T17:47:44Z</time>
      </trkpt>
      <trkpt lat="47.17783" lon="-0.41938">
        <ele>63</ele>
        <time>2022-04-04T17:48:01Z</time>
      </trkpt>
      <trkpt lat="47.17798" lon="-0.42022">
        <ele>65</ele>
        <time>2022-04-04T17:48:12Z</time>
      </trkpt>
      <trkpt lat="47.17865" lon="-0.42276">
        <ele>67</ele>
        <time>2022-04-04T17:48:45Z</time>
      </trkpt>
      <trkpt lat="47.17871" lon="-0.42327">
        <ele>68</ele>
        <time>2022-04-04T17:48:51Z</time>
      </trkpt>
      <trkpt lat="47.17874" lon="-0.42401">
        <ele>68</ele>
        <time>2022-04-04T17:49:00Z</time>
      </trkpt>
      <trkpt lat="47.17879" lon="-0.4245">
        <ele>67</ele>
        <time>2022-04-04T17:49:06Z</time>
      </trkpt>
      <trkpt lat="47.17887" lon="-0.4249">
        <ele>68</ele>
        <time>2022-04-04T17:49:11Z</time>
      </trkpt>
      <trkpt lat="47.17903" lon="-0.42551">
        <ele>68</ele>
        <time>2022-04-04T17:49:19Z</time>
      </trkpt>
      <trkpt lat="47.17906" lon="-0.42577">
        <ele>68</ele>
        <time>2022-04-04T17:49:22Z</time>
      </trkpt>
      <trkpt lat="47.17913" lon="-0.42589">
        <ele>68</ele>
        <time>2022-04-04T17:49:24Z</time>
      </trkpt>
      <trkpt lat="47.16854" lon="-0.4303">
        <ele>67</ele>
        <time>2022-04-04T17:52:40Z</time>
      </trkpt>
      <trkpt lat="47.16853" lon="-0.43037">
        <ele>67</ele>
        <time>2022-04-04T17:52:41Z</time>
      </trkpt>
      <trkpt lat="47.16807" lon="-0.4307">
        <ele>67</ele>
        <time>2022-04-04T17:52:50Z</time>
      </trkpt>
      <trkpt lat="47.16788" lon="-0.43086">
        <ele>67</ele>
        <time>2022-04-04T17:52:54Z</time>
      </trkpt>
      <trkpt lat="47.16776" lon="-0.43099">
        <ele>67</ele>
        <time>2022-04-04T17:52:56Z</time>
      </trkpt>
      <trkpt lat="47.16752" lon="-0.43132">
        <ele>66</ele>
        <time>2022-04-04T17:53:02Z</time>
      </trkpt>
      <trkpt lat="47.16727" lon="-0.43173">
        <ele>66</ele>
        <time>2022-04-04T17:53:09Z</time>
      </trkpt>
      <trkpt lat="47.16618" lon="-0.43336">
        <ele>68</ele>
        <time>2022-04-04T17:53:37Z</time>
      </trkpt>
      <trkpt lat="47.16594" lon="-0.43363">
        <ele>68</ele>
        <time>2022-04-04T17:53:42Z</time>
      </trkpt>
      <trkpt lat="47.16548" lon="-0.43406">
        <ele>68</ele>
        <time>2022-04-04T17:53:52Z</time>
      </trkpt>
      <trkpt lat="47.16537" lon="-0.43419">
        <ele>68</ele>
        <time>2022-04-04T17:53:54Z</time>
      </trkpt>
      <trkpt lat="47.1651" lon="-0.4346">
        <ele>68</ele>
        <time>2022-04-04T17:54:01Z</time>
      </trkpt>
      <trkpt lat="47.1649" lon="-0.43486">
        <ele>68</ele>
        <time>2022-04-04T17:54:06Z</time>
      </trkpt>
      <trkpt lat="47.16479" lon="-0.43498">
        <ele>68</ele>
        <time>2022-04-04T17:54:08Z</time>
      </trkpt>
      <trkpt lat="47.16426" lon="-0.4354">
        <ele>70</ele>
        <time>2022-04-04T17:54:19Z</time>
      </trkpt>
      <trkpt lat="47.16389" lon="-0.43578">
        <ele>70</ele>
        <time>2022-04-04T17:54:27Z</time>
      </trkpt>
      <trkpt lat="47.16362" lon="-0.43611">
        <ele>69</ele>
        <time>2022-04-04T17:54:33Z</time>
      </trkpt>
      <trkpt lat="47.16348" lon="-0.43635">
        <ele>69</ele>
        <time>2022-04-04T17:54:37Z</time>
      </trkpt>
      <trkpt lat="47.16314" lon="-0.43722">
        <ele>70</ele>
        <time>2022-04-04T17:54:49Z</time>
      </trkpt>
      <trkpt lat="47.16303" lon="-0.43746">
        <ele>70</ele>
        <time>2022-04-04T17:54:53Z</time>
      </trkpt>
      <trkpt lat="47.1627" lon="-0.43805">
        <ele>70</ele>
        <time>2022-04-04T17:55:02Z</time>
      </trkpt>
      <trkpt lat="47.16252" lon="-0.4383">
        <ele>70</ele>
        <time>2022-04-04T17:55:06Z</time>
      </trkpt>
      <trkpt lat="47.1624" lon="-0.43842">
        <ele>70</ele>
        <time>2022-04-04T17:55:09Z</time>
      </trkpt>
      <trkpt lat="47.16201" lon="-0.4387">
        <ele>71</ele>
        <time>2022-04-04T17:55:17Z</time>
      </trkpt>
      <trkpt lat="47.16144" lon="-0.43902">
        <ele>71</ele>
        <time>2022-04-04T17:55:28Z</time>
      </trkpt>
      <trkpt lat="47.16113" lon="-0.43922">
        <ele>72</ele>
        <time>2022-04-04T17:55:34Z</time>
      </trkpt>
      <trkpt lat="47.16078" lon="-0.43951">
        <ele>72</ele>
        <time>2022-04-04T17:55:41Z</time>
      </trkpt>
      <trkpt lat="47.16069" lon="-0.43962">
        <ele>72</ele>
        <time>2022-04-04T17:55:43Z</time>
      </trkpt>
      <trkpt lat="47.16057" lon="-0.43985">
        <ele>72</ele>
        <time>2022-04-04T17:55:46Z</time>
      </trkpt>
      <trkpt lat="47.16053" lon="-0.43994">
        <ele>72</ele>
        <time>2022-04-04T17:55:48Z</time>
      </trkpt>
      <trkpt lat="47.1605" lon="-0.44022">
        <ele>72</ele>
        <time>2022-04-04T17:55:51Z</time>
      </trkpt>
      <trkpt lat="47.16048" lon="-0.44077">
        <ele>72</ele>
        <time>2022-04-04T17:55:58Z</time>
      </trkpt>
      <trkpt lat="47.16042" lon="-0.44102">
        <ele>72</ele>
        <time>2022-04-04T17:56:01Z</time>
      </trkpt>
      <trkpt lat="47.15983" lon="-0.44209">
        <ele>73</ele>
        <time>2022-04-04T17:56:18Z</time>
      </trkpt>
      <trkpt lat="47.15911" lon="-0.44357">
        <ele>80</ele>
        <time>2022-04-04T17:56:40Z</time>
      </trkpt>
      <trkpt lat="47.15843" lon="-0.44509">
        <ele>88</ele>
        <time>2022-04-04T17:57:02Z</time>
      </trkpt>
      <trkpt lat="47.15799" lon="-0.44624">
        <ele>93</ele>
        <time>2022-04-04T17:57:18Z</time>
      </trkpt>
      <trkpt lat="47.15764" lon="-0.44697">
        <ele>96</ele>
        <time>2022-04-04T17:57:28Z</time>
      </trkpt>
      <trkpt lat="47.15759" lon="-0.44711">
        <ele>97</ele>
        <time>2022-04-04T17:57:30Z</time>
      </trkpt>
      <trkpt lat="47.15759" lon="-0.44715">
        <ele>97</ele>
        <time>2022-04-04T17:57:31Z</time>
      </trkpt>
      <trkpt lat="47.15751" lon="-0.44721">
        <ele>97</ele>
        <time>2022-04-04T17:57:32Z</time>
      </trkpt>
      <trkpt lat="47.15737" lon="-0.44697">
        <ele>97</ele>
        <time>2022-04-04T17:57:36Z</time>
      </trkpt>
      <trkpt lat="47.15725" lon="-0.44684">
        <ele>96</ele>
        <time>2022-04-04T17:57:39Z</time>
      </trkpt>
      <trkpt lat="47.15723" lon="-0.44678">
        <ele>96</ele>
        <time>2022-04-04T17:57:40Z</time>
      </trkpt>
      <trkpt lat="47.15723" lon="-0.44641">
        <ele>95</ele>
        <time>2022-04-04T17:57:44Z</time>
      </trkpt>
      <trkpt lat="47.15716" lon="-0.44632">
        <ele>95</ele>
        <time>2022-04-04T17:57:46Z</time>
      </trkpt>
      <trkpt lat="47.15666" lon="-0.44586">
        <ele>93</ele>
        <time>2022-04-04T17:57:56Z</time>
      </trkpt>
      <trkpt lat="47.15658" lon="-0.44582">
        <ele>92</ele>
        <time>2022-04-04T17:57:58Z</time>
      </trkpt>
      <trkpt lat="47.15645" lon="-0.44581">
        <ele>92</ele>
        <time>2022-04-04T17:58:00Z</time>
      </trkpt>
      <trkpt lat="47.15622" lon="-0.44574">
        <ele>90</ele>
        <time>2022-04-04T17:58:04Z</time>
      </trkpt>
      <trkpt lat="47.15517" lon="-0.4452">
        <ele>83</ele>
        <time>2022-04-04T17:58:24Z</time>
      </trkpt>
      <trkpt lat="47.1549" lon="-0.44517">
        <ele>83</ele>
        <time>2022-04-04T17:58:29Z</time>
      </trkpt>
      <trkpt lat="47.1538" lon="-0.44514">
        <ele>82</ele>
        <time>2022-04-04T17:58:48Z</time>
      </trkpt>
      <trkpt lat="47.15352" lon="-0.44507">
        <ele>81</ele>
        <time>2022-04-04T17:58:54Z</time>
      </trkpt>
      <trkpt lat="47.15344" lon="-0.44503">
        <ele>80</ele>
        <time>2022-04-04T17:58:55Z</time>
      </trkpt>
      <trkpt lat="47.1533" lon="-0.44491">
        <ele>79</ele>
        <time>2022-04-04T17:58:58Z</time>
      </trkpt>
      <trkpt lat="47.15274" lon="-0.44432">
        <ele>76</ele>
        <time>2022-04-04T17:59:10Z</time>
      </trkpt>
      <trkpt lat="47.15241" lon="-0.44386">
        <ele>75</ele>
        <time>2022-04-04T17:59:18Z</time>
      </trkpt>
      <trkpt lat="47.15223" lon="-0.44351">
        <ele>75</ele>
        <time>2022-04-04T17:59:24Z</time>
      </trkpt>
      <trkpt lat="47.15216" lon="-0.44346">
        <ele>75</ele>
        <time>2022-04-04T17:59:25Z</time>
      </trkpt>
      <trkpt lat="47.15218" lon="-0.4432">
        <ele>75</ele>
        <time>2022-04-04T17:59:28Z</time>
      </trkpt>
      <trkpt lat="47.15219" lon="-0.44305">
        <ele>75</ele>
        <time>2022-04-04T17:59:30Z</time>
      </trkpt>
      <trkpt lat="47.15225" lon="-0.44236">
        <ele>76</ele>
        <time>2022-04-04T17:59:38Z</time>
      </trkpt>
      <trkpt lat="47.1522" lon="-0.44099">
        <ele>80</ele>
        <time>2022-04-04T17:59:55Z</time>
      </trkpt>
      <trkpt lat="47.15209" lon="-0.44098">
        <ele>80</ele>
        <time>2022-04-04T17:59:57Z</time>
      </trkpt>
      <trkpt lat="47.15203" lon="-0.44093">
        <ele>80</ele>
        <time>2022-04-04T17:59:58Z</time>
      </trkpt>
      <trkpt lat="47.15186" lon="-0.44033">
        <ele>83</ele>
        <time>2022-04-04T18:00:06Z</time>
      </trkpt>
      <trkpt lat="47.15177" lon="-0.43991">
        <ele>84</ele>
        <time>2022-04-04T18:00:11Z</time>
      </trkpt>
      <trkpt lat="47.15162" lon="-0.43909">
        <ele>87</ele>
        <time>2022-04-04T18:00:22Z</time>
      </trkpt>
      <trkpt lat="47.15137" lon="-0.43755">
        <ele>90</ele>
        <time>2022-04-04T18:00:41Z</time>
      </trkpt>
      <trkpt lat="47.15132" lon="-0.43719">
        <ele>91</ele>
        <time>2022-04-04T18:00:45Z</time>
      </trkpt>
      <trkpt lat="47.15126" lon="-0.43699">
        <ele>91</ele>
        <time>2022-04-04T18:00:48Z</time>
      </trkpt>
      <trkpt lat="47.15064" lon="-0.43587">
        <ele>89</ele>
        <time>2022-04-04T18:01:05Z</time>
      </trkpt>
      <trkpt lat="47.15053" lon="-0.43562">
        <ele>89</ele>
        <time>2022-04-04T18:01:09Z</time>
      </trkpt>
      <trkpt lat="47.15035" lon="-0.43506">
        <ele>90</ele>
        <time>2022-04-04T18:01:16Z</time>
      </trkpt>
      <trkpt lat="47.15015" lon="-0.43428">
        <ele>90</ele>
        <time>2022-04-04T18:01:27Z</time>
      </trkpt>
      <trkpt lat="47.14999" lon="-0.43374">
        <ele>89</ele>
        <time>2022-04-04T18:01:34Z</time>
      </trkpt>
      <trkpt lat="47.14991" lon="-0.43351">
        <ele>90</ele>
        <time>2022-04-04T18:01:37Z</time>
      </trkpt>
      <trkpt lat="47.14979" lon="-0.43329">
        <ele>90</ele>
        <time>2022-04-04T18:01:40Z</time>
      </trkpt>
      <trkpt lat="47.14965" lon="-0.43309">
        <ele>90</ele>
        <time>2022-04-04T18:01:44Z</time>
      </trkpt>
      <trkpt lat="47.1491" lon="-0.43243">
        <ele>91</ele>
        <time>2022-04-04T18:01:56Z</time>
      </trkpt>
      <trkpt lat="47.14888" lon="-0.43221">
        <ele>91</ele>
        <time>2022-04-04T18:02:01Z</time>
      </trkpt>
      <trkpt lat="47.14869" lon="-0.43208">
        <ele>92</ele>
        <time>2022-04-04T18:02:05Z</time>
      </trkpt>
      <trkpt lat="47.14829" lon="-0.43189">
        <ele>93</ele>
        <time>2022-04-04T18:02:12Z</time>
      </trkpt>
      <trkpt lat="47.14814" lon="-0.43181">
        <ele>94</ele>
        <time>2022-04-04T18:02:15Z</time>
      </trkpt>
      <trkpt lat="47.14795" lon="-0.43164">
        <ele>94</ele>
        <time>2022-04-04T18:02:19Z</time>
      </trkpt>
      <trkpt lat="47.14618" lon="-0.42968">
        <ele>105</ele>
        <time>2022-04-04T18:02:58Z</time>
      </trkpt>
      <trkpt lat="47.1458" lon="-0.42892">
        <ele>107</ele>
        <time>2022-04-04T18:03:10Z</time>
      </trkpt>
      <trkpt lat="47.14567" lon="-0.42872">
        <ele>108</ele>
        <time>2022-04-04T18:03:13Z</time>
      </trkpt>
      <trkpt lat="47.14539" lon="-0.42848">
        <ele>109</ele>
        <time>2022-04-04T18:03:19Z</time>
      </trkpt>
      <trkpt lat="47.14518" lon="-0.42834">
        <ele>109</ele>
        <time>2022-04-04T18:03:23Z</time>
      </trkpt>
      <trkpt lat="47.14352" lon="-0.42754">
        <ele>108</ele>
        <time>2022-04-04T18:03:54Z</time>
      </trkpt>
      <trkpt lat="47.14338" lon="-0.42744">
        <ele>108</ele>
        <time>2022-04-04T18:03:57Z</time>
      </trkpt>
      <trkpt lat="47.14333" lon="-0.4273">
        <ele>108</ele>
        <time>2022-04-04T18:03:59Z</time>
      </trkpt>
      <trkpt lat="47.14319" lon="-0.42731">
        <ele>108</ele>
        <time>2022-04-04T18:04:01Z</time>
      </trkpt>
      <trkpt lat="47.14305" lon="-0.42728">
        <ele>108</ele>
        <time>2022-04-04T18:04:04Z</time>
      </trkpt>
      <trkpt lat="47.14182" lon="-0.4267">
        <ele>111</ele>
        <time>2022-04-04T18:04:27Z</time>
      </trkpt>
      <trkpt lat="47.14155" lon="-0.42659">
        <ele>113</ele>
        <time>2022-04-04T18:04:32Z</time>
      </trkpt>
      <trkpt lat="47.14128" lon="-0.42643">
        <ele>114</ele>
        <time>2022-04-04T18:04:37Z</time>
      </trkpt>
      <trkpt lat="47.14123" lon="-0.42636">
        <ele>114</ele>
        <time>2022-04-04T18:04:38Z</time>
      </trkpt>
      <trkpt lat="47.14111" lon="-0.42632">
        <ele>115</ele>
        <time>2022-04-04T18:04:40Z</time>
      </trkpt>
      <trkpt lat="47.14099" lon="-0.42632">
        <ele>116</ele>
        <time>2022-04-04T18:04:43Z</time>
      </trkpt>
      <trkpt lat="47.14092" lon="-0.42614">
        <ele>115</ele>
        <time>2022-04-04T18:04:45Z</time>
      </trkpt>
      <trkpt lat="47.14067" lon="-0.42572">
        <ele>115</ele>
        <time>2022-04-04T18:04:52Z</time>
      </trkpt>
      <trkpt lat="47.14016" lon="-0.42497">
        <ele>116</ele>
        <time>2022-04-04T18:05:05Z</time>
      </trkpt>
      <trkpt lat="47.13937" lon="-0.42372">
        <ele>113</ele>
        <time>2022-04-04T18:05:25Z</time>
      </trkpt>
      <trkpt lat="47.13843" lon="-0.42235">
        <ele>110</ele>
        <time>2022-04-04T18:05:49Z</time>
      </trkpt>
      <trkpt lat="47.13775" lon="-0.42151">
        <ele>109</ele>
        <time>2022-04-04T18:06:05Z</time>
      </trkpt>
      <trkpt lat="47.13761" lon="-0.42127">
        <ele>108</ele>
        <time>2022-04-04T18:06:09Z</time>
      </trkpt>
      <trkpt lat="47.13752" lon="-0.42093">
        <ele>107</ele>
        <time>2022-04-04T18:06:13Z</time>
      </trkpt>
      <trkpt lat="47.13732" lon="-0.4199">
        <ele>106</ele>
        <time>2022-04-04T18:06:26Z</time>
      </trkpt>
      <trkpt lat="47.13717" lon="-0.419">
        <ele>107</ele>
        <time>2022-04-04T18:06:37Z</time>
      </trkpt>
      <trkpt lat="47.13692" lon="-0.41685">
        <ele>107</ele>
        <time>2022-04-04T18:07:04Z</time>
      </trkpt>
      <trkpt lat="47.13689" lon="-0.41651">
        <ele>107</ele>
        <time>2022-04-04T18:07:08Z</time>
      </trkpt>
      <trkpt lat="47.13689" lon="-0.41609">
        <ele>106</ele>
        <time>2022-04-04T18:07:13Z</time>
      </trkpt>
      <trkpt lat="47.13694" lon="-0.4152">
        <ele>104</ele>
        <time>2022-04-04T18:07:24Z</time>
      </trkpt>
      <trkpt lat="47.13693" lon="-0.4144">
        <ele>102</ele>
        <time>2022-04-04T18:07:33Z</time>
      </trkpt>
      <trkpt lat="47.13686" lon="-0.41339">
        <ele>100</ele>
        <time>2022-04-04T18:07:46Z</time>
      </trkpt>
      <trkpt lat="47.1368" lon="-0.41296">
        <ele>100</ele>
        <time>2022-04-04T18:07:51Z</time>
      </trkpt>
      <trkpt lat="47.1366" lon="-0.41201">
        <ele>98</ele>
        <time>2022-04-04T18:08:03Z</time>
      </trkpt>
      <trkpt lat="47.13628" lon="-0.41076">
        <ele>95</ele>
        <time>2022-04-04T18:08:19Z</time>
      </trkpt>
      <trkpt lat="47.13625" lon="-0.41039">
        <ele>94</ele>
        <time>2022-04-04T18:08:24Z</time>
      </trkpt>
      <trkpt lat="47.13622" lon="-0.40975">
        <ele>94</ele>
        <time>2022-04-04T18:08:31Z</time>
      </trkpt>
      <trkpt lat="47.13619" lon="-0.40951">
        <ele>94</ele>
        <time>2022-04-04T18:08:34Z</time>
      </trkpt>
      <trkpt lat="47.13614" lon="-0.40928">
        <ele>93</ele>
        <time>2022-04-04T18:08:37Z</time>
      </trkpt>
      <trkpt lat="47.13603" lon="-0.40897">
        <ele>93</ele>
        <time>2022-04-04T18:08:41Z</time>
      </trkpt>
      <trkpt lat="47.13557" lon="-0.40809">
        <ele>93</ele>
        <time>2022-04-04T18:08:55Z</time>
      </trkpt>
      <trkpt lat="47.1355" lon="-0.40791">
        <ele>93</ele>
        <time>2022-04-04T18:08:57Z</time>
      </trkpt>
      <trkpt lat="47.13542" lon="-0.40764">
        <ele>93</ele>
        <time>2022-04-04T18:09:01Z</time>
      </trkpt>
      <trkpt lat="47.13433" lon="-0.40265">
        <ele>86</ele>
        <time>2022-04-04T18:10:04Z</time>
      </trkpt>
      <trkpt lat="47.13432" lon="-0.40245">
        <ele>86</ele>
        <time>2022-04-04T18:10:07Z</time>
      </trkpt>
      <trkpt lat="47.13434" lon="-0.40221">
        <ele>88</ele>
        <time>2022-04-04T18:10:10Z</time>
      </trkpt>
      <trkpt lat="47.13466" lon="-0.40085">
        <ele>92</ele>
        <time>2022-04-04T18:10:27Z</time>
      </trkpt>
      <trkpt lat="47.13469" lon="-0.40044">
        <ele>92</ele>
        <time>2022-04-04T18:10:32Z</time>
      </trkpt>
      <trkpt lat="47.13464" lon="-0.39976">
        <ele>93</ele>
        <time>2022-04-04T18:10:40Z</time>
      </trkpt>
      <trkpt lat="47.13441" lon="-0.39742">
        <ele>98</ele>
        <time>2022-04-04T18:11:09Z</time>
      </trkpt>
      <trkpt lat="47.13435" lon="-0.39708">
        <ele>98</ele>
        <time>2022-04-04T18:11:13Z</time>
      </trkpt>
      <trkpt lat="47.13427" lon="-0.39682">
        <ele>98</ele>
        <time>2022-04-04T18:11:17Z</time>
      </trkpt>
      <trkpt lat="47.13417" lon="-0.39661">
        <ele>98</ele>
        <time>2022-04-04T18:11:20Z</time>
      </trkpt>
      <trkpt lat="47.13402" lon="-0.39639">
        <ele>97</ele>
        <time>2022-04-04T18:11:24Z</time>
      </trkpt>
      <trkpt lat="47.13339" lon="-0.39564">
        <ele>95</ele>
        <time>2022-04-04T18:11:38Z</time>
      </trkpt>
      <trkpt lat="47.13303" lon="-0.39515">
        <ele>94</ele>
        <time>2022-04-04T18:11:47Z</time>
      </trkpt>
      <trkpt lat="47.1328" lon="-0.39475">
        <ele>93</ele>
        <time>2022-04-04T18:11:53Z</time>
      </trkpt>
      <trkpt lat="47.13225" lon="-0.3936">
        <ele>88</ele>
        <time>2022-04-04T18:12:10Z</time>
      </trkpt>
      <trkpt lat="47.13201" lon="-0.39307">
        <ele>87</ele>
        <time>2022-04-04T18:12:18Z</time>
      </trkpt>
      <trkpt lat="47.13163" lon="-0.39204">
        <ele>84</ele>
        <time>2022-04-04T18:12:32Z</time>
      </trkpt>
      <trkpt lat="47.13151" lon="-0.39176">
        <ele>84</ele>
        <time>2022-04-04T18:12:36Z</time>
      </trkpt>
      <trkpt lat="47.1314" lon="-0.39154">
        <ele>84</ele>
        <time>2022-04-04T18:12:39Z</time>
      </trkpt>
      <trkpt lat="47.13071" lon="-0.39048">
        <ele>86</ele>
        <time>2022-04-04T18:12:57Z</time>
      </trkpt>
      <trkpt lat="47.13038" lon="-0.38994">
        <ele>88</ele>
        <time>2022-04-04T18:13:06Z</time>
      </trkpt>
      <trkpt lat="47.12922" lon="-0.38773">
        <ele>94</ele>
        <time>2022-04-04T18:13:40Z</time>
      </trkpt>
      <trkpt lat="47.12906" lon="-0.38739">
        <ele>93</ele>
        <time>2022-04-04T18:13:45Z</time>
      </trkpt>
      <trkpt lat="47.12895" lon="-0.38709">
        <ele>93</ele>
        <time>2022-04-04T18:13:49Z</time>
      </trkpt>
      <trkpt lat="47.12795" lon="-0.38402">
        <ele>93</ele>
        <time>2022-04-04T18:14:30Z</time>
      </trkpt>
      <trkpt lat="47.12759" lon="-0.38315">
        <ele>95</ele>
        <time>2022-04-04T18:14:42Z</time>
      </trkpt>
      <trkpt lat="47.12736" lon="-0.38268">
        <ele>96</ele>
        <time>2022-04-04T18:14:49Z</time>
      </trkpt>
      <trkpt lat="47.12707" lon="-0.38224">
        <ele>97</ele>
        <time>2022-04-04T18:14:57Z</time>
      </trkpt>
      <trkpt lat="47.12659" lon="-0.38162">
        <ele>96</ele>
        <time>2022-04-04T18:15:08Z</time>
      </trkpt>
      <trkpt lat="47.12644" lon="-0.3814">
        <ele>96</ele>
        <time>2022-04-04T18:15:12Z</time>
      </trkpt>
      <trkpt lat="47.12633" lon="-0.38118">
        <ele>96</ele>
        <time>2022-04-04T18:15:15Z</time>
      </trkpt>
      <trkpt lat="47.12616" lon="-0.38075">
        <ele>96</ele>
        <time>2022-04-04T18:15:21Z</time>
      </trkpt>
      <trkpt lat="47.12566" lon="-0.37927">
        <ele>96</ele>
        <time>2022-04-04T18:15:41Z</time>
      </trkpt>
      <trkpt lat="47.12556" lon="-0.3788">
        <ele>96</ele>
        <time>2022-04-04T18:15:47Z</time>
      </trkpt>
      <trkpt lat="47.12539" lon="-0.37741">
        <ele>92</ele>
        <time>2022-04-04T18:16:04Z</time>
      </trkpt>
      <trkpt lat="47.12531" lon="-0.37699">
        <ele>92</ele>
        <time>2022-04-04T18:16:10Z</time>
      </trkpt>
      <trkpt lat="47.1252" lon="-0.3766">
        <ele>93</ele>
        <time>2022-04-04T18:16:15Z</time>
      </trkpt>
      <trkpt lat="47.12423" lon="-0.37404">
        <ele>98</ele>
        <time>2022-04-04T18:16:50Z</time>
      </trkpt>
      <trkpt lat="47.12396" lon="-0.37346">
        <ele>100</ele>
        <time>2022-04-04T18:16:59Z</time>
      </trkpt>
      <trkpt lat="47.12356" lon="-0.37287">
        <ele>100</ele>
        <time>2022-04-04T18:17:09Z</time>
      </trkpt>
      <trkpt lat="47.12276" lon="-0.37177">
        <ele>101</ele>
        <time>2022-04-04T18:17:28Z</time>
      </trkpt>
      <trkpt lat="47.12217" lon="-0.37082">
        <ele>99</ele>
        <time>2022-04-04T18:17:44Z</time>
      </trkpt>
      <trkpt lat="47.12122" lon="-0.36903">
        <ele>93</ele>
        <time>2022-04-04T18:18:11Z</time>
      </trkpt>
      <trkpt lat="47.12102" lon="-0.36871">
        <ele>92</ele>
        <time>2022-04-04T18:18:17Z</time>
      </trkpt>
      <trkpt lat="47.11996" lon="-0.36734">
        <ele>90</ele>
        <time>2022-04-04T18:18:42Z</time>
      </trkpt>
      <trkpt lat="47.11958" lon="-0.3669">
        <ele>89</ele>
        <time>2022-04-04T18:18:50Z</time>
      </trkpt>
      <trkpt lat="47.11793" lon="-0.36537">
        <ele>85</ele>
        <time>2022-04-04T18:19:25Z</time>
      </trkpt>
      <trkpt lat="47.11784" lon="-0.36518">
        <ele>84</ele>
        <time>2022-04-04T18:19:28Z</time>
      </trkpt>
      <trkpt lat="47.11778" lon="-0.36508">
        <ele>84</ele>
        <time>2022-04-04T18:19:29Z</time>
      </trkpt>
      <trkpt lat="47.11779" lon="-0.36496">
        <ele>83</ele>
        <time>2022-04-04T18:19:31Z</time>
      </trkpt>
      <trkpt lat="47.11777" lon="-0.36476">
        <ele>82</ele>
        <time>2022-04-04T18:19:33Z</time>
      </trkpt>
      <trkpt lat="47.10601" lon="-0.38968">
        <ele>84</ele>
        <time>2022-04-04T18:25:41Z</time>
      </trkpt>
      <trkpt lat="47.10623" lon="-0.38952">
        <ele>85</ele>
        <time>2022-04-04T18:25:45Z</time>
      </trkpt>
      <trkpt lat="47.10629" lon="-0.38986">
        <ele>88</ele>
        <time>2022-04-04T18:25:49Z</time>
      </trkpt>
      <trkpt lat="47.10634" lon="-0.38998">
        <ele>89</ele>
        <time>2022-04-04T18:25:51Z</time>
      </trkpt>
      <trkpt lat="47.10605" lon="-0.39031">
        <ele>86</ele>
        <time>2022-04-04T18:25:57Z</time>
      </trkpt>
      <trkpt lat="47.10586" lon="-0.39062">
        <ele>84</ele>
        <time>2022-04-04T18:26:02Z</time>
      </trkpt>
      <trkpt lat="47.10489" lon="-0.39255">
        <ele>85</ele>
        <time>2022-04-04T18:26:31Z</time>
      </trkpt>
      <trkpt lat="47.10478" lon="-0.3928">
        <ele>85</ele>
        <time>2022-04-04T18:26:35Z</time>
      </trkpt>
      <trkpt lat="47.10473" lon="-0.39299">
        <ele>86</ele>
        <time>2022-04-04T18:26:38Z</time>
      </trkpt>
      <trkpt lat="47.10469" lon="-0.39343">
        <ele>88</ele>
        <time>2022-04-04T18:26:43Z</time>
      </trkpt>
      <trkpt lat="47.1047" lon="-0.39362">
        <ele>88</ele>
        <time>2022-04-04T18:26:45Z</time>
      </trkpt>
      <trkpt lat="47.10482" lon="-0.3948">
        <ele>93</ele>
        <time>2022-04-04T18:27:00Z</time>
      </trkpt>
      <trkpt lat="47.10483" lon="-0.3954">
        <ele>95</ele>
        <time>2022-04-04T18:27:07Z</time>
      </trkpt>
      <trkpt lat="47.10479" lon="-0.39589">
        <ele>97</ele>
        <time>2022-04-04T18:27:13Z</time>
      </trkpt>
      <trkpt lat="47.10467" lon="-0.39653">
        <ele>97</ele>
        <time>2022-04-04T18:27:21Z</time>
      </trkpt>
      <trkpt lat="47.10437" lon="-0.39745">
        <ele>98</ele>
        <time>2022-04-04T18:27:33Z</time>
      </trkpt>
      <trkpt lat="47.10434" lon="-0.39769">
        <ele>99</ele>
        <time>2022-04-04T18:27:36Z</time>
      </trkpt>
      <trkpt lat="47.10433" lon="-0.3979">
        <ele>99</ele>
        <time>2022-04-04T18:27:39Z</time>
      </trkpt>
      <trkpt lat="47.10433" lon="-0.39843">
        <ele>100</ele>
        <time>2022-04-04T18:27:45Z</time>
      </trkpt>
      <trkpt lat="47.10432" lon="-0.3988">
        <ele>101</ele>
        <time>2022-04-04T18:27:50Z</time>
      </trkpt>
      <trkpt lat="47.10429" lon="-0.39905">
        <ele>102</ele>
        <time>2022-04-04T18:27:53Z</time>
      </trkpt>
      <trkpt lat="47.1042" lon="-0.39953">
        <ele>102</ele>
        <time>2022-04-04T18:27:59Z</time>
      </trkpt>
      <trkpt lat="47.10409" lon="-0.39983">
        <ele>103</ele>
        <time>2022-04-04T18:28:03Z</time>
      </trkpt>
      <trkpt lat="47.10317" lon="-0.40174">
        <ele>104</ele>
        <time>2022-04-04T18:28:31Z</time>
      </trkpt>
      <trkpt lat="47.10241" lon="-0.40344">
        <ele>103</ele>
        <time>2022-04-04T18:28:56Z</time>
      </trkpt>
      <trkpt lat="47.1023" lon="-0.40377">
        <ele>103</ele>
        <time>2022-04-04T18:29:00Z</time>
      </trkpt>
      <trkpt lat="47.10222" lon="-0.40414">
        <ele>102</ele>
        <time>2022-04-04T18:29:05Z</time>
      </trkpt>
      <trkpt lat="47.10219" lon="-0.40434">
        <ele>102</ele>
        <time>2022-04-04T18:29:08Z</time>
      </trkpt>
      <trkpt lat="47.10218" lon="-0.4048">
        <ele>101</ele>
        <time>2022-04-04T18:29:13Z</time>
      </trkpt>
      <trkpt lat="47.10219" lon="-0.40499">
        <ele>101</ele>
        <time>2022-04-04T18:29:15Z</time>
      </trkpt>
      <trkpt lat="47.10255" lon="-0.40784">
        <ele>94</ele>
        <time>2022-04-04T18:29:51Z</time>
      </trkpt>
      <trkpt lat="47.10256" lon="-0.40813">
        <ele>94</ele>
        <time>2022-04-04T18:29:54Z</time>
      </trkpt>
      <trkpt lat="47.10254" lon="-0.40835">
        <ele>94</ele>
        <time>2022-04-04T18:29:57Z</time>
      </trkpt>
      <trkpt lat="47.10246" lon="-0.40861">
        <ele>94</ele>
        <time>2022-04-04T18:30:00Z</time>
      </trkpt>
      <trkpt lat="47.10232" lon="-0.40896">
        <ele>94</ele>
        <time>2022-04-04T18:30:05Z</time>
      </trkpt>
      <trkpt lat="47.10049" lon="-0.41273">
        <ele>93</ele>
        <time>2022-04-04T18:31:01Z</time>
      </trkpt>
      <trkpt lat="47.10039" lon="-0.41299">
        <ele>94</ele>
        <time>2022-04-04T18:31:05Z</time>
      </trkpt>
      <trkpt lat="47.10033" lon="-0.41319">
        <ele>94</ele>
        <time>2022-04-04T18:31:07Z</time>
      </trkpt>
      <trkpt lat="47.09986" lon="-0.41591">
        <ele>91</ele>
        <time>2022-04-04T18:31:41Z</time>
      </trkpt>
      <trkpt lat="47.09977" lon="-0.41623">
        <ele>90</ele>
        <time>2022-04-04T18:31:46Z</time>
      </trkpt>
      <trkpt lat="47.09966" lon="-0.41649">
        <ele>90</ele>
        <time>2022-04-04T18:31:49Z</time>
      </trkpt>
      <trkpt lat="47.0995" lon="-0.41673">
        <ele>89</ele>
        <time>2022-04-04T18:31:53Z</time>
      </trkpt>
      <trkpt lat="47.09885" lon="-0.41747">
        <ele>86</ele>
        <time>2022-04-04T18:32:08Z</time>
      </trkpt>
      <trkpt lat="47.0987" lon="-0.41761">
        <ele>86</ele>
        <time>2022-04-04T18:32:11Z</time>
      </trkpt>
      <trkpt lat="47.09848" lon="-0.41771">
        <ele>86</ele>
        <time>2022-04-04T18:32:15Z</time>
      </trkpt>
      <trkpt lat="47.09728" lon="-0.4181">
        <ele>80</ele>
        <time>2022-04-04T18:32:37Z</time>
      </trkpt>
      <trkpt lat="47.09696" lon="-0.41824">
        <ele>78</ele>
        <time>2022-04-04T18:32:43Z</time>
      </trkpt>
      <trkpt lat="47.09669" lon="-0.4184">
        <ele>76</ele>
        <time>2022-04-04T18:32:48Z</time>
      </trkpt>
      <trkpt lat="47.09661" lon="-0.4185">
        <ele>76</ele>
        <time>2022-04-04T18:32:50Z</time>
      </trkpt>
      <trkpt lat="47.09644" lon="-0.41879">
        <ele>77</ele>
        <time>2022-04-04T18:32:55Z</time>
      </trkpt>
      <trkpt lat="47.09593" lon="-0.41982">
        <ele>75</ele>
        <time>2022-04-04T18:33:10Z</time>
      </trkpt>
      <trkpt lat="47.0959" lon="-0.41994">
        <ele>75</ele>
        <time>2022-04-04T18:33:12Z</time>
      </trkpt>
      <trkpt lat="47.09591" lon="-0.42">
        <ele>76</ele>
        <time>2022-04-04T18:33:13Z</time>
      </trkpt>
      <trkpt lat="47.09578" lon="-0.42015">
        <ele>75</ele>
        <time>2022-04-04T18:33:15Z</time>
      </trkpt>
      <trkpt lat="47.09559" lon="-0.42044">
        <ele>75</ele>
        <time>2022-04-04T18:33:20Z</time>
      </trkpt>
      <trkpt lat="47.09551" lon="-0.42052">
        <ele>75</ele>
        <time>2022-04-04T18:33:22Z</time>
      </trkpt>
      <trkpt lat="47.09542" lon="-0.42059">
        <ele>76</ele>
        <time>2022-04-04T18:33:24Z</time>
      </trkpt>
      <trkpt lat="47.09525" lon="-0.42068">
        <ele>76</ele>
        <time>2022-04-04T18:33:27Z</time>
      </trkpt>
      <trkpt lat="47.09514" lon="-0.42033">
        <ele>75</ele>
        <time>2022-04-04T18:33:32Z</time>
      </trkpt>
      <trkpt lat="47.10837" lon="-0.46766">
        <ele>113</ele>
        <time>2022-04-04T18:43:51Z</time>
      </trkpt>
      <trkpt lat="47.10816" lon="-0.46782">
        <ele>112</ele>
        <time>2022-04-04T18:43:56Z</time>
      </trkpt>
      <trkpt lat="47.10847" lon="-0.46832">
        <ele>113</ele>
        <time>2022-04-04T18:44:04Z</time>
      </trkpt>
      <trkpt lat="47.1098" lon="-0.46994">
        <ele>116</ele>
        <time>2022-04-04T18:44:35Z</time>
      </trkpt>
      <trkpt lat="47.11001" lon="-0.47025">
        <ele>116</ele>
        <time>2022-04-04T18:44:40Z</time>
      </trkpt>
      <trkpt lat="47.11021" lon="-0.47068">
        <ele>116</ele>
        <time>2022-04-04T18:44:46Z</time>
      </trkpt>
      <trkpt lat="47.11032" lon="-0.47105">
        <ele>116</ele>
        <time>2022-04-04T18:44:51Z</time>
      </trkpt>
      <trkpt lat="47.11062" lon="-0.47249">
        <ele>114</ele>
        <time>2022-04-04T18:45:09Z</time>
      </trkpt>
      <trkpt lat="47.11071" lon="-0.47291">
        <ele>113</ele>
        <time>2022-04-04T18:45:15Z</time>
      </trkpt>
      <trkpt lat="47.11082" lon="-0.47324">
        <ele>113</ele>
        <time>2022-04-04T18:45:19Z</time>
      </trkpt>
      <trkpt lat="47.11095" lon="-0.47352">
        <ele>112</ele>
        <time>2022-04-04T18:45:23Z</time>
      </trkpt>
      <trkpt lat="47.11117" lon="-0.47389">
        <ele>110</ele>
        <time>2022-04-04T18:45:29Z</time>
      </trkpt>
      <trkpt lat="47.11212" lon="-0.47525">
        <ele>107</ele>
        <time>2022-04-04T18:45:53Z</time>
      </trkpt>
      <trkpt lat="47.11222" lon="-0.47543">
        <ele>107</ele>
        <time>2022-04-04T18:45:56Z</time>
      </trkpt>
      <trkpt lat="47.11237" lon="-0.47579">
        <ele>107</ele>
        <time>2022-04-04T18:46:01Z</time>
      </trkpt>
      <trkpt lat="47.11249" lon="-0.47618">
        <ele>108</ele>
        <time>2022-04-04T18:46:06Z</time>
      </trkpt>
      <trkpt lat="47.11258" lon="-0.4767">
        <ele>109</ele>
        <time>2022-04-04T18:46:12Z</time>
      </trkpt>
      <trkpt lat="47.11276" lon="-0.47831">
        <ele>111</ele>
        <time>2022-04-04T18:46:32Z</time>
      </trkpt>
      <trkpt lat="47.11288" lon="-0.47903">
        <ele>111</ele>
        <time>2022-04-04T18:46:41Z</time>
      </trkpt>
      <trkpt lat="47.11334" lon="-0.48075">
        <ele>112</ele>
        <time>2022-04-04T18:47:03Z</time>
      </trkpt>
      <trkpt lat="47.11346" lon="-0.48108">
        <ele>112</ele>
        <time>2022-04-04T18:47:08Z</time>
      </trkpt>
      <trkpt lat="47.11353" lon="-0.48121">
        <ele>112</ele>
        <time>2022-04-04T18:47:10Z</time>
      </trkpt>
      <trkpt lat="47.11375" lon="-0.48154">
        <ele>113</ele>
        <time>2022-04-04T18:47:16Z</time>
      </trkpt>
      <trkpt lat="47.11416" lon="-0.48209">
        <ele>113</ele>
        <time>2022-04-04T18:47:26Z</time>
      </trkpt>
      <trkpt lat="47.11428" lon="-0.48228">
        <ele>113</ele>
        <time>2022-04-04T18:47:29Z</time>
      </trkpt>
      <trkpt lat="47.11438" lon="-0.48249">
        <ele>113</ele>
        <time>2022-04-04T18:47:32Z</time>
      </trkpt>
      <trkpt lat="47.11446" lon="-0.48272">
        <ele>114</ele>
        <time>2022-04-04T18:47:35Z</time>
      </trkpt>
      <trkpt lat="47.11474" lon="-0.48375">
        <ele>116</ele>
        <time>2022-04-04T18:47:48Z</time>
      </trkpt>
      <trkpt lat="47.11491" lon="-0.48417">
        <ele>116</ele>
        <time>2022-04-04T18:47:54Z</time>
      </trkpt>
      <trkpt lat="47.11566" lon="-0.48542">
        <ele>116</ele>
        <time>2022-04-04T18:48:14Z</time>
      </trkpt>
      <trkpt lat="47.11579" lon="-0.4857">
        <ele>116</ele>
        <time>2022-04-04T18:48:19Z</time>
      </trkpt>
      <trkpt lat="47.11595" lon="-0.48614">
        <ele>116</ele>
        <time>2022-04-04T18:48:25Z</time>
      </trkpt>
      <trkpt lat="47.1162" lon="-0.48675">
        <ele>116</ele>
        <time>2022-04-04T18:48:33Z</time>
      </trkpt>
      <trkpt lat="47.11708" lon="-0.48836">
        <ele>115</ele>
        <time>2022-04-04T18:48:58Z</time>
      </trkpt>
      <trkpt lat="47.11718" lon="-0.48858">
        <ele>115</ele>
        <time>2022-04-04T18:49:01Z</time>
      </trkpt>
      <trkpt lat="47.11731" lon="-0.48896">
        <ele>115</ele>
        <time>2022-04-04T18:49:07Z</time>
      </trkpt>
      <trkpt lat="47.11736" lon="-0.48916">
        <ele>114</ele>
        <time>2022-04-04T18:49:09Z</time>
      </trkpt>
      <trkpt lat="47.1174" lon="-0.48946">
        <ele>114</ele>
        <time>2022-04-04T18:49:13Z</time>
      </trkpt>
      <trkpt lat="47.11741" lon="-0.49018">
        <ele>114</ele>
        <time>2022-04-04T18:49:22Z</time>
      </trkpt>
      <trkpt lat="47.11744" lon="-0.49052">
        <ele>114</ele>
        <time>2022-04-04T18:49:26Z</time>
      </trkpt>
      <trkpt lat="47.11752" lon="-0.49091">
        <ele>114</ele>
        <time>2022-04-04T18:49:31Z</time>
      </trkpt>
      <trkpt lat="47.11847" lon="-0.49489">
        <ele>116</ele>
        <time>2022-04-04T18:50:22Z</time>
      </trkpt>
      <trkpt lat="47.11854" lon="-0.49514">
        <ele>116</ele>
        <time>2022-04-04T18:50:25Z</time>
      </trkpt>
      <trkpt lat="47.11867" lon="-0.49549">
        <ele>117</ele>
        <time>2022-04-04T18:50:30Z</time>
      </trkpt>
      <trkpt lat="47.11882" lon="-0.4958">
        <ele>117</ele>
        <time>2022-04-04T18:50:34Z</time>
      </trkpt>
      <trkpt lat="47.11897" lon="-0.49603">
        <ele>117</ele>
        <time>2022-04-04T18:50:38Z</time>
      </trkpt>
      <trkpt lat="47.11949" lon="-0.49675">
        <ele>118</ele>
        <time>2022-04-04T18:50:51Z</time>
      </trkpt>
      <trkpt lat="47.11964" lon="-0.49698">
        <ele>119</ele>
        <time>2022-04-04T18:50:55Z</time>
      </trkpt>
      <trkpt lat="47.11976" lon="-0.49726">
        <ele>119</ele>
        <time>2022-04-04T18:50:59Z</time>
      </trkpt>
      <trkpt lat="47.11984" lon="-0.49761">
        <ele>119</ele>
        <time>2022-04-04T18:51:03Z</time>
      </trkpt>
      <trkpt lat="47.11988" lon="-0.49786">
        <ele>118</ele>
        <time>2022-04-04T18:51:06Z</time>
      </trkpt>
      <trkpt lat="47.12013" lon="-0.49975">
        <ele>117</ele>
        <time>2022-04-04T18:51:30Z</time>
      </trkpt>
      <trkpt lat="47.12021" lon="-0.50025">
        <ele>116</ele>
        <time>2022-04-04T18:51:36Z</time>
      </trkpt>
      <trkpt lat="47.12032" lon="-0.50061">
        <ele>116</ele>
        <time>2022-04-04T18:51:41Z</time>
      </trkpt>
      <trkpt lat="47.12049" lon="-0.50103">
        <ele>115</ele>
        <time>2022-04-04T18:51:47Z</time>
      </trkpt>
      <trkpt lat="47.1208" lon="-0.50164">
        <ele>114</ele>
        <time>2022-04-04T18:51:56Z</time>
      </trkpt>
      <trkpt lat="47.12094" lon="-0.50201">
        <ele>114</ele>
        <time>2022-04-04T18:52:01Z</time>
      </trkpt>
      <trkpt lat="47.12102" lon="-0.50235">
        <ele>114</ele>
        <time>2022-04-04T18:52:05Z</time>
      </trkpt>
      <trkpt lat="47.12107" lon="-0.50279">
        <ele>113</ele>
        <time>2022-04-04T18:52:11Z</time>
      </trkpt>
      <trkpt lat="47.12105" lon="-0.50316">
        <ele>113</ele>
        <time>2022-04-04T18:52:15Z</time>
      </trkpt>
      <trkpt lat="47.12096" lon="-0.5038">
        <ele>112</ele>
        <time>2022-04-04T18:52:23Z</time>
      </trkpt>
      <trkpt lat="47.12091" lon="-0.50439">
        <ele>112</ele>
        <time>2022-04-04T18:52:30Z</time>
      </trkpt>
      <trkpt lat="47.12091" lon="-0.505">
        <ele>111</ele>
        <time>2022-04-04T18:52:38Z</time>
      </trkpt>
      <trkpt lat="47.12096" lon="-0.50545">
        <ele>111</ele>
        <time>2022-04-04T18:52:43Z</time>
      </trkpt>
      <trkpt lat="47.12112" lon="-0.50604">
        <ele>111</ele>
        <time>2022-04-04T18:52:51Z</time>
      </trkpt>
      <trkpt lat="47.12144" lon="-0.50692">
        <ele>111</ele>
        <time>2022-04-04T18:53:03Z</time>
      </trkpt>
      <trkpt lat="47.12152" lon="-0.50724">
        <ele>111</ele>
        <time>2022-04-04T18:53:07Z</time>
      </trkpt>
      <trkpt lat="47.12215" lon="-0.51109">
        <ele>113</ele>
        <time>2022-04-04T18:53:55Z</time>
      </trkpt>
      <trkpt lat="47.12231" lon="-0.51175">
        <ele>114</ele>
        <time>2022-04-04T18:54:04Z</time>
      </trkpt>
      <trkpt lat="47.12266" lon="-0.51289">
        <ele>115</ele>
        <time>2022-04-04T18:54:19Z</time>
      </trkpt>
      <trkpt lat="47.12274" lon="-0.51336">
        <ele>116</ele>
        <time>2022-04-04T18:54:25Z</time>
      </trkpt>
      <trkpt lat="47.12292" lon="-0.51515">
        <ele>117</ele>
        <time>2022-04-04T18:54:46Z</time>
      </trkpt>
      <trkpt lat="47.12303" lon="-0.51577">
        <ele>117</ele>
        <time>2022-04-04T18:54:54Z</time>
      </trkpt>
      <trkpt lat="47.12345" lon="-0.51788">
        <ele>118</ele>
        <time>2022-04-04T18:55:21Z</time>
      </trkpt>
      <trkpt lat="47.12354" lon="-0.51847">
        <ele>117</ele>
        <time>2022-04-04T18:55:28Z</time>
      </trkpt>
      <trkpt lat="47.12378" lon="-0.52075">
        <ele>117</ele>
        <time>2022-04-04T18:55:56Z</time>
      </trkpt>
      <trkpt lat="47.12384" lon="-0.52143">
        <ele>117</ele>
        <time>2022-04-04T18:56:04Z</time>
      </trkpt>
      <trkpt lat="47.12383" lon="-0.5218">
        <ele>116</ele>
        <time>2022-04-04T18:56:09Z</time>
      </trkpt>
      <trkpt lat="47.12379" lon="-0.5223">
        <ele>116</ele>
        <time>2022-04-04T18:56:15Z</time>
      </trkpt>
      <trkpt lat="47.12372" lon="-0.52295">
        <ele>116</ele>
        <time>2022-04-04T18:56:23Z</time>
      </trkpt>
      <trkpt lat="47.12371" lon="-0.52314">
        <ele>116</ele>
        <time>2022-04-04T18:56:25Z</time>
      </trkpt>
      <trkpt lat="47.12375" lon="-0.52357">
        <ele>115</ele>
        <time>2022-04-04T18:56:30Z</time>
      </trkpt>
      <trkpt lat="47.12374" lon="-0.52374">
        <ele>116</ele>
        <time>2022-04-04T18:56:33Z</time>
      </trkpt>
      <trkpt lat="47.12364" lon="-0.52397">
        <ele>116</ele>
        <time>2022-04-04T18:56:36Z</time>
      </trkpt>
      <trkpt lat="47.12357" lon="-0.52426">
        <ele>116</ele>
        <time>2022-04-04T18:56:40Z</time>
      </trkpt>
      <trkpt lat="47.12358" lon="-0.52511">
        <ele>116</ele>
        <time>2022-04-04T18:56:50Z</time>
      </trkpt>
      <trkpt lat="47.12364" lon="-0.5258">
        <ele>116</ele>
        <time>2022-04-04T18:56:58Z</time>
      </trkpt>
      <trkpt lat="47.12375" lon="-0.52626">
        <ele>116</ele>
        <time>2022-04-04T18:57:04Z</time>
      </trkpt>
      <trkpt lat="47.12382" lon="-0.52644">
        <ele>116</ele>
        <time>2022-04-04T18:57:07Z</time>
      </trkpt>
      <trkpt lat="47.12442" lon="-0.52749">
        <ele>118</ele>
        <time>2022-04-04T18:57:23Z</time>
      </trkpt>
      <trkpt lat="47.12458" lon="-0.52782">
        <ele>118</ele>
        <time>2022-04-04T18:57:28Z</time>
      </trkpt>
      <trkpt lat="47.12471" lon="-0.52818">
        <ele>119</ele>
        <time>2022-04-04T18:57:33Z</time>
      </trkpt>
      <trkpt lat="47.12519" lon="-0.52963">
        <ele>120</ele>
        <time>2022-04-04T18:57:53Z</time>
      </trkpt>
      <trkpt lat="47.12543" lon="-0.53021">
        <ele>119</ele>
        <time>2022-04-04T18:58:01Z</time>
      </trkpt>
      <trkpt lat="47.12572" lon="-0.53078">
        <ele>118</ele>
        <time>2022-04-04T18:58:10Z</time>
      </trkpt>
      <trkpt lat="47.12644" lon="-0.53206">
        <ele>116</ele>
        <time>2022-04-04T18:58:30Z</time>
      </trkpt>
      <trkpt lat="47.12664" lon="-0.53246">
        <ele>116</ele>
        <time>2022-04-04T18:58:36Z</time>
      </trkpt>
      <trkpt lat="47.12679" lon="-0.53287">
        <ele>115</ele>
        <time>2022-04-04T18:58:41Z</time>
      </trkpt>
      <trkpt lat="47.12703" lon="-0.53385">
        <ele>114</ele>
        <time>2022-04-04T18:58:54Z</time>
      </trkpt>
      <trkpt lat="47.12709" lon="-0.53421">
        <ele>114</ele>
        <time>2022-04-04T18:58:58Z</time>
      </trkpt>
      <trkpt lat="47.1271" lon="-0.53471">
        <ele>114</ele>
        <time>2022-04-04T18:59:04Z</time>
      </trkpt>
      <trkpt lat="47.12696" lon="-0.53624">
        <ele>116</ele>
        <time>2022-04-04T18:59:23Z</time>
      </trkpt>
      <trkpt lat="47.12692" lon="-0.53651">
        <ele>116</ele>
        <time>2022-04-04T18:59:26Z</time>
      </trkpt>
      <trkpt lat="47.1268" lon="-0.53699">
        <ele>117</ele>
        <time>2022-04-04T18:59:33Z</time>
      </trkpt>
      <trkpt lat="47.12673" lon="-0.53742">
        <ele>118</ele>
        <time>2022-04-04T18:59:38Z</time>
      </trkpt>
      <trkpt lat="47.12642" lon="-0.53985">
        <ele>121</ele>
        <time>2022-04-04T19:00:08Z</time>
      </trkpt>
      <trkpt lat="47.12628" lon="-0.54068">
        <ele>123</ele>
        <time>2022-04-04T19:00:18Z</time>
      </trkpt>
      <trkpt lat="47.12626" lon="-0.541">
        <ele>123</ele>
        <time>2022-04-04T19:00:22Z</time>
      </trkpt>
      <trkpt lat="47.12629" lon="-0.54128">
        <ele>124</ele>
        <time>2022-04-04T19:00:26Z</time>
      </trkpt>
      <trkpt lat="47.12655" lon="-0.5425">
        <ele>124</ele>
        <time>2022-04-04T19:00:41Z</time>
      </trkpt>
      <trkpt lat="47.12657" lon="-0.5428">
        <ele>124</ele>
        <time>2022-04-04T19:00:45Z</time>
      </trkpt>
      <trkpt lat="47.12657" lon="-0.54303">
        <ele>124</ele>
        <time>2022-04-04T19:00:48Z</time>
      </trkpt>
      <trkpt lat="47.12648" lon="-0.54436">
        <ele>125</ele>
        <time>2022-04-04T19:01:04Z</time>
      </trkpt>
      <trkpt lat="47.12649" lon="-0.54533">
        <ele>124</ele>
        <time>2022-04-04T19:01:15Z</time>
      </trkpt>
      <trkpt lat="47.12647" lon="-0.5456">
        <ele>124</ele>
        <time>2022-04-04T19:01:19Z</time>
      </trkpt>
      <trkpt lat="47.12638" lon="-0.54596">
        <ele>124</ele>
        <time>2022-04-04T19:01:23Z</time>
      </trkpt>
      <trkpt lat="47.12632" lon="-0.54646">
        <ele>125</ele>
        <time>2022-04-04T19:01:30Z</time>
      </trkpt>
      <trkpt lat="47.12621" lon="-0.54762">
        <ele>124</ele>
        <time>2022-04-04T19:01:44Z</time>
      </trkpt>
      <trkpt lat="47.12608" lon="-0.54856">
        <ele>124</ele>
        <time>2022-04-04T19:01:55Z</time>
      </trkpt>
      <trkpt lat="47.12606" lon="-0.54894">
        <ele>124</ele>
        <time>2022-04-04T19:02:00Z</time>
      </trkpt>
      <trkpt lat="47.12606" lon="-0.54929">
        <ele>124</ele>
        <time>2022-04-04T19:02:04Z</time>
      </trkpt>
      <trkpt lat="47.12615" lon="-0.55002">
        <ele>123</ele>
        <time>2022-04-04T19:02:13Z</time>
      </trkpt>
      <trkpt lat="47.12596" lon="-0.55018">
        <ele>124</ele>
        <time>2022-04-04T19:02:17Z</time>
      </trkpt>
      <trkpt lat="47.12646" lon="-0.54978">
        <ele>122</ele>
        <time>2022-04-04T19:02:27Z</time>
      </trkpt>
      <trkpt lat="47.12838" lon="-0.54889">
        <ele>119</ele>
        <time>2022-04-04T19:03:03Z</time>
      </trkpt>
      <trkpt lat="47.13384" lon="-0.54645">
        <ele>100</ele>
        <time>2022-04-04T19:04:45Z</time>
      </trkpt>
      <trkpt lat="47.13489" lon="-0.54596">
        <ele>94</ele>
        <time>2022-04-04T19:05:04Z</time>
      </trkpt>
      <trkpt lat="47.13488" lon="-0.54583">
        <ele>95</ele>
        <time>2022-04-04T19:05:06Z</time>
      </trkpt>
      <trkpt lat="47.13492" lon="-0.54572">
        <ele>95</ele>
        <time>2022-04-04T19:05:07Z</time>
      </trkpt>
      <trkpt lat="47.13498" lon="-0.54568">
        <ele>95</ele>
        <time>2022-04-04T19:05:08Z</time>
      </trkpt>
      <trkpt lat="47.13507" lon="-0.5457">
        <ele>95</ele>
        <time>2022-04-04T19:05:10Z</time>
      </trkpt>
      <trkpt lat="47.13512" lon="-0.54576">
        <ele>94</ele>
        <time>2022-04-04T19:05:11Z</time>
      </trkpt>
      <trkpt lat="47.13515" lon="-0.54585">
        <ele>94</ele>
        <time>2022-04-04T19:05:12Z</time>
      </trkpt>
      <trkpt lat="47.13533" lon="-0.54576">
        <ele>95</ele>
        <time>2022-04-04T19:05:16Z</time>
      </trkpt>
      <trkpt lat="47.13567" lon="-0.54561">
        <ele>96</ele>
        <time>2022-04-04T19:05:22Z</time>
      </trkpt>
      <trkpt lat="47.1449" lon="-0.54146">
        <ele>86</ele>
        <time>2022-04-04T19:08:14Z</time>
      </trkpt>
      <trkpt lat="47.145" lon="-0.54149">
        <ele>85</ele>
        <time>2022-04-04T19:08:16Z</time>
      </trkpt>
      <trkpt lat="47.1457" lon="-0.5388">
        <ele>77</ele>
        <time>2022-04-04T19:08:50Z</time>
      </trkpt>
      <trkpt lat="47.14573" lon="-0.53867">
        <ele>77</ele>
        <time>2022-04-04T19:08:52Z</time>
      </trkpt>
      <trkpt lat="47.14587" lon="-0.53823">
        <ele>78</ele>
        <time>2022-04-04T19:08:58Z</time>
      </trkpt>
      <trkpt lat="47.14585" lon="-0.53814">
        <ele>79</ele>
        <time>2022-04-04T19:08:59Z</time>
      </trkpt>
      <trkpt lat="47.14587" lon="-0.53808">
        <ele>80</ele>
        <time>2022-04-04T19:09:00Z</time>
      </trkpt>
      <trkpt lat="47.14592" lon="-0.53807">
        <ele>80</ele>
        <time>2022-04-04T19:09:01Z</time>
      </trkpt>
      <trkpt lat="47.14592" lon="-0.53797">
        <ele>81</ele>
        <time>2022-04-04T19:09:02Z</time>
      </trkpt>
      <trkpt lat="47.14671" lon="-0.53486">
        <ele>96</ele>
        <time>2022-04-04T19:09:42Z</time>
      </trkpt>
      <trkpt lat="47.1468" lon="-0.53364">
        <ele>95</ele>
        <time>2022-04-04T19:09:57Z</time>
      </trkpt>
      <trkpt lat="47.14681" lon="-0.53347">
        <ele>95</ele>
        <time>2022-04-04T19:09:59Z</time>
      </trkpt>
      <trkpt lat="47.14684" lon="-0.53347">
        <ele>95</ele>
        <time>2022-04-04T19:10:00Z</time>
      </trkpt>
      <trkpt lat="47.14686" lon="-0.53344">
        <ele>95</ele>
        <time>2022-04-04T19:10:00Z</time>
      </trkpt>
      <trkpt lat="47.1469" lon="-0.53299">
        <ele>96</ele>
        <time>2022-04-04T19:10:06Z</time>
      </trkpt>
      <trkpt lat="47.14694" lon="-0.53294">
        <ele>96</ele>
        <time>2022-04-04T19:10:07Z</time>
      </trkpt>
      <trkpt lat="47.14695" lon="-0.53291">
        <ele>96</ele>
        <time>2022-04-04T19:10:07Z</time>
      </trkpt>
      <trkpt lat="47.14695" lon="-0.53285">
        <ele>96</ele>
        <time>2022-04-04T19:10:08Z</time>
      </trkpt>
      <trkpt lat="47.14691" lon="-0.5328">
        <ele>96</ele>
        <time>2022-04-04T19:10:09Z</time>
      </trkpt>
      <trkpt lat="47.14702" lon="-0.53087">
        <ele>99</ele>
        <time>2022-04-04T19:10:32Z</time>
      </trkpt>
      <trkpt lat="47.14709" lon="-0.53069">
        <ele>99</ele>
        <time>2022-04-04T19:10:35Z</time>
      </trkpt>
      <trkpt lat="47.14716" lon="-0.53064">
        <ele>100</ele>
        <time>2022-04-04T19:10:36Z</time>
      </trkpt>
      <trkpt lat="47.14714" lon="-0.53059">
        <ele>100</ele>
        <time>2022-04-04T19:10:37Z</time>
      </trkpt>
      <trkpt lat="47.14969" lon="-0.52875">
        <ele>101</ele>
        <time>2022-04-04T19:11:27Z</time>
      </trkpt>
      <trkpt lat="47.14972" lon="-0.52864">
        <ele>102</ele>
        <time>2022-04-04T19:11:29Z</time>
      </trkpt>
      <trkpt lat="47.14998" lon="-0.52815">
        <ele>102</ele>
        <time>2022-04-04T19:11:36Z</time>
      </trkpt>
      <trkpt lat="47.1505" lon="-0.52731">
        <ele>103</ele>
        <time>2022-04-04T19:11:50Z</time>
      </trkpt>
      <trkpt lat="47.15072" lon="-0.52692">
        <ele>103</ele>
        <time>2022-04-04T19:11:56Z</time>
      </trkpt>
      <trkpt lat="47.15087" lon="-0.52655">
        <ele>103</ele>
        <time>2022-04-04T19:12:01Z</time>
      </trkpt>
      <trkpt lat="47.15125" lon="-0.52527">
        <ele>106</ele>
        <time>2022-04-04T19:12:18Z</time>
      </trkpt>
      <trkpt lat="47.15165" lon="-0.52315">
        <ele>109</ele>
        <time>2022-04-04T19:12:45Z</time>
      </trkpt>
      <trkpt lat="47.15181" lon="-0.52213">
        <ele>111</ele>
        <time>2022-04-04T19:12:58Z</time>
      </trkpt>
      <trkpt lat="47.15197" lon="-0.52143">
        <ele>113</ele>
        <time>2022-04-04T19:13:06Z</time>
      </trkpt>
      <trkpt lat="47.15244" lon="-0.51964">
        <ele>116</ele>
        <time>2022-04-04T19:13:30Z</time>
      </trkpt>
      <trkpt lat="47.15253" lon="-0.51918">
        <ele>117</ele>
        <time>2022-04-04T19:13:35Z</time>
      </trkpt>
      <trkpt lat="47.15256" lon="-0.51864">
        <ele>118</ele>
        <time>2022-04-04T19:13:42Z</time>
      </trkpt>
      <trkpt lat="47.1526" lon="-0.51837">
        <ele>118</ele>
        <time>2022-04-04T19:13:45Z</time>
      </trkpt>
      <trkpt lat="47.15271" lon="-0.51803">
        <ele>117</ele>
        <time>2022-04-04T19:13:50Z</time>
      </trkpt>
      <trkpt lat="47.15283" lon="-0.51787">
        <ele>117</ele>
        <time>2022-04-04T19:13:53Z</time>
      </trkpt>
      <trkpt lat="47.15292" lon="-0.51781">
        <ele>117</ele>
        <time>2022-04-04T19:13:55Z</time>
      </trkpt>
      <trkpt lat="47.15298" lon="-0.518">
        <ele>117</ele>
        <time>2022-04-04T19:13:57Z</time>
      </trkpt>
      <trkpt lat="47.1528" lon="-0.51805">
        <ele>117</ele>
        <time>2022-04-04T19:14:00Z</time>
      </trkpt>
      <trkpt lat="47.15266" lon="-0.51817">
        <ele>118</ele>
        <time>2022-04-04T19:14:03Z</time>
      </trkpt>
      <trkpt lat="47.15271" lon="-0.51803">
        <ele>117</ele>
        <time>2022-04-04T19:14:05Z</time>
      </trkpt>
      <trkpt lat="47.15283" lon="-0.51787">
        <ele>117</ele>
        <time>2022-04-04T19:14:08Z</time>
      </trkpt>
      <trkpt lat="47.15292" lon="-0.51781">
        <ele>117</ele>
        <time>2022-04-04T19:14:10Z</time>
      </trkpt>
      <trkpt lat="47.15304" lon="-0.51778">
        <ele>117</ele>
        <time>2022-04-04T19:14:12Z</time>
      </trkpt>
      <trkpt lat="47.15319" lon="-0.51768">
        <ele>117</ele>
        <time>2022-04-04T19:14:15Z</time>
      </trkpt>
      <trkpt lat="47.15334" lon="-0.51752">
        <ele>117</ele>
        <time>2022-04-04T19:14:18Z</time>
      </trkpt>
      <trkpt lat="47.1535" lon="-0.51728">
        <ele>117</ele>
        <time>2022-04-04T19:14:22Z</time>
      </trkpt>
      <trkpt lat="47.15385" lon="-0.51675">
        <ele>117</ele>
        <time>2022-04-04T19:14:31Z</time>
      </trkpt>
      <trkpt lat="47.15412" lon="-0.51642">
        <ele>117</ele>
        <time>2022-04-04T19:14:37Z</time>
      </trkpt>
      <trkpt lat="47.15441" lon="-0.51612">
        <ele>116</ele>
        <time>2022-04-04T19:14:44Z</time>
      </trkpt>
      <trkpt lat="47.15472" lon="-0.51585">
        <ele>115</ele>
        <time>2022-04-04T19:14:50Z</time>
      </trkpt>
      <trkpt lat="47.1557" lon="-0.51515">
        <ele>113</ele>
        <time>2022-04-04T19:15:10Z</time>
      </trkpt>
      <trkpt lat="47.15594" lon="-0.51492">
        <ele>113</ele>
        <time>2022-04-04T19:15:15Z</time>
      </trkpt>
      <trkpt lat="47.15669" lon="-0.51391">
        <ele>114</ele>
        <time>2022-04-04T19:15:33Z</time>
      </trkpt>
      <trkpt lat="47.15773" lon="-0.51278">
        <ele>114</ele>
        <time>2022-04-04T19:15:56Z</time>
      </trkpt>
      <trkpt lat="47.15817" lon="-0.51212">
        <ele>113</ele>
        <time>2022-04-04T19:16:07Z</time>
      </trkpt>
      <trkpt lat="47.15923" lon="-0.51061">
        <ele>111</ele>
        <time>2022-04-04T19:16:33Z</time>
      </trkpt>
      <trkpt lat="47.15945" lon="-0.51025">
        <ele>112</ele>
        <time>2022-04-04T19:16:39Z</time>
      </trkpt>
      <trkpt lat="47.15983" lon="-0.50941">
        <ele>110</ele>
        <time>2022-04-04T19:16:51Z</time>
      </trkpt>
      <trkpt lat="47.16007" lon="-0.50902">
        <ele>110</ele>
        <time>2022-04-04T19:16:58Z</time>
      </trkpt>
      <trkpt lat="47.16036" lon="-0.50867">
        <ele>109</ele>
        <time>2022-04-04T19:17:04Z</time>
      </trkpt>
      <trkpt lat="47.16104" lon="-0.50814">
        <ele>109</ele>
        <time>2022-04-04T19:17:18Z</time>
      </trkpt>
      <trkpt lat="47.16123" lon="-0.50786">
        <ele>109</ele>
        <time>2022-04-04T19:17:23Z</time>
      </trkpt>
      <trkpt lat="47.16185" lon="-0.50648">
        <ele>108</ele>
        <time>2022-04-04T19:17:43Z</time>
      </trkpt>
      <trkpt lat="47.16378" lon="-0.50237">
        <ele>103</ele>
        <time>2022-04-04T19:18:43Z</time>
      </trkpt>
      <trkpt lat="47.16445" lon="-0.50088">
        <ele>104</ele>
        <time>2022-04-04T19:19:05Z</time>
      </trkpt>
      <trkpt lat="47.16457" lon="-0.50044">
        <ele>104</ele>
        <time>2022-04-04T19:19:11Z</time>
      </trkpt>
      <trkpt lat="47.16477" lon="-0.49925">
        <ele>104</ele>
        <time>2022-04-04T19:19:25Z</time>
      </trkpt>
      <trkpt lat="47.16488" lon="-0.49876">
        <ele>103</ele>
        <time>2022-04-04T19:19:32Z</time>
      </trkpt>
      <trkpt lat="47.16524" lon="-0.49774">
        <ele>104</ele>
        <time>2022-04-04T19:19:46Z</time>
      </trkpt>
      <trkpt lat="47.16536" lon="-0.49733">
        <ele>104</ele>
        <time>2022-04-04T19:19:51Z</time>
      </trkpt>
      <trkpt lat="47.1657" lon="-0.49588">
        <ele>101</ele>
        <time>2022-04-04T19:20:09Z</time>
      </trkpt>
      <trkpt lat="47.16585" lon="-0.4953">
        <ele>100</ele>
        <time>2022-04-04T19:20:17Z</time>
      </trkpt>
      <trkpt lat="47.16596" lon="-0.49501">
        <ele>100</ele>
        <time>2022-04-04T19:20:21Z</time>
      </trkpt>
      <trkpt lat="47.16617" lon="-0.49459">
        <ele>99</ele>
        <time>2022-04-04T19:20:27Z</time>
      </trkpt>
      <trkpt lat="47.16675" lon="-0.4938">
        <ele>98</ele>
        <time>2022-04-04T19:20:41Z</time>
      </trkpt>
      <trkpt lat="47.16707" lon="-0.49333">
        <ele>97</ele>
        <time>2022-04-04T19:20:49Z</time>
      </trkpt>
      <trkpt lat="47.16719" lon="-0.49317">
        <ele>98</ele>
        <time>2022-04-04T19:20:52Z</time>
      </trkpt>
      <trkpt lat="47.16734" lon="-0.49306">
        <ele>98</ele>
        <time>2022-04-04T19:20:55Z</time>
      </trkpt>
      <trkpt lat="47.1678" lon="-0.49281">
        <ele>99</ele>
        <time>2022-04-04T19:21:04Z</time>
      </trkpt>
      <trkpt lat="47.16848" lon="-0.49221">
        <ele>99</ele>
        <time>2022-04-04T19:21:18Z</time>
      </trkpt>
      <trkpt lat="47.16976" lon="-0.49096">
        <ele>96</ele>
        <time>2022-04-04T19:21:45Z</time>
      </trkpt>
      <trkpt lat="47.17039" lon="-0.4905">
        <ele>94</ele>
        <time>2022-04-04T19:21:58Z</time>
      </trkpt>
      <trkpt lat="47.17063" lon="-0.4903">
        <ele>93</ele>
        <time>2022-04-04T19:22:03Z</time>
      </trkpt>
      <trkpt lat="47.17093" lon="-0.48998">
        <ele>91</ele>
        <time>2022-04-04T19:22:09Z</time>
      </trkpt>
      <trkpt lat="47.17127" lon="-0.48949">
        <ele>89</ele>
        <time>2022-04-04T19:22:18Z</time>
      </trkpt>
      <trkpt lat="47.17181" lon="-0.48878">
        <ele>88</ele>
        <time>2022-04-04T19:22:31Z</time>
      </trkpt>
      <trkpt lat="47.17274" lon="-0.48772">
        <ele>86</ele>
        <time>2022-04-04T19:22:52Z</time>
      </trkpt>
      <trkpt lat="47.17359" lon="-0.48684">
        <ele>86</ele>
        <time>2022-04-04T19:23:10Z</time>
      </trkpt>
      <trkpt lat="47.17387" lon="-0.48659">
        <ele>87</ele>
        <time>2022-04-04T19:23:16Z</time>
      </trkpt>
      <trkpt lat="47.17411" lon="-0.48642">
        <ele>87</ele>
        <time>2022-04-04T19:23:21Z</time>
      </trkpt>
      <trkpt lat="47.17464" lon="-0.48616">
        <ele>89</ele>
        <time>2022-04-04T19:23:31Z</time>
      </trkpt>
      <trkpt lat="47.17482" lon="-0.48606">
        <ele>90</ele>
        <time>2022-04-04T19:23:34Z</time>
      </trkpt>
      <trkpt lat="47.175" lon="-0.48587">
        <ele>92</ele>
        <time>2022-04-04T19:23:38Z</time>
      </trkpt>
      <trkpt lat="47.17518" lon="-0.48559">
        <ele>93</ele>
        <time>2022-04-04T19:23:43Z</time>
      </trkpt>
      <trkpt lat="47.17484" lon="-0.48442">
        <ele>95</ele>
        <time>2022-04-04T19:23:58Z</time>
      </trkpt>
      <trkpt lat="47.17518" lon="-0.48559">
        <ele>93</ele>
        <time>2022-04-04T19:24:14Z</time>
      </trkpt>
      <trkpt lat="47.17599" lon="-0.49078">
        <ele>87</ele>
        <time>2022-04-04T19:25:18Z</time>
      </trkpt>
      <trkpt lat="47.17604" lon="-0.49106">
        <ele>87</ele>
        <time>2022-04-04T19:25:21Z</time>
      </trkpt>
      <trkpt lat="47.17612" lon="-0.49129">
        <ele>87</ele>
        <time>2022-04-04T19:25:25Z</time>
      </trkpt>
      <trkpt lat="47.17622" lon="-0.49155">
        <ele>88</ele>
        <time>2022-04-04T19:25:28Z</time>
      </trkpt>
      <trkpt lat="47.17678" lon="-0.49264">
        <ele>90</ele>
        <time>2022-04-04T19:25:45Z</time>
      </trkpt>
      <trkpt lat="47.17692" lon="-0.49294">
        <ele>92</ele>
        <time>2022-04-04T19:25:49Z</time>
      </trkpt>
      <trkpt lat="47.17746" lon="-0.4945">
        <ele>97</ele>
        <time>2022-04-04T19:26:10Z</time>
      </trkpt>
      <trkpt lat="47.17755" lon="-0.49473">
        <ele>98</ele>
        <time>2022-04-04T19:26:14Z</time>
      </trkpt>
      <trkpt lat="47.17767" lon="-0.49494">
        <ele>98</ele>
        <time>2022-04-04T19:26:17Z</time>
      </trkpt>
      <trkpt lat="47.17784" lon="-0.49516">
        <ele>98</ele>
        <time>2022-04-04T19:26:21Z</time>
      </trkpt>
      <trkpt lat="47.17938" lon="-0.49675">
        <ele>99</ele>
        <time>2022-04-04T19:26:54Z</time>
      </trkpt>
      <trkpt lat="47.18024" lon="-0.49753">
        <ele>100</ele>
        <time>2022-04-04T19:27:12Z</time>
      </trkpt>
      <trkpt lat="47.18075" lon="-0.49796">
        <ele>99</ele>
        <time>2022-04-04T19:27:23Z</time>
      </trkpt>
      <trkpt lat="47.18107" lon="-0.4982">
        <ele>99</ele>
        <time>2022-04-04T19:27:29Z</time>
      </trkpt>
      <trkpt lat="47.18121" lon="-0.49834">
        <ele>99</ele>
        <time>2022-04-04T19:27:32Z</time>
      </trkpt>
      <trkpt lat="47.18131" lon="-0.49849">
        <ele>99</ele>
        <time>2022-04-04T19:27:35Z</time>
      </trkpt>
      <trkpt lat="47.18142" lon="-0.4987">
        <ele>98</ele>
        <time>2022-04-04T19:27:38Z</time>
      </trkpt>
      <trkpt lat="47.18178" lon="-0.49964">
        <ele>97</ele>
        <time>2022-04-04T19:27:51Z</time>
      </trkpt>
      <trkpt lat="47.18236" lon="-0.50094">
        <ele>97</ele>
        <time>2022-04-04T19:28:10Z</time>
      </trkpt>
      <trkpt lat="47.18243" lon="-0.50119">
        <ele>97</ele>
        <time>2022-04-04T19:28:13Z</time>
      </trkpt>
      <trkpt lat="47.1825" lon="-0.50152">
        <ele>97</ele>
        <time>2022-04-04T19:28:17Z</time>
      </trkpt>
      <trkpt lat="47.18252" lon="-0.50171">
        <ele>97</ele>
        <time>2022-04-04T19:28:20Z</time>
      </trkpt>
      <trkpt lat="47.18246" lon="-0.50214">
        <ele>97</ele>
        <time>2022-04-04T19:28:25Z</time>
      </trkpt>
      <trkpt lat="47.18248" lon="-0.50275">
        <ele>98</ele>
        <time>2022-04-04T19:28:32Z</time>
      </trkpt>
      <trkpt lat="47.1825" lon="-0.50287">
        <ele>98</ele>
        <time>2022-04-04T19:28:34Z</time>
      </trkpt>
      <trkpt lat="47.18256" lon="-0.50303">
        <ele>98</ele>
        <time>2022-04-04T19:28:36Z</time>
      </trkpt>
      <trkpt lat="47.18273" lon="-0.50341">
        <ele>98</ele>
        <time>2022-04-04T19:28:41Z</time>
      </trkpt>
      <trkpt lat="47.18316" lon="-0.5045">
        <ele>97</ele>
        <time>2022-04-04T19:28:57Z</time>
      </trkpt>
      <trkpt lat="47.18361" lon="-0.50427">
        <ele>96</ele>
        <time>2022-04-04T19:29:05Z</time>
      </trkpt>
      <trkpt lat="47.18347" lon="-0.50385">
        <ele>97</ele>
        <time>2022-04-04T19:29:11Z</time>
      </trkpt>
      <trkpt lat="47.18344" lon="-0.50382">
        <ele>97</ele>
        <time>2022-04-04T19:29:11Z</time>
      </trkpt>
      <trkpt lat="47.18347" lon="-0.50385">
        <ele>97</ele>
        <time>2022-04-04T19:29:12Z</time>
      </trkpt>
      <trkpt lat="47.18361" lon="-0.50427">
        <ele>96</ele>
        <time>2022-04-04T19:29:18Z</time>
      </trkpt>
      <trkpt lat="47.18545" lon="-0.50323">
        <ele>93</ele>
        <time>2022-04-04T19:29:53Z</time>
      </trkpt>
      <trkpt lat="47.18569" lon="-0.50306">
        <ele>92</ele>
        <time>2022-04-04T19:29:58Z</time>
      </trkpt>
      <trkpt lat="47.18597" lon="-0.50279">
        <ele>92</ele>
        <time>2022-04-04T19:30:04Z</time>
      </trkpt>
      <trkpt lat="47.186" lon="-0.50285">
        <ele>92</ele>
        <time>2022-04-04T19:30:04Z</time>
      </trkpt>
      <trkpt lat="47.18603" lon="-0.50288">
        <ele>92</ele>
        <time>2022-04-04T19:30:05Z</time>
      </trkpt>
      <trkpt lat="47.18616" lon="-0.50287">
        <ele>92</ele>
        <time>2022-04-04T19:30:07Z</time>
      </trkpt>
      <trkpt lat="47.18735" lon="-0.50236">
        <ele>89</ele>
        <time>2022-04-04T19:30:29Z</time>
      </trkpt>
      <trkpt lat="47.18929" lon="-0.50139">
        <ele>89</ele>
        <time>2022-04-04T19:31:06Z</time>
      </trkpt>
      <trkpt lat="47.18997" lon="-0.50109">
        <ele>87</ele>
        <time>2022-04-04T19:31:19Z</time>
      </trkpt>
      <trkpt lat="47.19026" lon="-0.50091">
        <ele>87</ele>
        <time>2022-04-04T19:31:24Z</time>
      </trkpt>
      <trkpt lat="47.19177" lon="-0.49988">
        <ele>86</ele>
        <time>2022-04-04T19:31:54Z</time>
      </trkpt>
      <trkpt lat="47.1918" lon="-0.49979">
        <ele>86</ele>
        <time>2022-04-04T19:31:55Z</time>
      </trkpt>
      <trkpt lat="47.19188" lon="-0.4997">
        <ele>85</ele>
        <time>2022-04-04T19:31:57Z</time>
      </trkpt>
      <trkpt lat="47.19221" lon="-0.49938">
        <ele>84</ele>
        <time>2022-04-04T19:32:04Z</time>
      </trkpt>
      <trkpt lat="47.19322" lon="-0.49866">
        <ele>84</ele>
        <time>2022-04-04T19:32:24Z</time>
      </trkpt>
      <trkpt lat="47.19422" lon="-0.49789">
        <ele>83</ele>
        <time>2022-04-04T19:32:44Z</time>
      </trkpt>
      <trkpt lat="47.19443" lon="-0.49771">
        <ele>82</ele>
        <time>2022-04-04T19:32:48Z</time>
      </trkpt>
      <trkpt lat="47.19449" lon="-0.49762">
        <ele>82</ele>
        <time>2022-04-04T19:32:50Z</time>
      </trkpt>
      <trkpt lat="47.1946" lon="-0.49744">
        <ele>82</ele>
        <time>2022-04-04T19:32:53Z</time>
      </trkpt>
      <trkpt lat="47.19565" lon="-0.49471">
        <ele>79</ele>
        <time>2022-04-04T19:33:31Z</time>
      </trkpt>
      <trkpt lat="47.19646" lon="-0.49265">
        <ele>75</ele>
        <time>2022-04-04T19:33:59Z</time>
      </trkpt>
      <trkpt lat="47.19656" lon="-0.49245">
        <ele>75</ele>
        <time>2022-04-04T19:34:02Z</time>
      </trkpt>
      <trkpt lat="47.19686" lon="-0.49195">
        <ele>74</ele>
        <time>2022-04-04T19:34:10Z</time>
      </trkpt>
      <trkpt lat="47.19763" lon="-0.49086">
        <ele>72</ele>
        <time>2022-04-04T19:34:29Z</time>
      </trkpt>
      <trkpt lat="47.19868" lon="-0.48888">
        <ele>71</ele>
        <time>2022-04-04T19:35:00Z</time>
      </trkpt>
      <trkpt lat="47.19885" lon="-0.48859">
        <ele>71</ele>
        <time>2022-04-04T19:35:04Z</time>
      </trkpt>
      <trkpt lat="47.1997" lon="-0.48751">
        <ele>70</ele>
        <time>2022-04-04T19:35:24Z</time>
      </trkpt>
      <trkpt lat="47.19989" lon="-0.48718">
        <ele>70</ele>
        <time>2022-04-04T19:35:30Z</time>
      </trkpt>
      <trkpt lat="47.19998" lon="-0.48699">
        <ele>71</ele>
        <time>2022-04-04T19:35:32Z</time>
      </trkpt>
      <trkpt lat="47.20006" lon="-0.48674">
        <ele>72</ele>
        <time>2022-04-04T19:35:36Z</time>
      </trkpt>
      <trkpt lat="47.20015" lon="-0.48641">
        <ele>72</ele>
        <time>2022-04-04T19:35:40Z</time>
      </trkpt>
      <trkpt lat="47.20051" lon="-0.4849">
        <ele>72</ele>
        <time>2022-04-04T19:35:59Z</time>
      </trkpt>
      <trkpt lat="47.20074" lon="-0.48375">
        <ele>72</ele>
        <time>2022-04-04T19:36:14Z</time>
      </trkpt>
      <trkpt lat="47.20085" lon="-0.48337">
        <ele>71</ele>
        <time>2022-04-04T19:36:19Z</time>
      </trkpt>
      <trkpt lat="47.20112" lon="-0.48264">
        <ele>71</ele>
        <time>2022-04-04T19:36:29Z</time>
      </trkpt>
      <trkpt lat="47.20219" lon="-0.48104">
        <ele>73</ele>
        <time>2022-04-04T19:36:56Z</time>
      </trkpt>
      <trkpt lat="47.20245" lon="-0.48061">
        <ele>73</ele>
        <time>2022-04-04T19:37:03Z</time>
      </trkpt>
      <trkpt lat="47.20283" lon="-0.47991">
        <ele>73</ele>
        <time>2022-04-04T19:37:14Z</time>
      </trkpt>
      <trkpt lat="47.20327" lon="-0.47925">
        <ele>72</ele>
        <time>2022-04-04T19:37:25Z</time>
      </trkpt>
      <trkpt lat="47.20359" lon="-0.47864">
        <ele>72</ele>
        <time>2022-04-04T19:37:34Z</time>
      </trkpt>
      <trkpt lat="47.20363" lon="-0.47851">
        <ele>72</ele>
        <time>2022-04-04T19:37:36Z</time>
      </trkpt>
      <trkpt lat="47.20364" lon="-0.47841">
        <ele>72</ele>
        <time>2022-04-04T19:37:37Z</time>
      </trkpt>
      <trkpt lat="47.20374" lon="-0.4784">
        <ele>72</ele>
        <time>2022-04-04T19:37:39Z</time>
      </trkpt>
      <trkpt lat="47.20381" lon="-0.47825">
        <ele>71</ele>
        <time>2022-04-04T19:37:41Z</time>
      </trkpt>
      <trkpt lat="47.20488" lon="-0.47681">
        <ele>70</ele>
        <time>2022-04-04T19:38:07Z</time>
      </trkpt>
      <trkpt lat="47.20556" lon="-0.4758">
        <ele>70</ele>
        <time>2022-04-04T19:38:24Z</time>
      </trkpt>
      <trkpt lat="47.20595" lon="-0.47516">
        <ele>71</ele>
        <time>2022-04-04T19:38:35Z</time>
      </trkpt>
      <trkpt lat="47.20632" lon="-0.4745">
        <ele>69</ele>
        <time>2022-04-04T19:38:45Z</time>
      </trkpt>
      <trkpt lat="47.20695" lon="-0.47317">
        <ele>67</ele>
        <time>2022-04-04T19:39:05Z</time>
      </trkpt>
      <trkpt lat="47.20722" lon="-0.47255">
        <ele>67</ele>
        <time>2022-04-04T19:39:13Z</time>
      </trkpt>
      <trkpt lat="47.20729" lon="-0.47241">
        <ele>67</ele>
        <time>2022-04-04T19:39:16Z</time>
      </trkpt>
      <trkpt lat="47.20744" lon="-0.47223">
        <ele>67</ele>
        <time>2022-04-04T19:39:19Z</time>
      </trkpt>
      <trkpt lat="47.20749" lon="-0.47222">
        <ele>67</ele>
        <time>2022-04-04T19:39:20Z</time>
      </trkpt>
      <trkpt lat="47.20791" lon="-0.47028">
        <ele>69</ele>
        <time>2022-04-04T19:39:45Z</time>
      </trkpt>
      <trkpt lat="47.20793" lon="-0.46991">
        <ele>69</ele>
        <time>2022-04-04T19:39:49Z</time>
      </trkpt>
      <trkpt lat="47.20786" lon="-0.46949">
        <ele>70</ele>
        <time>2022-04-04T19:39:54Z</time>
      </trkpt>
      <trkpt lat="47.2075" lon="-0.46841">
        <ele>71</ele>
        <time>2022-04-04T19:40:09Z</time>
      </trkpt>
      <trkpt lat="47.20736" lon="-0.4682">
        <ele>71</ele>
        <time>2022-04-04T19:40:12Z</time>
      </trkpt>
      <trkpt lat="47.20735" lon="-0.46814">
        <ele>71</ele>
        <time>2022-04-04T19:40:13Z</time>
      </trkpt>
      <trkpt lat="47.20736" lon="-0.46805">
        <ele>71</ele>
        <time>2022-04-04T19:40:14Z</time>
      </trkpt>
      <trkpt lat="47.20783" lon="-0.46729">
        <ele>70</ele>
        <time>2022-04-04T19:40:27Z</time>
      </trkpt>
      <trkpt lat="47.20829" lon="-0.46657">
        <ele>70</ele>
        <time>2022-04-04T19:40:39Z</time>
      </trkpt>
      <trkpt lat="47.21066" lon="-0.46262">
        <ele>62</ele>
        <time>2022-04-04T19:41:42Z</time>
      </trkpt>
      <trkpt lat="47.21075" lon="-0.46261">
        <ele>62</ele>
        <time>2022-04-04T19:41:44Z</time>
      </trkpt>
      <trkpt lat="47.21168" lon="-0.46197">
        <ele>60</ele>
        <time>2022-04-04T19:42:02Z</time>
      </trkpt>
      <trkpt lat="47.21204" lon="-0.46195">
        <ele>60</ele>
        <time>2022-04-04T19:42:09Z</time>
      </trkpt>
      <trkpt lat="47.21214" lon="-0.46204">
        <ele>60</ele>
        <time>2022-04-04T19:42:11Z</time>
      </trkpt>
      <trkpt lat="47.21235" lon="-0.46209">
        <ele>60</ele>
        <time>2022-04-04T19:42:14Z</time>
      </trkpt>
      <trkpt lat="47.2126" lon="-0.46209">
        <ele>60</ele>
        <time>2022-04-04T19:42:19Z</time>
      </trkpt>
      <trkpt lat="47.21266" lon="-0.46236">
        <ele>60</ele>
        <time>2022-04-04T19:42:22Z</time>
      </trkpt>
      <trkpt lat="47.21275" lon="-0.4626">
        <ele>60</ele>
        <time>2022-04-04T19:42:26Z</time>
      </trkpt>
      <trkpt lat="47.21326" lon="-0.46317">
        <ele>59</ele>
        <time>2022-04-04T19:42:37Z</time>
      </trkpt>
      <trkpt lat="47.21344" lon="-0.46347">
        <ele>59</ele>
        <time>2022-04-04T19:42:42Z</time>
      </trkpt>
      <trkpt lat="47.21349" lon="-0.46362">
        <ele>59</ele>
        <time>2022-04-04T19:42:44Z</time>
      </trkpt>
      <trkpt lat="47.21349" lon="-0.46421">
        <ele>60</ele>
        <time>2022-04-04T19:42:51Z</time>
      </trkpt>
      <trkpt lat="47.21351" lon="-0.46435">
        <ele>60</ele>
        <time>2022-04-04T19:42:53Z</time>
      </trkpt>
      <trkpt lat="47.21356" lon="-0.4645">
        <ele>60</ele>
        <time>2022-04-04T19:42:55Z</time>
      </trkpt>
      <trkpt lat="47.21384" lon="-0.46495">
        <ele>61</ele>
        <time>2022-04-04T19:43:02Z</time>
      </trkpt>
      <trkpt lat="47.21408" lon="-0.46516">
        <ele>60</ele>
        <time>2022-04-04T19:43:07Z</time>
      </trkpt>
      <trkpt lat="47.21469" lon="-0.46542">
        <ele>60</ele>
        <time>2022-04-04T19:43:18Z</time>
      </trkpt>
      <trkpt lat="47.21623" lon="-0.46595">
        <ele>59</ele>
        <time>2022-04-04T19:43:47Z</time>
      </trkpt>
      <trkpt lat="47.21656" lon="-0.46612">
        <ele>58</ele>
        <time>2022-04-04T19:43:53Z</time>
      </trkpt>
      <trkpt lat="47.21695" lon="-0.46638">
        <ele>59</ele>
        <time>2022-04-04T19:44:00Z</time>
      </trkpt>
      <trkpt lat="47.21723" lon="-0.46662">
        <ele>60</ele>
        <time>2022-04-04T19:44:06Z</time>
      </trkpt>
      <trkpt lat="47.2173" lon="-0.46673">
        <ele>60</ele>
        <time>2022-04-04T19:44:08Z</time>
      </trkpt>
      <trkpt lat="47.21784" lon="-0.46807">
        <ele>60</ele>
        <time>2022-04-04T19:44:27Z</time>
      </trkpt>
      <trkpt lat="47.21823" lon="-0.46877">
        <ele>61</ele>
        <time>2022-04-04T19:44:38Z</time>
      </trkpt>
      <trkpt lat="47.21846" lon="-0.46923">
        <ele>60</ele>
        <time>2022-04-04T19:44:45Z</time>
      </trkpt>
      <trkpt lat="47.21853" lon="-0.46948">
        <ele>60</ele>
        <time>2022-04-04T19:44:48Z</time>
      </trkpt>
      <trkpt lat="47.21867" lon="-0.47016">
        <ele>58</ele>
        <time>2022-04-04T19:44:56Z</time>
      </trkpt>
      <trkpt lat="47.21874" lon="-0.47031">
        <ele>58</ele>
        <time>2022-04-04T19:44:59Z</time>
      </trkpt>
      <trkpt lat="47.21887" lon="-0.47048">
        <ele>58</ele>
        <time>2022-04-04T19:45:02Z</time>
      </trkpt>
      <trkpt lat="47.21898" lon="-0.47057">
        <ele>57</ele>
        <time>2022-04-04T19:45:04Z</time>
      </trkpt>
      <trkpt lat="47.21911" lon="-0.47063">
        <ele>57</ele>
        <time>2022-04-04T19:45:06Z</time>
      </trkpt>
      <trkpt lat="47.21961" lon="-0.47074">
        <ele>56</ele>
        <time>2022-04-04T19:45:15Z</time>
      </trkpt>
      <trkpt lat="47.21996" lon="-0.47076">
        <ele>54</ele>
        <time>2022-04-04T19:45:22Z</time>
      </trkpt>
      <trkpt lat="47.22075" lon="-0.47077">
        <ele>53</ele>
        <time>2022-04-04T19:45:36Z</time>
      </trkpt>
      <trkpt lat="47.22107" lon="-0.47075">
        <ele>53</ele>
        <time>2022-04-04T19:45:41Z</time>
      </trkpt>
      <trkpt lat="47.22133" lon="-0.47076">
        <ele>52</ele>
        <time>2022-04-04T19:45:46Z</time>
      </trkpt>
      <trkpt lat="47.2215" lon="-0.47085">
        <ele>51</ele>
        <time>2022-04-04T19:45:49Z</time>
      </trkpt>
      <trkpt lat="47.22166" lon="-0.47098">
        <ele>51</ele>
        <time>2022-04-04T19:45:53Z</time>
      </trkpt>
      <trkpt lat="47.2219" lon="-0.47125">
        <ele>50</ele>
        <time>2022-04-04T19:45:58Z</time>
      </trkpt>
      <trkpt lat="47.22203" lon="-0.47152">
        <ele>49</ele>
        <time>2022-04-04T19:46:02Z</time>
      </trkpt>
      <trkpt lat="47.22209" lon="-0.47182">
        <ele>47</ele>
        <time>2022-04-04T19:46:06Z</time>
      </trkpt>
      <trkpt lat="47.22207" lon="-0.47207">
        <ele>46</ele>
        <time>2022-04-04T19:46:09Z</time>
      </trkpt>
      <trkpt lat="47.22199" lon="-0.47231">
        <ele>46</ele>
        <time>2022-04-04T19:46:12Z</time>
      </trkpt>
      <trkpt lat="47.22127" lon="-0.47391">
        <ele>45</ele>
        <time>2022-04-04T19:46:35Z</time>
      </trkpt>
      <trkpt lat="47.22094" lon="-0.47486">
        <ele>47</ele>
        <time>2022-04-04T19:46:48Z</time>
      </trkpt>
      <trkpt lat="47.22087" lon="-0.4752">
        <ele>46</ele>
        <time>2022-04-04T19:46:52Z</time>
      </trkpt>
      <trkpt lat="47.22076" lon="-0.47594">
        <ele>44</ele>
        <time>2022-04-04T19:47:01Z</time>
      </trkpt>
      <trkpt lat="47.22076" lon="-0.47605">
        <ele>44</ele>
        <time>2022-04-04T19:47:03Z</time>
      </trkpt>
      <trkpt lat="47.2208" lon="-0.47627">
        <ele>44</ele>
        <time>2022-04-04T19:47:06Z</time>
      </trkpt>
      <trkpt lat="47.22087" lon="-0.47649">
        <ele>44</ele>
        <time>2022-04-04T19:47:08Z</time>
      </trkpt>
      <trkpt lat="47.22192" lon="-0.47871">
        <ele>44</ele>
        <time>2022-04-04T19:47:41Z</time>
      </trkpt>
      <trkpt lat="47.22214" lon="-0.47906">
        <ele>43</ele>
        <time>2022-04-04T19:47:47Z</time>
      </trkpt>
      <trkpt lat="47.22259" lon="-0.47952">
        <ele>41</ele>
        <time>2022-04-04T19:47:57Z</time>
      </trkpt>
      <trkpt lat="47.22308" lon="-0.47996">
        <ele>40</ele>
        <time>2022-04-04T19:48:07Z</time>
      </trkpt>
      <trkpt lat="47.2232" lon="-0.48011">
        <ele>40</ele>
        <time>2022-04-04T19:48:10Z</time>
      </trkpt>
      <trkpt lat="47.22329" lon="-0.4803">
        <ele>40</ele>
        <time>2022-04-04T19:48:13Z</time>
      </trkpt>
      <trkpt lat="47.22337" lon="-0.48052">
        <ele>40</ele>
        <time>2022-04-04T19:48:16Z</time>
      </trkpt>
      <trkpt lat="47.22359" lon="-0.48125">
        <ele>38</ele>
        <time>2022-04-04T19:48:25Z</time>
      </trkpt>
      <trkpt lat="47.22373" lon="-0.4815">
        <ele>38</ele>
        <time>2022-04-04T19:48:29Z</time>
      </trkpt>
      <trkpt lat="47.22424" lon="-0.48224">
        <ele>40</ele>
        <time>2022-04-04T19:48:42Z</time>
      </trkpt>
      <trkpt lat="47.22507" lon="-0.4831">
        <ele>43</ele>
        <time>2022-04-04T19:49:00Z</time>
      </trkpt>
      <trkpt lat="47.22521" lon="-0.48332">
        <ele>44</ele>
        <time>2022-04-04T19:49:04Z</time>
      </trkpt>
      <trkpt lat="47.2253" lon="-0.48358">
        <ele>45</ele>
        <time>2022-04-04T19:49:07Z</time>
      </trkpt>
      <trkpt lat="47.22535" lon="-0.48377">
        <ele>45</ele>
        <time>2022-04-04T19:49:10Z</time>
      </trkpt>
      <trkpt lat="47.2258" lon="-0.48652">
        <ele>52</ele>
        <time>2022-04-04T19:49:44Z</time>
      </trkpt>
      <trkpt lat="47.22585" lon="-0.4867">
        <ele>52</ele>
        <time>2022-04-04T19:49:46Z</time>
      </trkpt>
      <trkpt lat="47.22592" lon="-0.48687">
        <ele>52</ele>
        <time>2022-04-04T19:49:48Z</time>
      </trkpt>
      <trkpt lat="47.22603" lon="-0.48707">
        <ele>52</ele>
        <time>2022-04-04T19:49:52Z</time>
      </trkpt>
      <trkpt lat="47.22618" lon="-0.48724">
        <ele>51</ele>
        <time>2022-04-04T19:49:55Z</time>
      </trkpt>
      <trkpt lat="47.22651" lon="-0.48756">
        <ele>49</ele>
        <time>2022-04-04T19:50:02Z</time>
      </trkpt>
      <trkpt lat="47.22662" lon="-0.48775">
        <ele>49</ele>
        <time>2022-04-04T19:50:05Z</time>
      </trkpt>
      <trkpt lat="47.2267" lon="-0.48793">
        <ele>48</ele>
        <time>2022-04-04T19:50:08Z</time>
      </trkpt>
      <trkpt lat="47.22676" lon="-0.48812">
        <ele>48</ele>
        <time>2022-04-04T19:50:10Z</time>
      </trkpt>
      <trkpt lat="47.22681" lon="-0.48839">
        <ele>48</ele>
        <time>2022-04-04T19:50:13Z</time>
      </trkpt>
      <trkpt lat="47.22714" lon="-0.49043">
        <ele>46</ele>
        <time>2022-04-04T19:50:39Z</time>
      </trkpt>
      <trkpt lat="47.22721" lon="-0.49069">
        <ele>46</ele>
        <time>2022-04-04T19:50:42Z</time>
      </trkpt>
      <trkpt lat="47.22867" lon="-0.49442">
        <ele>39</ele>
        <time>2022-04-04T19:51:34Z</time>
      </trkpt>
      <trkpt lat="47.22878" lon="-0.49466">
        <ele>38</ele>
        <time>2022-04-04T19:51:38Z</time>
      </trkpt>
      <trkpt lat="47.23041" lon="-0.49764">
        <ele>41</ele>
        <time>2022-04-04T19:52:24Z</time>
      </trkpt>
      <trkpt lat="47.23053" lon="-0.49783">
        <ele>41</ele>
        <time>2022-04-04T19:52:27Z</time>
      </trkpt>
      <trkpt lat="47.23122" lon="-0.49846">
        <ele>38</ele>
        <time>2022-04-04T19:52:42Z</time>
      </trkpt>
      <trkpt lat="47.23139" lon="-0.49869">
        <ele>38</ele>
        <time>2022-04-04T19:52:46Z</time>
      </trkpt>
      <trkpt lat="47.23167" lon="-0.49913">
        <ele>38</ele>
        <time>2022-04-04T19:52:53Z</time>
      </trkpt>
      <trkpt lat="47.23182" lon="-0.49931">
        <ele>39</ele>
        <time>2022-04-04T19:52:56Z</time>
      </trkpt>
      <trkpt lat="47.23197" lon="-0.49941">
        <ele>40</ele>
        <time>2022-04-04T19:52:59Z</time>
      </trkpt>
      <trkpt lat="47.23417" lon="-0.5004">
        <ele>43</ele>
        <time>2022-04-04T19:53:40Z</time>
      </trkpt>
      <trkpt lat="47.23462" lon="-0.50057">
        <ele>45</ele>
        <time>2022-04-04T19:53:49Z</time>
      </trkpt>
      <trkpt lat="47.23582" lon="-0.50088">
        <ele>51</ele>
        <time>2022-04-04T19:54:10Z</time>
      </trkpt>
      <trkpt lat="47.2359" lon="-0.50092">
        <ele>52</ele>
        <time>2022-04-04T19:54:12Z</time>
      </trkpt>
      <trkpt lat="47.23593" lon="-0.50098">
        <ele>52</ele>
        <time>2022-04-04T19:54:13Z</time>
      </trkpt>
      <trkpt lat="47.2365" lon="-0.50068">
        <ele>53</ele>
        <time>2022-04-04T19:54:23Z</time>
      </trkpt>
      <trkpt lat="47.23654" lon="-0.50055">
        <ele>53</ele>
        <time>2022-04-04T19:54:25Z</time>
      </trkpt>
      <trkpt lat="47.23658" lon="-0.50048">
        <ele>53</ele>
        <time>2022-04-04T19:54:26Z</time>
      </trkpt>
      <trkpt lat="47.23689" lon="-0.50008">
        <ele>53</ele>
        <time>2022-04-04T19:54:34Z</time>
      </trkpt>
      <trkpt lat="47.23714" lon="-0.49971">
        <ele>53</ele>
        <time>2022-04-04T19:54:40Z</time>
      </trkpt>
      <trkpt lat="47.23763" lon="-0.49909">
        <ele>54</ele>
        <time>2022-04-04T19:54:51Z</time>
      </trkpt>
      <trkpt lat="47.23771" lon="-0.49892">
        <ele>54</ele>
        <time>2022-04-04T19:54:54Z</time>
      </trkpt>
      <trkpt lat="47.23778" lon="-0.4987">
        <ele>54</ele>
        <time>2022-04-04T19:54:57Z</time>
      </trkpt>
      <trkpt lat="47.23781" lon="-0.49852">
        <ele>53</ele>
        <time>2022-04-04T19:54:59Z</time>
      </trkpt>
      <trkpt lat="47.23782" lon="-0.49801">
        <ele>52</ele>
        <time>2022-04-04T19:55:05Z</time>
      </trkpt>
      <trkpt lat="47.23787" lon="-0.49774">
        <ele>52</ele>
        <time>2022-04-04T19:55:09Z</time>
      </trkpt>
      <trkpt lat="47.23798" lon="-0.49736">
        <ele>51</ele>
        <time>2022-04-04T19:55:14Z</time>
      </trkpt>
      <trkpt lat="47.23805" lon="-0.49719">
        <ele>50</ele>
        <time>2022-04-04T19:55:16Z</time>
      </trkpt>
      <trkpt lat="47.23842" lon="-0.49675">
        <ele>51</ele>
        <time>2022-04-04T19:55:24Z</time>
      </trkpt>
      <trkpt lat="47.23888" lon="-0.49961">
        <ele>57</ele>
        <time>2022-04-04T19:56:00Z</time>
      </trkpt>
      <trkpt lat="47.24012" lon="-0.49865">
        <ele>58</ele>
        <time>2022-04-04T19:56:25Z</time>
      </trkpt>
      <trkpt lat="47.24035" lon="-0.49854">
        <ele>58</ele>
        <time>2022-04-04T19:56:29Z</time>
      </trkpt>
      <trkpt lat="47.2419" lon="-0.49824">
        <ele>60</ele>
        <time>2022-04-04T19:56:57Z</time>
      </trkpt>
      <trkpt lat="47.24209" lon="-0.49822">
        <ele>60</ele>
        <time>2022-04-04T19:57:00Z</time>
      </trkpt>
      <trkpt lat="47.24223" lon="-0.49824">
        <ele>60</ele>
        <time>2022-04-04T19:57:03Z</time>
      </trkpt>
      <trkpt lat="47.24333" lon="-0.49867">
        <ele>59</ele>
        <time>2022-04-04T19:57:23Z</time>
      </trkpt>
      <trkpt lat="47.24429" lon="-0.49907">
        <ele>58</ele>
        <time>2022-04-04T19:57:41Z</time>
      </trkpt>
      <trkpt lat="47.24545" lon="-0.49977">
        <ele>54</ele>
        <time>2022-04-04T19:58:03Z</time>
      </trkpt>
      <trkpt lat="47.24731" lon="-0.50072">
        <ele>43</ele>
        <time>2022-04-04T19:58:38Z</time>
      </trkpt>
      <trkpt lat="47.24805" lon="-0.50108">
        <ele>38</ele>
        <time>2022-04-04T19:58:52Z</time>
      </trkpt>
      <trkpt lat="47.24816" lon="-0.50113">
        <ele>38</ele>
        <time>2022-04-04T19:58:54Z</time>
      </trkpt>
      <trkpt lat="47.24851" lon="-0.50129">
        <ele>38</ele>
        <time>2022-04-04T19:59:01Z</time>
      </trkpt>
      <trkpt lat="47.24863" lon="-0.50132">
        <ele>38</ele>
        <time>2022-04-04T19:59:03Z</time>
      </trkpt>
      <trkpt lat="47.24888" lon="-0.50131">
        <ele>38</ele>
        <time>2022-04-04T19:59:07Z</time>
      </trkpt>
      <trkpt lat="47.25127" lon="-0.50089">
        <ele>46</ele>
        <time>2022-04-04T19:59:50Z</time>
      </trkpt>
      <trkpt lat="47.25151" lon="-0.50088">
        <ele>48</ele>
        <time>2022-04-04T19:59:54Z</time>
      </trkpt>
      <trkpt lat="47.25178" lon="-0.5006">
        <ele>49</ele>
        <time>2022-04-04T20:00:00Z</time>
      </trkpt>
      <trkpt lat="47.25196" lon="-0.50046">
        <ele>49</ele>
        <time>2022-04-04T20:00:04Z</time>
      </trkpt>
      <trkpt lat="47.25211" lon="-0.50028">
        <ele>49</ele>
        <time>2022-04-04T20:00:07Z</time>
      </trkpt>
      <trkpt lat="47.25217" lon="-0.50024">
        <ele>49</ele>
        <time>2022-04-04T20:00:08Z</time>
      </trkpt>
      <trkpt lat="47.25227" lon="-0.50022">
        <ele>50</ele>
        <time>2022-04-04T20:00:10Z</time>
      </trkpt>
      <trkpt lat="47.25237" lon="-0.50022">
        <ele>50</ele>
        <time>2022-04-04T20:00:12Z</time>
      </trkpt>
      <trkpt lat="47.25245" lon="-0.50025">
        <ele>50</ele>
        <time>2022-04-04T20:00:13Z</time>
      </trkpt>
      <trkpt lat="47.25243" lon="-0.50044">
        <ele>50</ele>
        <time>2022-04-04T20:00:16Z</time>
      </trkpt>
      <trkpt lat="47.25241" lon="-0.50105">
        <ele>51</ele>
        <time>2022-04-04T20:00:23Z</time>
      </trkpt>
      <trkpt lat="47.25231" lon="-0.50107">
        <ele>50</ele>
        <time>2022-04-04T20:00:25Z</time>
      </trkpt>
      <trkpt lat="47.25226" lon="-0.50111">
        <ele>50</ele>
        <time>2022-04-04T20:00:26Z</time>
      </trkpt>
      <trkpt lat="47.25203" lon="-0.50138">
        <ele>50</ele>
        <time>2022-04-04T20:00:31Z</time>
      </trkpt>
      <trkpt lat="47.2524" lon="-0.50185">
        <ele>50</ele>
        <time>2022-04-04T20:00:40Z</time>
      </trkpt>
      <trkpt lat="47.25248" lon="-0.50199">
        <ele>50</ele>
        <time>2022-04-04T20:00:42Z</time>
      </trkpt>
      <trkpt lat="47.25313" lon="-0.50346">
        <ele>48</ele>
        <time>2022-04-04T20:01:03Z</time>
      </trkpt>
      <trkpt lat="47.25338" lon="-0.504">
        <ele>49</ele>
        <time>2022-04-04T20:01:11Z</time>
      </trkpt>
      <trkpt lat="47.25345" lon="-0.50409">
        <ele>49</ele>
        <time>2022-04-04T20:01:13Z</time>
      </trkpt>
      <trkpt lat="47.25363" lon="-0.50426">
        <ele>49</ele>
        <time>2022-04-04T20:01:17Z</time>
      </trkpt>
      <trkpt lat="47.2538" lon="-0.50433">
        <ele>50</ele>
        <time>2022-04-04T20:01:20Z</time>
      </trkpt>
      <trkpt lat="47.25534" lon="-0.50448">
        <ele>51</ele>
        <time>2022-04-04T20:01:47Z</time>
      </trkpt>
      <trkpt lat="47.25554" lon="-0.50453">
        <ele>51</ele>
        <time>2022-04-04T20:01:51Z</time>
      </trkpt>
      <trkpt lat="47.25645" lon="-0.50487">
        <ele>49</ele>
        <time>2022-04-04T20:02:08Z</time>
      </trkpt>
      <trkpt lat="47.25669" lon="-0.50499">
        <ele>48</ele>
        <time>2022-04-04T20:02:12Z</time>
      </trkpt>
      <trkpt lat="47.25685" lon="-0.50514">
        <ele>48</ele>
        <time>2022-04-04T20:02:15Z</time>
      </trkpt>
      <trkpt lat="47.25814" lon="-0.50647">
        <ele>43</ele>
        <time>2022-04-04T20:02:43Z</time>
      </trkpt>
      <trkpt lat="47.25863" lon="-0.50689">
        <ele>41</ele>
        <time>2022-04-04T20:02:54Z</time>
      </trkpt>
      <trkpt lat="47.25913" lon="-0.50714">
        <ele>40</ele>
        <time>2022-04-04T20:03:03Z</time>
      </trkpt>
      <trkpt lat="47.25927" lon="-0.5069">
        <ele>39</ele>
        <time>2022-04-04T20:03:07Z</time>
      </trkpt>
      <trkpt lat="47.25972" lon="-0.50625">
        <ele>40</ele>
        <time>2022-04-04T20:03:18Z</time>
      </trkpt>
      <trkpt lat="47.26009" lon="-0.50577">
        <ele>40</ele>
        <time>2022-04-04T20:03:27Z</time>
      </trkpt>
      <trkpt lat="47.26119" lon="-0.50453">
        <ele>37</ele>
        <time>2022-04-04T20:03:51Z</time>
      </trkpt>
      <trkpt lat="47.26265" lon="-0.50294">
        <ele>31</ele>
        <time>2022-04-04T20:04:24Z</time>
      </trkpt>
      <trkpt lat="47.2629" lon="-0.50271">
        <ele>30</ele>
        <time>2022-04-04T20:04:29Z</time>
      </trkpt>
      <trkpt lat="47.26315" lon="-0.50251">
        <ele>30</ele>
        <time>2022-04-04T20:04:34Z</time>
      </trkpt>
      <trkpt lat="47.26407" lon="-0.50186">
        <ele>27</ele>
        <time>2022-04-04T20:04:52Z</time>
      </trkpt>
      <trkpt lat="47.2643" lon="-0.5017">
        <ele>27</ele>
        <time>2022-04-04T20:04:57Z</time>
      </trkpt>
      <trkpt lat="47.26455" lon="-0.50153">
        <ele>29</ele>
        <time>2022-04-04T20:05:02Z</time>
      </trkpt>
      <trkpt lat="47.26464" lon="-0.50147">
        <ele>29</ele>
        <time>2022-04-04T20:05:03Z</time>
      </trkpt>
      <trkpt lat="47.26478" lon="-0.5014">
        <ele>30</ele>
        <time>2022-04-04T20:05:06Z</time>
      </trkpt>
      <trkpt lat="47.26489" lon="-0.50129">
        <ele>31</ele>
        <time>2022-04-04T20:05:08Z</time>
      </trkpt>
      <trkpt lat="47.26613" lon="-0.50043">
        <ele>34</ele>
        <time>2022-04-04T20:05:33Z</time>
      </trkpt>
      <trkpt lat="47.26636" lon="-0.50099">
        <ele>34</ele>
        <time>2022-04-04T20:05:41Z</time>
      </trkpt>
      <trkpt lat="47.26649" lon="-0.50122">
        <ele>34</ele>
        <time>2022-04-04T20:05:44Z</time>
      </trkpt>
      <trkpt lat="47.26682" lon="-0.50174">
        <ele>34</ele>
        <time>2022-04-04T20:05:53Z</time>
      </trkpt>
      <trkpt lat="47.2669" lon="-0.50171">
        <ele>34</ele>
        <time>2022-04-04T20:05:54Z</time>
      </trkpt>
      <trkpt lat="47.26745" lon="-0.50139">
        <ele>35</ele>
        <time>2022-04-04T20:06:05Z</time>
      </trkpt>
      <trkpt lat="47.26783" lon="-0.50119">
        <ele>36</ele>
        <time>2022-04-04T20:06:12Z</time>
      </trkpt>
      <trkpt lat="47.26792" lon="-0.50139">
        <ele>35</ele>
        <time>2022-04-04T20:06:15Z</time>
      </trkpt>
      <trkpt lat="47.26846" lon="-0.50225">
        <ele>33</ele>
        <time>2022-04-04T20:06:29Z</time>
      </trkpt>
      <trkpt lat="47.26893" lon="-0.50293">
        <ele>32</ele>
        <time>2022-04-04T20:06:41Z</time>
      </trkpt>
      <trkpt lat="47.26934" lon="-0.50346">
        <ele>32</ele>
        <time>2022-04-04T20:06:50Z</time>
      </trkpt>
      <trkpt lat="47.26982" lon="-0.50405">
        <ele>31</ele>
        <time>2022-04-04T20:07:02Z</time>
      </trkpt>
      <trkpt lat="47.27012" lon="-0.50436">
        <ele>31</ele>
        <time>2022-04-04T20:07:08Z</time>
      </trkpt>
      <trkpt lat="47.27161" lon="-0.50608">
        <ele>31</ele>
        <time>2022-04-04T20:07:42Z</time>
      </trkpt>
      <trkpt lat="47.27218" lon="-0.50667">
        <ele>32</ele>
        <time>2022-04-04T20:07:54Z</time>
      </trkpt>
      <trkpt lat="47.27242" lon="-0.50695">
        <ele>33</ele>
        <time>2022-04-04T20:08:00Z</time>
      </trkpt>
      <trkpt lat="47.27281" lon="-0.50749">
        <ele>34</ele>
        <time>2022-04-04T20:08:09Z</time>
      </trkpt>
      <trkpt lat="47.27308" lon="-0.50793">
        <ele>34</ele>
        <time>2022-04-04T20:08:16Z</time>
      </trkpt>
      <trkpt lat="47.27327" lon="-0.50819">
        <ele>33</ele>
        <time>2022-04-04T20:08:21Z</time>
      </trkpt>
      <trkpt lat="47.27367" lon="-0.50864">
        <ele>35</ele>
        <time>2022-04-04T20:08:30Z</time>
      </trkpt>
      <trkpt lat="47.27407" lon="-0.50917">
        <ele>35</ele>
        <time>2022-04-04T20:08:39Z</time>
      </trkpt>
      <trkpt lat="47.27429" lon="-0.50949">
        <ele>36</ele>
        <time>2022-04-04T20:08:45Z</time>
      </trkpt>
      <trkpt lat="47.27452" lon="-0.50987">
        <ele>37</ele>
        <time>2022-04-04T20:08:51Z</time>
      </trkpt>
      <trkpt lat="47.27476" lon="-0.51032">
        <ele>37</ele>
        <time>2022-04-04T20:08:58Z</time>
      </trkpt>
      <trkpt lat="47.27543" lon="-0.51175">
        <ele>34</ele>
        <time>2022-04-04T20:09:19Z</time>
      </trkpt>
      <trkpt lat="47.27683" lon="-0.51462">
        <ele>36</ele>
        <time>2022-04-04T20:10:02Z</time>
      </trkpt>
      <trkpt lat="47.27713" lon="-0.51532">
        <ele>38</ele>
        <time>2022-04-04T20:10:12Z</time>
      </trkpt>
      <trkpt lat="47.27752" lon="-0.51632">
        <ele>39</ele>
        <time>2022-04-04T20:10:26Z</time>
      </trkpt>
      <trkpt lat="47.27763" lon="-0.51666">
        <ele>40</ele>
        <time>2022-04-04T20:10:30Z</time>
      </trkpt>
      <trkpt lat="47.27801" lon="-0.51789">
        <ele>40</ele>
        <time>2022-04-04T20:10:46Z</time>
      </trkpt>
      <trkpt lat="47.27873" lon="-0.52043">
        <ele>36</ele>
        <time>2022-04-04T20:11:20Z</time>
      </trkpt>
      <trkpt lat="47.27887" lon="-0.52083">
        <ele>35</ele>
        <time>2022-04-04T20:11:25Z</time>
      </trkpt>
      <trkpt lat="47.27945" lon="-0.52243">
        <ele>34</ele>
        <time>2022-04-04T20:11:47Z</time>
      </trkpt>
      <trkpt lat="47.27958" lon="-0.52276">
        <ele>34</ele>
        <time>2022-04-04T20:11:52Z</time>
      </trkpt>
      <trkpt lat="47.27974" lon="-0.52306">
        <ele>34</ele>
        <time>2022-04-04T20:11:56Z</time>
      </trkpt>
      <trkpt lat="47.27991" lon="-0.52332">
        <ele>34</ele>
        <time>2022-04-04T20:12:01Z</time>
      </trkpt>
      <trkpt lat="47.28013" lon="-0.52354">
        <ele>33</ele>
        <time>2022-04-04T20:12:05Z</time>
      </trkpt>
      <trkpt lat="47.28024" lon="-0.52363">
        <ele>33</ele>
        <time>2022-04-04T20:12:08Z</time>
      </trkpt>
      <trkpt lat="47.28047" lon="-0.52375">
        <ele>33</ele>
        <time>2022-04-04T20:12:12Z</time>
      </trkpt>
      <trkpt lat="47.28067" lon="-0.52379">
        <ele>34</ele>
        <time>2022-04-04T20:12:15Z</time>
      </trkpt>
      <trkpt lat="47.28093" lon="-0.52378">
        <ele>36</ele>
        <time>2022-04-04T20:12:20Z</time>
      </trkpt>
      <trkpt lat="47.28118" lon="-0.52371">
        <ele>38</ele>
        <time>2022-04-04T20:12:25Z</time>
      </trkpt>
      <trkpt lat="47.28139" lon="-0.52359">
        <ele>39</ele>
        <time>2022-04-04T20:12:29Z</time>
      </trkpt>
      <trkpt lat="47.28163" lon="-0.52339">
        <ele>41</ele>
        <time>2022-04-04T20:12:34Z</time>
      </trkpt>
      <trkpt lat="47.28192" lon="-0.52311">
        <ele>44</ele>
        <time>2022-04-04T20:12:40Z</time>
      </trkpt>
      <trkpt lat="47.28205" lon="-0.52294">
        <ele>44</ele>
        <time>2022-04-04T20:12:43Z</time>
      </trkpt>
      <trkpt lat="47.28214" lon="-0.52281">
        <ele>45</ele>
        <time>2022-04-04T20:12:45Z</time>
      </trkpt>
      <trkpt lat="47.28254" lon="-0.52211">
        <ele>43</ele>
        <time>2022-04-04T20:12:56Z</time>
      </trkpt>
      <trkpt lat="47.28279" lon="-0.52178">
        <ele>44</ele>
        <time>2022-04-04T20:13:02Z</time>
      </trkpt>
      <trkpt lat="47.28303" lon="-0.52153">
        <ele>45</ele>
        <time>2022-04-04T20:13:07Z</time>
      </trkpt>
      <trkpt lat="47.28332" lon="-0.52135">
        <ele>45</ele>
        <time>2022-04-04T20:13:13Z</time>
      </trkpt>
      <trkpt lat="47.28371" lon="-0.52117">
        <ele>48</ele>
        <time>2022-04-04T20:13:20Z</time>
      </trkpt>
      <trkpt lat="47.28463" lon="-0.52086">
        <ele>52</ele>
        <time>2022-04-04T20:13:37Z</time>
      </trkpt>
      <trkpt lat="47.28495" lon="-0.52078">
        <ele>54</ele>
        <time>2022-04-04T20:13:43Z</time>
      </trkpt>
      <trkpt lat="47.2853" lon="-0.52074">
        <ele>56</ele>
        <time>2022-04-04T20:13:49Z</time>
      </trkpt>
      <trkpt lat="47.28564" lon="-0.52078">
        <ele>58</ele>
        <time>2022-04-04T20:13:55Z</time>
      </trkpt>
      <trkpt lat="47.28578" lon="-0.52081">
        <ele>59</ele>
        <time>2022-04-04T20:13:58Z</time>
      </trkpt>
      <trkpt lat="47.28638" lon="-0.521">
        <ele>63</ele>
        <time>2022-04-04T20:14:08Z</time>
      </trkpt>
      <trkpt lat="47.28858" lon="-0.52185">
        <ele>78</ele>
        <time>2022-04-04T20:14:49Z</time>
      </trkpt>
      <trkpt lat="47.28895" lon="-0.52192">
        <ele>80</ele>
        <time>2022-04-04T20:14:56Z</time>
      </trkpt>
      <trkpt lat="47.28914" lon="-0.52192">
        <ele>80</ele>
        <time>2022-04-04T20:14:59Z</time>
      </trkpt>
      <trkpt lat="47.2893" lon="-0.5219">
        <ele>81</ele>
        <time>2022-04-04T20:15:02Z</time>
      </trkpt>
      <trkpt lat="47.28958" lon="-0.52182">
        <ele>82</ele>
        <time>2022-04-04T20:15:07Z</time>
      </trkpt>
      <trkpt lat="47.2898" lon="-0.52173">
        <ele>82</ele>
        <time>2022-04-04T20:15:11Z</time>
      </trkpt>
      <trkpt lat="47.29042" lon="-0.5214">
        <ele>83</ele>
        <time>2022-04-04T20:15:23Z</time>
      </trkpt>
      <trkpt lat="47.29066" lon="-0.52136">
        <ele>84</ele>
        <time>2022-04-04T20:15:27Z</time>
      </trkpt>
      <trkpt lat="47.29141" lon="-0.52136">
        <ele>87</ele>
        <time>2022-04-04T20:15:40Z</time>
      </trkpt>
      <trkpt lat="47.2917" lon="-0.52124">
        <ele>87</ele>
        <time>2022-04-04T20:15:46Z</time>
      </trkpt>
      <trkpt lat="47.292" lon="-0.521">
        <ele>87</ele>
        <time>2022-04-04T20:15:52Z</time>
      </trkpt>
      <trkpt lat="47.29221" lon="-0.52078">
        <ele>86</ele>
        <time>2022-04-04T20:15:56Z</time>
      </trkpt>
      <trkpt lat="47.2925" lon="-0.52029">
        <ele>86</ele>
        <time>2022-04-04T20:16:04Z</time>
      </trkpt>
      <trkpt lat="47.29283" lon="-0.51969">
        <ele>86</ele>
        <time>2022-04-04T20:16:14Z</time>
      </trkpt>
      <trkpt lat="47.29309" lon="-0.51927">
        <ele>87</ele>
        <time>2022-04-04T20:16:20Z</time>
      </trkpt>
      <trkpt lat="47.29358" lon="-0.51856">
        <ele>88</ele>
        <time>2022-04-04T20:16:33Z</time>
      </trkpt>
      <trkpt lat="47.29382" lon="-0.51827">
        <ele>90</ele>
        <time>2022-04-04T20:16:38Z</time>
      </trkpt>
      <trkpt lat="47.29417" lon="-0.51806">
        <ele>92</ele>
        <time>2022-04-04T20:16:45Z</time>
      </trkpt>
      <trkpt lat="47.29493" lon="-0.51777">
        <ele>92</ele>
        <time>2022-04-04T20:16:59Z</time>
      </trkpt>
      <trkpt lat="47.29522" lon="-0.51758">
        <ele>93</ele>
        <time>2022-04-04T20:17:04Z</time>
      </trkpt>
      <trkpt lat="47.29545" lon="-0.51736">
        <ele>95</ele>
        <time>2022-04-04T20:17:09Z</time>
      </trkpt>
      <trkpt lat="47.29594" lon="-0.51671">
        <ele>97</ele>
        <time>2022-04-04T20:17:21Z</time>
      </trkpt>
      <trkpt lat="47.29609" lon="-0.51657">
        <ele>97</ele>
        <time>2022-04-04T20:17:24Z</time>
      </trkpt>
      <trkpt lat="47.29795" lon="-0.51513">
        <ele>95</ele>
        <time>2022-04-04T20:18:02Z</time>
      </trkpt>
      <trkpt lat="47.29867" lon="-0.51453">
        <ele>94</ele>
        <time>2022-04-04T20:18:16Z</time>
      </trkpt>
      <trkpt lat="47.2991" lon="-0.51409">
        <ele>91</ele>
        <time>2022-04-04T20:18:26Z</time>
      </trkpt>
      <trkpt lat="47.30054" lon="-0.51249">
        <ele>86</ele>
        <time>2022-04-04T20:18:58Z</time>
      </trkpt>
      <trkpt lat="47.30089" lon="-0.51219">
        <ele>86</ele>
        <time>2022-04-04T20:19:05Z</time>
      </trkpt>
      <trkpt lat="47.3013" lon="-0.51196">
        <ele>85</ele>
        <time>2022-04-04T20:19:13Z</time>
      </trkpt>
      <trkpt lat="47.30171" lon="-0.51183">
        <ele>85</ele>
        <time>2022-04-04T20:19:20Z</time>
      </trkpt>
      <trkpt lat="47.30574" lon="-0.51083">
        <ele>92</ele>
        <time>2022-04-04T20:20:33Z</time>
      </trkpt>
      <trkpt lat="47.3072" lon="-0.51044">
        <ele>90</ele>
        <time>2022-04-04T20:20:59Z</time>
      </trkpt>
      <trkpt lat="47.30742" lon="-0.51032">
        <ele>90</ele>
        <time>2022-04-04T20:21:03Z</time>
      </trkpt>
      <trkpt lat="47.30761" lon="-0.51017">
        <ele>90</ele>
        <time>2022-04-04T20:21:07Z</time>
      </trkpt>
      <trkpt lat="47.30842" lon="-0.50939">
        <ele>90</ele>
        <time>2022-04-04T20:21:25Z</time>
      </trkpt>
      <trkpt lat="47.30879" lon="-0.50917">
        <ele>91</ele>
        <time>2022-04-04T20:21:32Z</time>
      </trkpt>
      <trkpt lat="47.30901" lon="-0.50907">
        <ele>91</ele>
        <time>2022-04-04T20:21:36Z</time>
      </trkpt>
      <trkpt lat="47.3095" lon="-0.50895">
        <ele>92</ele>
        <time>2022-04-04T20:21:45Z</time>
      </trkpt>
      <trkpt lat="47.30986" lon="-0.50891">
        <ele>93</ele>
        <time>2022-04-04T20:21:51Z</time>
      </trkpt>
      <trkpt lat="47.31013" lon="-0.50889">
        <ele>94</ele>
        <time>2022-04-04T20:21:56Z</time>
      </trkpt>
      <trkpt lat="47.31214" lon="-0.50897">
        <ele>95</ele>
        <time>2022-04-04T20:22:32Z</time>
      </trkpt>
      <trkpt lat="47.31245" lon="-0.50894">
        <ele>96</ele>
        <time>2022-04-04T20:22:37Z</time>
      </trkpt>
      <trkpt lat="47.31308" lon="-0.5088">
        <ele>95</ele>
        <time>2022-04-04T20:22:48Z</time>
      </trkpt>
      <trkpt lat="47.31359" lon="-0.50857">
        <ele>94</ele>
        <time>2022-04-04T20:22:58Z</time>
      </trkpt>
      <trkpt lat="47.31578" lon="-0.50722">
        <ele>90</ele>
        <time>2022-04-04T20:23:40Z</time>
      </trkpt>
      <trkpt lat="47.31608" lon="-0.507">
        <ele>89</ele>
        <time>2022-04-04T20:23:46Z</time>
      </trkpt>
      <trkpt lat="47.31627" lon="-0.50681">
        <ele>88</ele>
        <time>2022-04-04T20:23:50Z</time>
      </trkpt>
      <trkpt lat="47.31855" lon="-0.5037">
        <ele>86</ele>
        <time>2022-04-04T20:24:45Z</time>
      </trkpt>
      <trkpt lat="47.31906" lon="-0.50292">
        <ele>87</ele>
        <time>2022-04-04T20:24:59Z</time>
      </trkpt>
      <trkpt lat="47.31984" lon="-0.50131">
        <ele>86</ele>
        <time>2022-04-04T20:25:22Z</time>
      </trkpt>
      <trkpt lat="47.32053" lon="-0.49997">
        <ele>85</ele>
        <time>2022-04-04T20:25:43Z</time>
      </trkpt>
      <trkpt lat="47.32171" lon="-0.4975">
        <ele>84</ele>
        <time>2022-04-04T20:26:19Z</time>
      </trkpt>
      <trkpt lat="47.32195" lon="-0.49703">
        <ele>84</ele>
        <time>2022-04-04T20:26:26Z</time>
      </trkpt>
      <trkpt lat="47.32212" lon="-0.49675">
        <ele>84</ele>
        <time>2022-04-04T20:26:31Z</time>
      </trkpt>
      <trkpt lat="47.32247" lon="-0.4963">
        <ele>83</ele>
        <time>2022-04-04T20:26:39Z</time>
      </trkpt>
      <trkpt lat="47.32791" lon="-0.48984">
        <ele>78</ele>
        <time>2022-04-04T20:28:43Z</time>
      </trkpt>
      <trkpt lat="47.32813" lon="-0.48952">
        <ele>78</ele>
        <time>2022-04-04T20:28:49Z</time>
      </trkpt>
      <trkpt lat="47.32827" lon="-0.48924">
        <ele>78</ele>
        <time>2022-04-04T20:28:53Z</time>
      </trkpt>
      <trkpt lat="47.32968" lon="-0.48592">
        <ele>75</ele>
        <time>2022-04-04T20:29:40Z</time>
      </trkpt>
      <trkpt lat="47.32993" lon="-0.48533">
        <ele>74</ele>
        <time>2022-04-04T20:29:49Z</time>
      </trkpt>
      <trkpt lat="47.33002" lon="-0.48504">
        <ele>73</ele>
        <time>2022-04-04T20:29:52Z</time>
      </trkpt>
      <trkpt lat="47.33009" lon="-0.48476">
        <ele>73</ele>
        <time>2022-04-04T20:29:56Z</time>
      </trkpt>
      <trkpt lat="47.3304" lon="-0.48314">
        <ele>73</ele>
        <time>2022-04-04T20:30:16Z</time>
      </trkpt>
      <trkpt lat="47.33036" lon="-0.48311">
        <ele>73</ele>
        <time>2022-04-04T20:30:17Z</time>
      </trkpt>
      <trkpt lat="47.33033" lon="-0.48303">
        <ele>73</ele>
        <time>2022-04-04T20:30:18Z</time>
      </trkpt>
      <trkpt lat="47.33035" lon="-0.48296">
        <ele>73</ele>
        <time>2022-04-04T20:30:19Z</time>
      </trkpt>
      <trkpt lat="47.3304" lon="-0.48291">
        <ele>73</ele>
        <time>2022-04-04T20:30:20Z</time>
      </trkpt>
      <trkpt lat="47.33044" lon="-0.48291">
        <ele>73</ele>
        <time>2022-04-04T20:30:21Z</time>
      </trkpt>
      <trkpt lat="47.33115" lon="-0.47931">
        <ele>74</ele>
        <time>2022-04-04T20:31:06Z</time>
      </trkpt>
      <trkpt lat="47.33131" lon="-0.47837">
        <ele>73</ele>
        <time>2022-04-04T20:31:18Z</time>
      </trkpt>
      <trkpt lat="47.33139" lon="-0.47807">
        <ele>73</ele>
        <time>2022-04-04T20:31:22Z</time>
      </trkpt>
      <trkpt lat="47.3315" lon="-0.47747">
        <ele>72</ele>
        <time>2022-04-04T20:31:29Z</time>
      </trkpt>
      <trkpt lat="47.3315" lon="-0.47734">
        <ele>72</ele>
        <time>2022-04-04T20:31:31Z</time>
      </trkpt>
      <trkpt lat="47.33173" lon="-0.47723">
        <ele>72</ele>
        <time>2022-04-04T20:31:35Z</time>
      </trkpt>
      <trkpt lat="47.33184" lon="-0.47713">
        <ele>71</ele>
        <time>2022-04-04T20:31:37Z</time>
      </trkpt>
      <trkpt lat="47.33209" lon="-0.47702">
        <ele>70</ele>
        <time>2022-04-04T20:31:42Z</time>
      </trkpt>
      <trkpt lat="47.33288" lon="-0.47687">
        <ele>68</ele>
        <time>2022-04-04T20:31:56Z</time>
      </trkpt>
      <trkpt lat="47.33318" lon="-0.47683">
        <ele>68</ele>
        <time>2022-04-04T20:32:02Z</time>
      </trkpt>
      <trkpt lat="47.33321" lon="-0.47678">
        <ele>67</ele>
        <time>2022-04-04T20:32:02Z</time>
      </trkpt>
      <trkpt lat="47.33324" lon="-0.47678">
        <ele>67</ele>
        <time>2022-04-04T20:32:03Z</time>
      </trkpt>
      <trkpt lat="47.33326" lon="-0.47681">
        <ele>67</ele>
        <time>2022-04-04T20:32:03Z</time>
      </trkpt>
      <trkpt lat="47.33352" lon="-0.47654">
        <ele>67</ele>
        <time>2022-04-04T20:32:09Z</time>
      </trkpt>
      <trkpt lat="47.33444" lon="-0.47475">
        <ele>68</ele>
        <time>2022-04-04T20:32:36Z</time>
      </trkpt>
      <trkpt lat="47.33511" lon="-0.47336">
        <ele>67</ele>
        <time>2022-04-04T20:32:57Z</time>
      </trkpt>
      <trkpt lat="47.33537" lon="-0.47298">
        <ele>68</ele>
        <time>2022-04-04T20:33:03Z</time>
      </trkpt>
      <trkpt lat="47.33578" lon="-0.47244">
        <ele>68</ele>
        <time>2022-04-04T20:33:13Z</time>
      </trkpt>
      <trkpt lat="47.33728" lon="-0.47025">
        <ele>61</ele>
        <time>2022-04-04T20:33:51Z</time>
      </trkpt>
      <trkpt lat="47.33726" lon="-0.47017">
        <ele>61</ele>
        <time>2022-04-04T20:33:52Z</time>
      </trkpt>
      <trkpt lat="47.33739" lon="-0.46995">
        <ele>60</ele>
        <time>2022-04-04T20:33:55Z</time>
      </trkpt>
      <trkpt lat="47.33851" lon="-0.46834">
        <ele>61</ele>
        <time>2022-04-04T20:34:23Z</time>
      </trkpt>
      <trkpt lat="47.33889" lon="-0.46781">
        <ele>59</ele>
        <time>2022-04-04T20:34:32Z</time>
      </trkpt>
      <trkpt lat="47.3395" lon="-0.46707">
        <ele>58</ele>
        <time>2022-04-04T20:34:46Z</time>
      </trkpt>
      <trkpt lat="47.34026" lon="-0.4661">
        <ele>59</ele>
        <time>2022-04-04T20:35:04Z</time>
      </trkpt>
      <trkpt lat="47.34072" lon="-0.4657">
        <ele>59</ele>
        <time>2022-04-04T20:35:14Z</time>
      </trkpt>
      <trkpt lat="47.34152" lon="-0.46509">
        <ele>59</ele>
        <time>2022-04-04T20:35:30Z</time>
      </trkpt>
      <trkpt lat="47.34182" lon="-0.46474">
        <ele>58</ele>
        <time>2022-04-04T20:35:36Z</time>
      </trkpt>
      <trkpt lat="47.34198" lon="-0.46446">
        <ele>57</ele>
        <time>2022-04-04T20:35:41Z</time>
      </trkpt>
      <trkpt lat="47.34306" lon="-0.46217">
        <ele>51</ele>
        <time>2022-04-04T20:36:15Z</time>
      </trkpt>
      <trkpt lat="47.34339" lon="-0.46175">
        <ele>51</ele>
        <time>2022-04-04T20:36:22Z</time>
      </trkpt>
      <trkpt lat="47.34492" lon="-0.46021">
        <ele>63</ele>
        <time>2022-04-04T20:36:55Z</time>
      </trkpt>
      <trkpt lat="47.34657" lon="-0.45864">
        <ele>63</ele>
        <time>2022-04-04T20:37:30Z</time>
      </trkpt>
      <trkpt lat="47.34823" lon="-0.45713">
        <ele>52</ele>
        <time>2022-04-04T20:38:05Z</time>
      </trkpt>
      <trkpt lat="47.34911" lon="-0.45628">
        <ele>53</ele>
        <time>2022-04-04T20:38:24Z</time>
      </trkpt>
      <trkpt lat="47.3525" lon="-0.45318">
        <ele>45</ele>
        <time>2022-04-04T20:39:35Z</time>
      </trkpt>
      <trkpt lat="47.35269" lon="-0.45268">
        <ele>43</ele>
        <time>2022-04-04T20:39:41Z</time>
      </trkpt>
      <trkpt lat="47.35278" lon="-0.45236">
        <ele>42</ele>
        <time>2022-04-04T20:39:46Z</time>
      </trkpt>
      <trkpt lat="47.35325" lon="-0.45098">
        <ele>40</ele>
        <time>2022-04-04T20:40:04Z</time>
      </trkpt>
      <trkpt lat="47.35343" lon="-0.45043">
        <ele>41</ele>
        <time>2022-04-04T20:40:12Z</time>
      </trkpt>
      <trkpt lat="47.35347" lon="-0.45028">
        <ele>42</ele>
        <time>2022-04-04T20:40:14Z</time>
      </trkpt>
      <trkpt lat="47.35367" lon="-0.44907">
        <ele>51</ele>
        <time>2022-04-04T20:40:29Z</time>
      </trkpt>
      <trkpt lat="47.35369" lon="-0.44899">
        <ele>51</ele>
        <time>2022-04-04T20:40:30Z</time>
      </trkpt>
      <trkpt lat="47.35372" lon="-0.44896">
        <ele>51</ele>
        <time>2022-04-04T20:40:30Z</time>
      </trkpt>
      <trkpt lat="47.35369" lon="-0.44889">
        <ele>51</ele>
        <time>2022-04-04T20:40:31Z</time>
      </trkpt>
      <trkpt lat="47.35358" lon="-0.44762">
        <ele>47</ele>
        <time>2022-04-04T20:40:47Z</time>
      </trkpt>
      <trkpt lat="47.35352" lon="-0.44736">
        <ele>46</ele>
        <time>2022-04-04T20:40:50Z</time>
      </trkpt>
      <trkpt lat="47.35343" lon="-0.44714">
        <ele>46</ele>
        <time>2022-04-04T20:40:53Z</time>
      </trkpt>
      <trkpt lat="47.35333" lon="-0.447">
        <ele>46</ele>
        <time>2022-04-04T20:40:56Z</time>
      </trkpt>
      <trkpt lat="47.35289" lon="-0.44656">
        <ele>46</ele>
        <time>2022-04-04T20:41:05Z</time>
      </trkpt>
      <trkpt lat="47.35328" lon="-0.44575">
        <ele>46</ele>
        <time>2022-04-04T20:41:17Z</time>
      </trkpt>
      <trkpt lat="47.35333" lon="-0.44574">
        <ele>46</ele>
        <time>2022-04-04T20:41:18Z</time>
      </trkpt>
      <trkpt lat="47.35376" lon="-0.44618">
        <ele>44</ele>
        <time>2022-04-04T20:41:27Z</time>
      </trkpt>
      <trkpt lat="47.35385" lon="-0.44624">
        <ele>43</ele>
        <time>2022-04-04T20:41:29Z</time>
      </trkpt>
      <trkpt lat="47.35406" lon="-0.44579">
        <ele>42</ele>
        <time>2022-04-04T20:41:36Z</time>
      </trkpt>
      <trkpt lat="47.35406" lon="-0.44578">
        <ele>42</ele>
        <time>2022-04-04T20:41:36Z</time>
      </trkpt>
    </trkseg>
  </trk>
</gpx>